SondeTracker

Meteorological Radiosondes Database

Operations

Sounding was ended - last measurement: 2022-12-06 01:42:41z

MAP
About Radiosonde

Number: D22037116 (22037116)

Launch Site: Blacksburg [VA] (US)

Type: DFM17

AUX: NO

Frequency: 404.011 MHz

Max Speed: 222 km/h at 32164 m

Average Speed: 103.71 km/h

Max Altitude: 32312 m

Average Ascent Speed: 4.88 m/s

Average Descent Speed: 9.89 m/s

Status: UNKNOWN

Status Changes
Launch Site Type AUX Frequency Status Finder Landing Point Description Changes made by
APRS Statistics

Received Frames: 987

First Frame [UTC]: 2022-12-05 23:05:55z

Last Frame [UTC]: 2022-12-06 01:42:41z

Receivers: K4KDR-12, KD4EG-15, KG4IFE-1, W4DEX-14, W4KZK-14

Flight Time: 02:36:46 h

Distance From First Measurement: 248.69 km

Nearest City: Petersburg [VA] (US) [40.69 km]

Nearest Hunter: [0.00 km]

Ground Altitude: 52 m

Distance from QTH: 0.00 km

APRS Data
Receiver Number Date/Time [UTC] φ λ Course [°] Speed [km/h] Altitude [m] Description
W4DEX-14D220371162022-12-06 01:42:4136.8938-77.63382026850Clb=-5.1m/s Type=DFM17 ser=[BC]22037116 Details on http://radiosondy.info
K4KDR-12D220371162022-12-06 01:40:2236.8787-77.640334351815Clb=-5.4m/s t=3.4C h=-1.0% p=-1.0hPa 404.010 MHz Type=DFM17 ser=22037116 Radiosonde
K4KDR-12D220371162022-12-06 01:37:1936.8678-77.652345312693Clb=-5.4m/s t=0.6C h=-1.0% p=-1.0hPa 404.010 MHz Type=DFM17 ser=22037116 Radiosonde
K4KDR-12D220371162022-12-06 01:36:1836.8662-77.655159332867Clb=-5.5m/s t=-0.2C h=-1.0% p=-1.0hPa 404.010 MHz Type=DFM17 ser=22037116 Radiosonde
K4KDR-12D220371162022-12-06 01:35:1736.8623-77.662761433275Clb=-4.9m/s t=-2.2C h=-1.0% p=-1.0hPa 404.010 MHz Type=DFM17 ser=22037116 Radiosonde
K4KDR-12D220371162022-12-06 01:34:1636.8591-77.672469433644Clb=-5.5m/s t=-3.3C h=-1.0% p=-1.0hPa 404.010 MHz Type=DFM17 ser=22037116 Radiosonde
K4KDR-12D220371162022-12-06 01:33:1536.8579-77.676867303860Clb=-5.5m/s t=-5.0C h=-1.0% p=-1.0hPa 404.010 MHz Type=DFM17 ser=22037116 Radiosonde
K4KDR-12D220371162022-12-06 01:32:1436.8567-77.681671304153Clb=-6.2m/s t=-7.0C h=-1.0% p=-1.0hPa 404.010 MHz Type=DFM17 ser=22037116 Radiosonde
W4DEX-14D220371162022-12-06 01:32:0836.8566-77.682174334189Clb=-6.0m/s Type=DFM17 ser=[BC]22037116 Details on http://radiosondy.info
W4DEX-14D220371162022-12-06 01:31:5336.8563-77.683578334284Clb=-5.9m/s Type=DFM17 ser=[BC]22037116 Details on http://radiosondy.info
W4DEX-14D220371162022-12-06 01:31:3736.8561-77.685286354367Clb=-6.0m/s Type=DFM17 ser=[BC]22037116 Details on http://radiosondy.info
W4DEX-14D220371162022-12-06 01:31:2236.8561-77.686994354463Clb=-6.0m/s Type=DFM17 ser=[BC]22037116 Details on http://radiosondy.info
K4KDR-12D220371162022-12-06 01:31:1336.8562-77.68897374517Clb=-5.9m/s t=-9.5C h=-1.0% p=-1.0hPa 404.010 MHz Type=DFM17 ser=22037116 Radiosonde
W4DEX-14D220371162022-12-06 01:31:0736.8562-77.688599394553Clb=-5.5m/s Type=DFM17 ser=[BC]22037116 Details on http://radiosondy.info
W4DEX-14D220371162022-12-06 01:30:5236.8565-77.6902107434640Clb=-5.9m/s Type=DFM17 ser=[BC]22037116 Details on http://radiosondy.info
W4DEX-14D220371162022-12-06 01:30:3736.857-77.6922109464725Clb=-5.7m/s Type=DFM17 ser=[BC]22037116 Details on http://radiosondy.info
W4DEX-14D220371162022-12-06 01:30:2236.8575-77.6942110464805Clb=-5.5m/s Type=DFM17 ser=[BC]22037116 Details on http://radiosondy.info
K4KDR-12D220371162022-12-06 01:30:1236.8579-77.6959109464863Clb=-6.0m/s t=-12.0C h=-1.0% p=-1.0hPa 404.010 MHz Type=DFM17 ser=22037116 Radiosonde
W4DEX-14D220371162022-12-06 01:30:0936.858-77.6963104504886Clb=-5.3m/s Type=DFM17 ser=[BC]22037116 Details on http://radiosondy.info
W4DEX-14D220371162022-12-06 01:29:5236.8585-77.6986102524969Clb=-5.6m/s Type=DFM17 ser=[BC]22037116 Details on http://radiosondy.info
W4DEX-14D220371162022-12-06 01:29:1136.8593-77.7053102445196Clb=-6.3m/s Type=DFM17 ser=[BC]22037116 Details on http://radiosondy.info
W4DEX-14D220371162022-12-06 01:28:5636.8596-77.7073107395287Clb=-5.8m/s Type=DFM17 ser=[BC]22037116 Details on http://radiosondy.info
W4DEX-14D220371162022-12-06 01:28:4136.8601-77.7089108375374Clb=-4.9m/s Type=DFM17 ser=[BC]22037116 Details on http://radiosondy.info
W4DEX-14D220371162022-12-06 01:28:2636.8605-77.7105111395457Clb=-6.2m/s Type=DFM17 ser=[BC]22037116 Details on http://radiosondy.info
W4DEX-14D220371162022-12-06 01:28:1136.861-77.7122113415546Clb=-6.4m/s Type=DFM17 ser=[BC]22037116 Details on http://radiosondy.info
K4KDR-12D220371162022-12-06 01:28:1036.8611-77.7124112395552Clb=-5.9m/s t=-15.3C h=-1.0% p=-1.0hPa 404.010 MHz Type=DFM17 ser=22037116 Radiosonde
W4DEX-14D220371162022-12-06 01:27:5636.8616-77.7139114435634Clb=-5.2m/s Type=DFM17 ser=[BC]22037116 Details on http://radiosondy.info
W4DEX-14D220371162022-12-06 01:27:4136.8623-77.7157114435714Clb=-5.1m/s Type=DFM17 ser=[BC]22037116 Details on http://radiosondy.info
W4DEX-14D220371162022-12-06 01:27:2636.863-77.7175115435794Clb=-5.0m/s Type=DFM17 ser=[BC]22037116 Details on http://radiosondy.info
W4DEX-14D220371162022-12-06 01:27:1136.8637-77.7193115445880Clb=-5.1m/s Type=DFM17 ser=[BC]22037116 Details on http://radiosondy.info
K4KDR-12D220371162022-12-06 01:27:0936.8639-77.7198122415895Clb=-5.0m/s t=-17.6C h=-1.0% p=-1.0hPa 404.010 MHz Type=DFM17 ser=22037116 Radiosonde
W4DEX-14D220371162022-12-06 01:26:5636.8646-77.7211121485964Clb=-6.3m/s Type=DFM17 ser=[BC]22037116 Details on http://radiosondy.info
W4DEX-14D220371162022-12-06 01:26:4136.8655-77.7231118506048Clb=-6.6m/s Type=DFM17 ser=[BC]22037116 Details on http://radiosondy.info
W4DEX-14D220371162022-12-06 01:26:2636.8663-77.7252116546144Clb=-6.4m/s Type=DFM17 ser=[BC]22037116 Details on http://radiosondy.info
W4DEX-14D220371162022-12-06 01:26:1136.8671-77.7274112566230Clb=-5.9m/s Type=DFM17 ser=[BC]22037116 Details on http://radiosondy.info
K4KDR-12D220371162022-12-06 01:26:0836.8674-77.7282112576252Clb=-5.8m/s t=-19.9C h=-1.0% p=-1.0hPa 404.010 MHz Type=DFM17 ser=22037116 Radiosonde
W4DEX-14D220371162022-12-06 01:25:5636.8679-77.7298112576313Clb=-5.0m/s Type=DFM17 ser=[BC]22037116 Details on http://radiosondy.info
W4DEX-14D220371162022-12-06 01:25:4136.8687-77.7323112576395Clb=-5.0m/s Type=DFM17 ser=[BC]22037116 Details on http://radiosondy.info
W4DEX-14D220371162022-12-06 01:25:2636.8695-77.7349115596475Clb=-5.1m/s Type=DFM17 ser=[BC]22037116 Details on http://radiosondy.info
W4DEX-14D220371162022-12-06 01:25:1136.8704-77.7374114596554Clb=-5.2m/s Type=DFM17 ser=[BC]22037116 Details on http://radiosondy.info
K4KDR-12D220371162022-12-06 01:25:0736.8714-77.74116596634Clb=-5.6m/s t=-22.1C h=-1.0% p=-1.0hPa 404.010 MHz Type=DFM17 ser=22037116 Radiosonde
W4DEX-14D220371162022-12-06 01:24:5636.8713-77.7398117636634Clb=-5.6m/s Type=DFM17 ser=[BC]22037116 Details on http://radiosondy.info
W4DEX-14D220371162022-12-06 01:24:4136.8724-77.7425116656717Clb=-4.6m/s Type=DFM17 ser=[BC]22037116 Details on http://radiosondy.info
W4DEX-14D220371162022-12-06 01:24:2636.8735-77.7452120656795Clb=-5.8m/s Type=DFM17 ser=[BC]22037116 Details on http://radiosondy.info
W4DEX-14D220371162022-12-06 01:24:1136.8747-77.7479117656876Clb=-5.1m/s Type=DFM17 ser=[BC]22037116 Details on http://radiosondy.info
K4KDR-12D220371162022-12-06 01:24:0536.8752-77.7491117656907Clb=-4.2m/s t=-24.2C h=-1.0% p=-1.0hPa 404.010 MHz Type=DFM17 ser=22037116 Radiosonde
W4DEX-14D220371162022-12-06 01:23:5636.8758-77.7506121656962Clb=-4.6m/s Type=DFM17 ser=[BC]22037116 Details on http://radiosondy.info
W4DEX-14D220371162022-12-06 01:23:4136.8769-77.7533116677045Clb=-4.6m/s Type=DFM17 ser=[BC]22037116 Details on http://radiosondy.info
KD4EG-15D220371162022-12-06 01:23:3636.8775-77.755113657095Clb=-6.4m/s t=-25.8C h=-1.0% p=-1.0hPa 404.010 MHz Type=DFM17 ser=22037116 Radiosonde
W4DEX-14D220371162022-12-06 01:23:2636.8779-77.7561114707136Clb=-5.1m/s Type=DFM17 ser=[BC]22037116 Details on http://radiosondy.info
W4DEX-14D220371162022-12-06 01:23:1136.8789-77.7591110727223Clb=-5.7m/s Type=DFM17 ser=[BC]22037116 Details on http://radiosondy.info
W4DEX-14D220371162022-12-06 01:22:5636.88-77.7622113747316Clb=-6.5m/s Type=DFM17 ser=[BC]22037116 Details on http://radiosondy.info
W4DEX-14D220371162022-12-06 01:22:4136.881-77.7654114727403Clb=-5.0m/s Type=DFM17 ser=[BC]22037116 Details on http://radiosondy.info
W4DEX-14D220371162022-12-06 01:22:2636.8821-77.7685111707488Clb=-5.5m/s Type=DFM17 ser=[BC]22037116 Details on http://radiosondy.info
W4DEX-14D220371162022-12-06 01:22:1136.8832-77.7715116727570Clb=-6.7m/s Type=DFM17 ser=[BC]22037116 Details on http://radiosondy.info
K4KDR-12D220371162022-12-06 01:22:0336.884-77.774112727632Clb=-5.5m/s t=-30.3C h=-1.0% p=-1.0hPa 404.010 MHz Type=DFM17 ser=22037116 Radiosonde
W4DEX-14D220371162022-12-06 01:21:5636.8842-77.7746113727657Clb=-6.0m/s Type=DFM17 ser=[BC]22037116 Details on http://radiosondy.info
W4DEX-14D220371162022-12-06 01:21:4136.8853-77.7777118747745Clb=-6.8m/s Type=DFM17 ser=[BC]22037116 Details on http://radiosondy.info
KD4EG-15D220371162022-12-06 01:21:3236.8863-77.7805113727820Clb=-6.4m/s t=-31.9C h=-1.0% p=-1.0hPa 404.010 MHz Type=DFM17 ser=22037116 Radiosonde
W4DEX-14D220371162022-12-06 01:21:2636.8865-77.7809114767839Clb=-4.3m/s Type=DFM17 ser=[BC]22037116 Details on http://radiosondy.info
W4DEX-14D220371162022-12-06 01:21:1136.8877-77.7841117767932Clb=-6.4m/s Type=DFM17 ser=[BC]22037116 Details on http://radiosondy.info
KD4EG-15D220371162022-12-06 01:21:0136.889-77.7873120788011Clb=-5.6m/s t=-33.5C h=-1.0% p=-1.0hPa 404.010 MHz Type=DFM17 ser=22037116 Radiosonde
W4DEX-14D220371162022-12-06 01:20:5636.889-77.7873121808017Clb=-6.3m/s Type=DFM17 ser=[BC]22037116 Details on http://radiosondy.info
W4DEX-14D220371162022-12-06 01:20:4136.8904-77.7905120858112Clb=-5.7m/s Type=DFM17 ser=[BC]22037116 Details on http://radiosondy.info
KD4EG-15D220371162022-12-06 01:20:3036.8917-77.7933123858178Clb=-6.6m/s t=-34.7C h=-1.0% p=-1.0hPa 404.010 MHz Type=DFM17 ser=22037116 Radiosonde
W4DEX-14D220371162022-12-06 01:20:2636.8921-77.794125918200Clb=-6.1m/s Type=DFM17 ser=[BC]22037116 Details on http://radiosondy.info
W4DEX-14D220371162022-12-06 01:20:1136.8939-77.7975122968282Clb=-7.0m/s Type=DFM17 ser=[BC]22037116 Details on http://radiosondy.info
K4KDR-12D220371162022-12-06 01:20:0236.8953-77.8003121968342Clb=-4.9m/s t=-35.8C h=-1.0% p=-1.0hPa 404.010 MHz Type=DFM17 ser=22037116 Radiosonde
KD4EG-15D220371162022-12-06 01:19:5936.8957-77.8011121988358Clb=-6.5m/s t=-36.0C h=-1.0% p=-1.0hPa 404.010 MHz Type=DFM17 ser=22037116 Radiosonde
W4DEX-14D220371162022-12-06 01:19:5636.8958-77.80141221028371Clb=-6.6m/s Type=DFM17 ser=[BC]22037116 Details on http://radiosondy.info
W4DEX-14D220371162022-12-06 01:19:4136.8978-77.80541231078459Clb=-4.9m/s Type=DFM17 ser=[BC]22037116 Details on http://radiosondy.info
KD4EG-15D220371162022-12-06 01:19:2836.9-77.80971201138534Clb=-5.7m/s t=-37.0C h=-1.0% p=-1.0hPa 404.010 MHz Type=DFM17 ser=22037116 Radiosonde
W4DEX-14D220371162022-12-06 01:19:2636.8999-77.80971211138540Clb=-5.1m/s Type=DFM17 ser=[BC]22037116 Details on http://radiosondy.info
W4DEX-14D220371162022-12-06 01:19:1136.902-77.81421201138625Clb=-6.5m/s Type=DFM17 ser=[BC]22037116 Details on http://radiosondy.info
W4DEX-14D220371162022-12-06 01:18:5636.9041-77.81881181178712Clb=-6.6m/s Type=DFM17 ser=[BC]22037116 Details on http://radiosondy.info
W4DEX-14D220371162022-12-06 01:18:4136.9061-77.82371181178814Clb=-6.3m/s Type=DFM17 ser=[BC]22037116 Details on http://radiosondy.info
W4DEX-14D220371162022-12-06 01:18:2636.9081-77.82861171178916Clb=-6.8m/s Type=DFM17 ser=[BC]22037116 Details on http://radiosondy.info
W4DEX-14D220371162022-12-06 01:18:1336.9101-77.83341171179006Clb=-7.0m/s Type=DFM17 ser=[BC]22037116 Details on http://radiosondy.info
K4KDR-12D220371162022-12-06 01:18:0136.9118-77.83771171159093Clb=-7.6m/s t=-41.7C h=-1.0% p=-1.0hPa 404.010 MHz Type=DFM17 ser=22037116 Radiosonde
W4DEX-14D220371162022-12-06 01:17:5836.9121-77.83831171209116Clb=-7.7m/s Type=DFM17 ser=[BC]22037116 Details on http://radiosondy.info
KD4EG-15D220371162022-12-06 01:17:5736.9135-77.8421141209192Clb=-7.2m/s t=-42.0C h=-1.0% p=-1.0hPa 404.010 MHz Type=DFM17 ser=22037116 Radiosonde
W4DEX-14D220371162022-12-06 01:17:4336.914-77.84341141249229Clb=-7.5m/s Type=DFM17 ser=[BC]22037116 Details on http://radiosondy.info
W4DEX-14D220371162022-12-06 01:17:2736.9157-77.84881091269339Clb=-7.4m/s Type=DFM17 ser=[BC]22037116 Details on http://radiosondy.info
KD4EG-15D220371162022-12-06 01:17:2436.9162-77.85061091249368Clb=-7.3m/s t=-42.8C h=-1.0% p=-1.0hPa 404.010 MHz Type=DFM17 ser=22037116 Radiosonde
W4DEX-14D220371162022-12-06 01:17:1136.9172-77.85441091319450Clb=-7.5m/s Type=DFM17 ser=[BC]22037116 Details on http://radiosondy.info
K4KDR-12D220371162022-12-06 01:16:5836.9185-77.85991061339546Clb=-7.4m/s t=-44.2C h=-1.0% p=-1.0hPa 404.010 MHz Type=DFM17 ser=22037116 Radiosonde
W4DEX-14D220371162022-12-06 01:16:5636.9186-77.86031051379561Clb=-7.6m/s Type=DFM17 ser=[BC]22037116 Details on http://radiosondy.info
W4DEX-14D220371162022-12-06 01:16:4136.9199-77.86651041449680Clb=-8.3m/s Type=DFM17 ser=[BC]22037116 Details on http://radiosondy.info
W4DEX-14D220371162022-12-06 01:16:2636.9211-77.87311031569797Clb=-8.0m/s Type=DFM17 ser=[BC]22037116 Details on http://radiosondy.info
W4DEX-14D220371162022-12-06 01:16:1136.9222-77.88021001639917Clb=-8.1m/s Type=DFM17 ser=[BC]22037116 Details on http://radiosondy.info
K4KDR-12D220371162022-12-06 01:15:5736.9234-77.888210116510032Clb=-7.2m/s t=-47.9C h=-1.0% p=-1.0hPa 404.010 MHz Type=DFM17 ser=22037116 Radiosonde
W4DEX-14D220371162022-12-06 01:15:5636.9233-77.887610116510032Clb=-7.1m/s Type=DFM17 ser=[BC]22037116 Details on http://radiosondy.info
W4DEX-14D220371162022-12-06 01:15:4236.9244-77.895210017010141Clb=-7.1m/s Type=DFM17 ser=[BC]22037116 Details on http://radiosondy.info
W4DEX-14D220371162022-12-06 01:15:2936.9255-77.903110017410250Clb=-7.4m/s Type=DFM17 ser=[BC]22037116 Details on http://radiosondy.info
W4DEX-14D220371162022-12-06 01:15:1536.9265-77.91119917410372Clb=-7.8m/s Type=DFM17 ser=[BC]22037116 Details on http://radiosondy.info
W4DEX-14D220371162022-12-06 01:14:5936.9275-77.91929917610488Clb=-8.1m/s Type=DFM17 ser=[BC]22037116 Details on http://radiosondy.info
KD4EG-15D220371162022-12-06 01:14:5236.9284-77.92739817010597Clb=-7.5m/s t=-52.8C h=-1.0% p=-1.0hPa 404.010 MHz Type=DFM17 ser=22037116 Radiosonde
W4DEX-14D220371162022-12-06 01:14:4636.9284-77.92739917410605Clb=-7.4m/s Type=DFM17 ser=[BC]22037116 Details on http://radiosondy.info
W4DEX-14D220371162022-12-06 01:14:3136.9294-77.93549918010719Clb=-7.5m/s Type=DFM17 ser=[BC]22037116 Details on http://radiosondy.info
KD4EG-15D220371162022-12-06 01:14:2336.9304-77.94199918010799Clb=-6.7m/s t=-54.6C h=-1.0% p=-1.0hPa 404.010 MHz Type=DFM17 ser=22037116 Radiosonde
W4DEX-14D220371162022-12-06 01:14:1736.9306-77.943610118110826Clb=-7.7m/s Type=DFM17 ser=[BC]22037116 Details on http://radiosondy.info
W4DEX-14D220371162022-12-06 01:14:0136.9319-77.951910218510938Clb=-8.2m/s Type=DFM17 ser=[BC]22037116 Details on http://radiosondy.info
K4KDR-12D220371162022-12-06 01:14:0036.9322-77.953610118310954Clb=-7.8m/s t=-55.9C h=-1.0% p=-1.0hPa 404.010 MHz Type=DFM17 ser=22037116 Radiosonde
W4DEX-14D220371162022-12-06 01:13:4736.9333-77.960410218711050Clb=-7.5m/s Type=DFM17 ser=[BC]22037116 Details on http://radiosondy.info
W4DEX-14D220371162022-12-06 01:13:3136.9349-77.968910418711155Clb=-6.9m/s Type=DFM17 ser=[BC]22037116 Details on http://radiosondy.info
W4DEX-14D220371162022-12-06 01:13:1636.9365-77.977410418911263Clb=-7.4m/s Type=DFM17 ser=[BC]22037116 Details on http://radiosondy.info
W4DEX-14D220371162022-12-06 01:13:0136.9382-77.98610418911376Clb=-7.8m/s Type=DFM17 ser=[BC]22037116 Details on http://radiosondy.info
K4KDR-12D220371162022-12-06 01:12:5936.9386-77.988310318711401Clb=-8.2m/s t=-59.9C h=-1.0% p=-1.0hPa 404.010 MHz Type=DFM17 ser=22037116 Radiosonde
W4DEX-14D220371162022-12-06 01:12:4736.9399-77.994510519111500Clb=-8.0m/s Type=DFM17 ser=[BC]22037116 Details on http://radiosondy.info
W4DEX-14D220371162022-12-06 01:12:3036.9418-78.003110619111626Clb=-8.7m/s Type=DFM17 ser=[BC]22037116 Details on http://radiosondy.info
W4DEX-14D220371162022-12-06 01:12:1636.9437-78.011710619311766Clb=-9.6m/s Type=DFM17 ser=[BC]22037116 Details on http://radiosondy.info
W4DEX-14D220371162022-12-06 01:11:5936.9457-78.020410819811909Clb=-9.1m/s Type=DFM17 ser=[BC]22037116 Details on http://radiosondy.info
K4KDR-12D220371162022-12-06 01:11:5736.9462-78.022810619411936Clb=-9.6m/s t=-64.2C h=-1.0% p=-1.0hPa 404.010 MHz Type=DFM17 ser=22037116 Radiosonde
KD4EG-15D220371162022-12-06 01:11:4536.9483-78.031110820012057Clb=-9.4m/s t=-64.9C h=-1.0% p=-1.0hPa 404.010 MHz Type=DFM17 ser=22037116 Radiosonde
W4DEX-14D220371162022-12-06 01:11:4336.9502-78.03811218712172Clb=-8.8m/s Type=DFM17 ser=[BC]22037116 Details on http://radiosondy.info
W4DEX-14D220371162022-12-06 01:11:1536.9531-78.04611417612292Clb=-7.2m/s Type=DFM17 ser=[BC]22037116 Details on http://radiosondy.info
W4DEX-14D220371162022-12-06 01:10:5936.9558-78.053511616912413Clb=-8.2m/s Type=DFM17 ser=[BC]22037116 Details on http://radiosondy.info
K4KDR-12D220371162022-12-06 01:10:5636.9567-78.05611716912446Clb=-8.2m/s t=-63.8C h=-1.0% p=-1.0hPa 404.010 MHz Type=DFM17 ser=22037116 Radiosonde
W4DEX-14D220371162022-12-06 01:10:4536.9586-78.060611718112537Clb=-9.1m/s Type=DFM17 ser=[BC]22037116 Details on http://radiosondy.info
W4DEX-14D220371162022-12-06 01:10:2936.9616-78.068211618712663Clb=-6.3m/s Type=DFM17 ser=[BC]22037116 Details on http://radiosondy.info
W4DEX-14D220371162022-12-06 01:10:1436.9644-78.076211519112788Clb=-10.4m/s Type=DFM17 ser=[BC]22037116 Details on http://radiosondy.info
KG4IFE-1D220371162022-12-06 01:10:0636.967-78.083211519412903Clb=-9.7m/s t=-60.9C h=-1.0% p=-1.0hPa 404.010 MHz Type=DFM17 ser=22037116 Radiosonde
W4DEX-14D220371162022-12-06 01:09:5936.9674-78.084311720012933Clb=-10.1m/s Type=DFM17 ser=[BC]22037116 Details on http://radiosondy.info
W4DEX-14D220371162022-12-06 01:09:4536.9707-78.092711719613054Clb=-9.0m/s Type=DFM17 ser=[BC]22037116 Details on http://radiosondy.info
KD4EG-15D220371162022-12-06 01:09:4336.9743-78.101311819113194Clb=-9.3m/s t=-61.1C h=-1.0% p=-1.0hPa 404.010 MHz Type=DFM17 ser=22037116 Radiosonde
W4DEX-14D220371162022-12-06 01:09:3136.9741-78.100811819113194Clb=-9.2m/s Type=DFM17 ser=[BC]22037116 Details on http://radiosondy.info
W4DEX-14D220371162022-12-06 01:09:1536.9774-78.108711619413320Clb=-9.7m/s Type=DFM17 ser=[BC]22037116 Details on http://radiosondy.info
KD4EG-15D220371162022-12-06 01:09:1136.9788-78.112611320013370Clb=-7.2m/s t=-61.2C h=-1.0% p=-1.0hPa 404.010 MHz Type=DFM17 ser=22037116 Radiosonde
KG4IFE-1D220371162022-12-06 01:09:0336.9803-78.116411518713423Clb=-8.1m/s t=-61.4C h=-1.0% p=-1.0hPa 404.010 MHz Type=DFM17 ser=22037116 Radiosonde
W4DEX-14D220371162022-12-06 01:09:0036.9805-78.116911519113437Clb=-6.5m/s Type=DFM17 ser=[BC]22037116 Details on http://radiosondy.info
W4DEX-14D220371162022-12-06 01:08:4536.9835-78.12511718013558Clb=-7.4m/s Type=DFM17 ser=[BC]22037116 Details on http://radiosondy.info
KD4EG-15D220371162022-12-06 01:08:3836.985-78.128511817413614Clb=-8.5m/s t=-62.0C h=-1.0% p=-1.0hPa 404.010 MHz Type=DFM17 ser=22037116 Radiosonde
KG4IFE-1D220371162022-12-06 01:08:3036.9865-78.13211817813674Clb=-7.2m/s t=-62.2C h=-1.0% p=-1.0hPa 404.010 MHz Type=DFM17 ser=22037116 Radiosonde
W4DEX-14D220371162022-12-06 01:08:2836.9867-78.132511916513693Clb=-9.4m/s Type=DFM17 ser=[BC]22037116 Details on http://radiosondy.info
W4DEX-14D220371162022-12-06 01:08:1136.9894-78.139311516313825Clb=-8.8m/s Type=DFM17 ser=[BC]22037116 Details on http://radiosondy.info
KD4EG-15D220371162022-12-06 01:08:0536.9922-78.146111816313970Clb=-10.5m/s t=-62.0C h=-1.0% p=-1.0hPa 404.010 MHz Type=DFM17 ser=22037116 Radiosonde
KG4IFE-1D220371162022-12-06 01:07:5736.9922-78.146111816313970Clb=-10.5m/s t=-62.0C h=-1.0% p=-1.0hPa 404.010 MHz Type=DFM17 ser=22037116 Radiosonde
W4DEX-14D220371162022-12-06 01:07:5636.9922-78.146111916913981Clb=-10.9m/s Type=DFM17 ser=[BC]22037116 Details on http://radiosondy.info
W4DEX-14D220371162022-12-06 01:07:4136.9951-78.153111816514122Clb=-7.3m/s Type=DFM17 ser=[BC]22037116 Details on http://radiosondy.info
KG4IFE-1D220371162022-12-06 01:07:2636.9982-78.160411816514233Clb=-7.6m/s t=-62.8C h=-1.0% p=-1.0hPa 404.010 MHz Type=DFM17 ser=22037116 Radiosonde
W4DEX-14D220371162022-12-06 01:07:1137.0013-78.166412415414345Clb=-7.3m/s Type=DFM17 ser=[BC]22037116 Details on http://radiosondy.info
KD4EG-15D220371162022-12-06 01:07:0237.0038-78.171812015214437Clb=-8.1m/s t=-62.8C h=-1.0% p=-1.0hPa 404.010 MHz Type=DFM17 ser=22037116 Radiosonde
W4DEX-14D220371162022-12-06 01:06:5637.0042-78.172612014614459Clb=-7.4m/s Type=DFM17 ser=[BC]22037116 Details on http://radiosondy.info
KG4IFE-1D220371162022-12-06 01:06:5537.0046-78.173411814614467Clb=-7.3m/s t=-63.0C h=-1.0% p=-1.0hPa 404.010 MHz Type=DFM17 ser=22037116 Radiosonde
KD4EG-15D220371162022-12-06 01:06:4337.0092-78.185711315714715Clb=-10.0m/s t=-63.8C h=-1.0% p=-1.0hPa 404.010 MHz Type=DFM17 ser=22037116 Radiosonde
KG4IFE-1D220371162022-12-06 01:06:4237.0096-78.18711415614745Clb=-10.6m/s t=-64.0C h=-1.0% p=-1.0hPa 404.010 MHz Type=DFM17 ser=22037116 Radiosonde
W4DEX-14D220371162022-12-06 01:06:4137.0137-78.19911216314996Clb=-7.7m/s Type=DFM17 ser=[BC]22037116 Details on http://radiosondy.info
W4DEX-14D220371162022-12-06 01:06:4037.016-78.206111316315147Clb=-10.4m/s Type=DFM17 ser=[BC]22037116 Details on http://radiosondy.info
KD4EG-15D220371162022-12-06 01:06:3837.0185-78.213111815415286Clb=-10.8m/s t=-273.0C h=-1.0% p=-1.0hPa 404.010 MHz Type=DFM17 ser=22037116 Radiosonde
W4DEX-14D220371162022-12-06 01:06:3737.0185-78.213111915215297Clb=-10.1m/s Type=DFM17 ser=[BC]22037116 Details on http://radiosondy.info
KG4IFE-1D220371162022-12-06 01:06:3637.0195-78.215711614815346Clb=-8.6m/s t=-66.4C h=-1.0% p=-1.0hPa 404.010 MHz Type=DFM17 ser=22037116 Radiosonde
W4DEX-14D220371162022-12-06 01:06:2837.0212-78.219312014315438Clb=-10.1m/s Type=DFM17 ser=[BC]22037116 Details on http://radiosondy.info
W4DEX-14D220371162022-12-06 01:06:1737.0238-78.225111813515586Clb=-10.3m/s Type=DFM17 ser=[BC]22037116 Details on http://radiosondy.info
KG4IFE-1D220371162022-12-06 01:06:1437.0249-78.227812013115649Clb=-11.4m/s t=-68.1C h=-1.0% p=-1.0hPa 404.010 MHz Type=DFM17 ser=22037116 Radiosonde
W4DEX-14D220371162022-12-06 01:06:0737.0262-78.230711913515744Clb=-10.2m/s Type=DFM17 ser=[BC]22037116 Details on http://radiosondy.info
W4DEX-14D220371162022-12-06 01:06:0037.0286-78.236312113315873Clb=-8.2m/s Type=DFM17 ser=[BC]22037116 Details on http://radiosondy.info
KG4IFE-1D220371162022-12-06 01:05:5937.0302-78.239512013315937Clb=-8.2m/s t=-68.3C h=-1.0% p=-1.0hPa 404.010 MHz Type=DFM17 ser=22037116 Radiosonde
W4DEX-14D220371162022-12-06 01:05:5837.0311-78.241611911915995Clb=-8.9m/s Type=DFM17 ser=[BC]22037116 Details on http://radiosondy.info
W4DEX-14D220371162022-12-06 01:05:5537.033-78.246711410716127Clb=-8.3m/s Type=DFM17 ser=[BC]22037116 Details on http://radiosondy.info
KG4IFE-1D220371162022-12-06 01:05:5437.0341-78.249511610416197Clb=-10.9m/s t=-65.6C h=-1.0% p=-1.0hPa 404.010 MHz Type=DFM17 ser=22037116 Radiosonde
W4DEX-14D220371162022-12-06 01:05:5337.0347-78.25121159416260Clb=-8.7m/s Type=DFM17 ser=[BC]22037116 Details on http://radiosondy.info
W4DEX-14D220371162022-12-06 01:05:5037.036-78.255210810016395Clb=-9.2m/s Type=DFM17 ser=[BC]22037116 Details on http://radiosondy.info
KG4IFE-1D220371162022-12-06 01:05:4937.0368-78.25821089816482Clb=-9.7m/s t=-66.5C h=-1.0% p=-1.0hPa 404.010 MHz Type=DFM17 ser=22037116 Radiosonde
W4DEX-14D220371162022-12-06 01:05:4537.0382-78.2641059416693Clb=-10.1m/s Type=DFM17 ser=[BC]22037116 Details on http://radiosondy.info
KG4IFE-1D220371162022-12-06 01:05:3937.0388-78.26721009116798Clb=-10.7m/s t=-66.3C h=-1.0% p=-1.0hPa 404.010 MHz Type=DFM17 ser=22037116 Radiosonde
W4DEX-14D220371162022-12-06 01:05:3637.0389-78.2683999416852Clb=-10.8m/s Type=DFM17 ser=[BC]22037116 Details on http://radiosondy.info
W4DEX-14D220371162022-12-06 01:05:1937.0391-78.27279110217016Clb=-11.3m/s Type=DFM17 ser=[BC]22037116 Details on http://radiosondy.info
KD4EG-15D220371162022-12-06 01:05:1737.0392-78.27539010417097Clb=-11.9m/s t=-67.3C h=-1.0% p=-1.0hPa 404.010 MHz Type=DFM17 ser=22037116 Radiosonde
KG4IFE-1D220371162022-12-06 01:05:1037.0392-78.27668910417146Clb=-12.0m/s t=-67.4C h=-1.0% p=-1.0hPa 404.010 MHz Type=DFM17 ser=22037116 Radiosonde
W4DEX-14D220371162022-12-06 01:05:0737.0392-78.27758911117194Clb=-12.2m/s Type=DFM17 ser=[BC]22037116 Details on http://radiosondy.info
W4DEX-14D220371162022-12-06 01:05:0037.039-78.28279211117379Clb=-13.0m/s Type=DFM17 ser=[BC]22037116 Details on http://radiosondy.info
KG4IFE-1D220371162022-12-06 01:04:5937.0395-78.28759810917554Clb=-14.4m/s t=-65.2C h=-1.0% p=-1.0hPa 404.010 MHz Type=DFM17 ser=22037116 Radiosonde
KG4IFE-1D220371162022-12-06 01:04:5837.0407-78.29581147417934Clb=-12.5m/s t=-65.7C h=-1.0% p=-1.0hPa 404.010 MHz Type=DFM17 ser=22037116 Radiosonde
W4DEX-14D220371162022-12-06 01:04:5737.0408-78.2961147417958Clb=-11.1m/s Type=DFM17 ser=[BC]22037116 Details on http://radiosondy.info
W4DEX-14D220371162022-12-06 01:04:4737.042-78.29911187218135Clb=-12.6m/s Type=DFM17 ser=[BC]22037116 Details on http://radiosondy.info
KG4IFE-1D220371162022-12-06 01:04:3337.0433-78.30211186118287Clb=-10.6m/s t=-65.8C h=-1.0% p=-1.0hPa 404.010 MHz Type=DFM17 ser=22037116 Radiosonde
W4DEX-14D220371162022-12-06 01:04:3237.0433-78.30211195418298Clb=-10.7m/s Type=DFM17 ser=[BC]22037116 Details on http://radiosondy.info
W4DEX-14D220371162022-12-06 01:04:1237.0439-78.30451095718457Clb=-10.5m/s Type=DFM17 ser=[BC]22037116 Details on http://radiosondy.info
KG4IFE-1D220371162022-12-06 01:03:5337.0443-78.3074986118610Clb=-10.3m/s t=-66.1C h=-1.0% p=-1.0hPa 404.010 MHz Type=DFM17 ser=22037116 Radiosonde
W4DEX-14D220371162022-12-06 01:03:5237.0443-78.3072996518611Clb=-10.3m/s Type=DFM17 ser=[BC]22037116 Details on http://radiosondy.info
W4DEX-14D220371162022-12-06 01:03:3237.0448-78.31011066518763Clb=-10.0m/s Type=DFM17 ser=[BC]22037116 Details on http://radiosondy.info
KD4EG-15D220371162022-12-06 01:03:1837.0455-78.31231125918865Clb=-9.9m/s t=-66.8C h=-1.0% p=-1.0hPa 404.010 MHz Type=DFM17 ser=22037116 Radiosonde
W4DEX-14D220371162022-12-06 01:03:1037.0457-78.31291135618914Clb=-10.3m/s Type=DFM17 ser=[BC]22037116 Details on http://radiosondy.info
KG4IFE-1D220371162022-12-06 01:03:0937.0458-78.31321145218924Clb=-10.0m/s t=-66.4C h=-1.0% p=-1.0hPa 404.010 MHz Type=DFM17 ser=22037116 Radiosonde
W4DEX-14D220371162022-12-06 01:02:5237.0466-78.31521195919065Clb=-10.0m/s Type=DFM17 ser=[BC]22037116 Details on http://radiosondy.info
W4DEX-14D220371162022-12-06 01:02:3237.0478-78.31751214619213Clb=-9.7m/s Type=DFM17 ser=[BC]22037116 Details on http://radiosondy.info
KG4IFE-1D220371162022-12-06 01:02:2937.0481-78.3181175019242Clb=-10.1m/s t=-64.6C h=-1.0% p=-1.0hPa 404.010 MHz Type=DFM17 ser=22037116 Radiosonde
W4DEX-14D220371162022-12-06 01:02:1237.0486-78.31941063719362Clb=-10.1m/s Type=DFM17 ser=[BC]22037116 Details on http://radiosondy.info
W4DEX-14D220371162022-12-06 01:01:5237.049-78.321992419513Clb=-10.1m/s Type=DFM17 ser=[BC]22037116 Details on http://radiosondy.info
KG4IFE-1D220371162022-12-06 01:01:4837.0491-78.3214952419543Clb=-10.1m/s t=-64.0C h=-1.0% p=-1.0hPa 404.010 MHz Type=DFM17 ser=22037116 Radiosonde
W4DEX-14D220371162022-12-06 01:01:2837.0491-78.3221903019666Clb=-10.2m/s Type=DFM17 ser=[BC]22037116 Details on http://radiosondy.info
KD4EG-15D220371162022-12-06 01:01:1237.0491-78.3233953519790Clb=-10.4m/s t=-64.1C h=-1.0% p=-1.0hPa 404.011 MHz Type=DFM17 ser=22037116 Radiosonde
W4DEX-14D220371162022-12-06 01:01:0737.0491-78.32361004119821Clb=-10.3m/s Type=DFM17 ser=[BC]22037116 Details on http://radiosondy.info
KG4IFE-1D220371162022-12-06 01:01:0137.0492-78.32421004419862Clb=-10.5m/s t=-63.8C h=-1.0% p=-1.0hPa 404.010 MHz Type=DFM17 ser=22037116 Radiosonde
W4DEX-14D220371162022-12-06 01:00:4437.0493-78.3254834419978Clb=-10.7m/s Type=DFM17 ser=[BC]22037116 Details on http://radiosondy.info
W4DEX-14D220371162022-12-06 01:00:2437.0487-78.3274625420141Clb=-11.0m/s Type=DFM17 ser=[BC]22037116 Details on http://radiosondy.info
KG4IFE-1D220371162022-12-06 01:00:1737.0484-78.3282595420197Clb=-11.1m/s t=-64.4C h=-1.0% p=-1.0hPa 404.010 MHz Type=DFM17 ser=22037116 Radiosonde
W4DEX-14D220371162022-12-06 01:00:0237.0477-78.3295595720310Clb=-11.4m/s Type=DFM17 ser=[BC]22037116 Details on http://radiosondy.info
W4DEX-14D220371162022-12-06 00:59:4337.0468-78.332685620484Clb=-11.7m/s Type=DFM17 ser=[BC]22037116 Details on http://radiosondy.info
KG4IFE-1D220371162022-12-06 00:59:3537.0465-78.3331765620555Clb=-11.9m/s t=-65.1C h=-1.0% p=-1.0hPa 404.010 MHz Type=DFM17 ser=22037116 Radiosonde
W4DEX-14D220371162022-12-06 00:59:2237.0462-78.3344795620664Clb=-12.0m/s Type=DFM17 ser=[BC]22037116 Details on http://radiosondy.info
W4DEX-14D220371162022-12-06 00:59:0237.0458-78.337825720845Clb=-12.2m/s Type=DFM17 ser=[BC]22037116 Details on http://radiosondy.info
KG4IFE-1D220371162022-12-06 00:58:5237.0457-78.3385865620945Clb=-12.4m/s t=-65.2C h=-1.0% p=-1.0hPa 404.010 MHz Type=DFM17 ser=22037116 Radiosonde
W4DEX-14D220371162022-12-06 00:58:4037.0457-78.3397915421032Clb=-12.0m/s Type=DFM17 ser=[BC]22037116 Details on http://radiosondy.info
W4DEX-14D220371162022-12-06 00:58:2137.0459-78.34211065621221Clb=-12.8m/s Type=DFM17 ser=[BC]22037116 Details on http://radiosondy.info
KG4IFE-1D220371162022-12-06 00:58:0937.0461-78.3438825921321Clb=-12.0m/s t=-64.7C h=-1.0% p=-1.0hPa 404.010 MHz Type=DFM17 ser=22037116 Radiosonde
W4DEX-14D220371162022-12-06 00:57:5937.0461-78.34471055621409Clb=-12.1m/s Type=DFM17 ser=[BC]22037116 Details on http://radiosondy.info
W4DEX-14D220371162022-12-06 00:57:3737.0462-78.3472965621602Clb=-13.5m/s Type=DFM17 ser=[BC]22037116 Details on http://radiosondy.info
KG4IFE-1D220371162022-12-06 00:57:2237.0463-78.3491135221733Clb=-12.3m/s t=-63.3C h=-1.0% p=-1.0hPa 404.010 MHz Type=DFM17 ser=22037116 Radiosonde
W4DEX-14D220371162022-12-06 00:57:1337.0465-78.3498944821797Clb=-12.9m/s Type=DFM17 ser=[BC]22037116 Details on http://radiosondy.info
W4DEX-14D220371162022-12-06 00:56:5237.0469-78.3519833021993Clb=-13.2m/s Type=DFM17 ser=[BC]22037116 Details on http://radiosondy.info
KG4IFE-1D220371162022-12-06 00:56:3637.0467-78.3529643922138Clb=-13.4m/s t=-62.3C h=-1.0% p=-1.0hPa 404.010 MHz Type=DFM17 ser=22037116 Radiosonde
W4DEX-14D220371162022-12-06 00:56:2937.0465-78.3532464422192Clb=-13.0m/s Type=DFM17 ser=[BC]22037116 Details on http://radiosondy.info
W4DEX-14D220371162022-12-06 00:56:0937.0455-78.3549615222393Clb=-13.3m/s Type=DFM17 ser=[BC]22037116 Details on http://radiosondy.info
KG4IFE-1D220371162022-12-06 00:55:5137.0451-78.357805022570Clb=-13.9m/s t=-61.6C h=-1.0% p=-1.0hPa 404.010 MHz Type=DFM17 ser=22037116 Radiosonde
W4DEX-14D220371162022-12-06 00:55:4637.0451-78.3572805622597Clb=-14.1m/s Type=DFM17 ser=[BC]22037116 Details on http://radiosondy.info
W4DEX-14D220371162022-12-06 00:55:2437.0452-78.3598915722812Clb=-14.5m/s Type=DFM17 ser=[BC]22037116 Details on http://radiosondy.info
KG4IFE-1D220371162022-12-06 00:55:0537.045-78.3623775923007Clb=-15.4m/s t=-60.3C h=-1.0% p=-1.0hPa 404.010 MHz Type=DFM17 ser=22037116 Radiosonde
W4DEX-14D220371162022-12-06 00:55:0337.045-78.3624786523038Clb=-15.3m/s Type=DFM17 ser=[BC]22037116 Details on http://radiosondy.info
W4DEX-14D220371162022-12-06 00:54:4137.0443-78.3653777223281Clb=-17.6m/s Type=DFM17 ser=[BC]22037116 Details on http://radiosondy.info
W4DEX-14D220371162022-12-06 00:54:1937.0438-78.3686878523515Clb=-13.1m/s Type=DFM17 ser=[BC]22037116 Details on http://radiosondy.info
W4DEX-14D220371162022-12-06 00:53:5337.0438-78.3726939623773Clb=-17.3m/s Type=DFM17 ser=[BC]22037116 Details on http://radiosondy.info
KG4IFE-1D220371162022-12-06 00:53:3037.0445-78.37731148324013Clb=-17.2m/s t=-57.5C h=-1.0% p=-1.0hPa 404.010 MHz Type=DFM17 ser=22037116 Radiosonde
W4DEX-14D220371162022-12-06 00:53:2937.0444-78.3771178524013Clb=-17.2m/s Type=DFM17 ser=[BC]22037116 Details on http://radiosondy.info
W4DEX-14D220371162022-12-06 00:53:0737.0454-78.38071107624313Clb=-22.1m/s Type=DFM17 ser=[BC]22037116 Details on http://radiosondy.info
W4DEX-14D220371162022-12-06 00:52:4137.0458-78.3842846724611Clb=-14.3m/s Type=DFM17 ser=[BC]22037116 Details on http://radiosondy.info
KG4IFE-1D220371162022-12-06 00:52:4037.0457-78.3846797024625Clb=-14.2m/s t=-56.7C h=-1.0% p=-1.0hPa 404.010 MHz Type=DFM17 ser=22037116 Radiosonde
W4DEX-14D220371162022-12-06 00:52:1537.0456-78.3873787624897Clb=-18.4m/s Type=DFM17 ser=[BC]22037116 Details on http://radiosondy.info
W4KZK-14D220371162022-12-06 00:52:0737.045-78.3901917825151Clb=-17.1m/s t=-55.4C h=-1.0% p=-1.0hPa 404.011 MHz Type=DFM17 ser=22037116 Radiosonde
W4DEX-14D220371162022-12-06 00:51:5637.0451-78.3908936725218Clb=-15.6m/s Type=DFM17 ser=[BC]22037116 Details on http://radiosondy.info
KG4IFE-1D220371162022-12-06 00:51:5437.045-78.3916866925273Clb=-21.5m/s t=-55.9C h=-1.0% p=-1.0hPa 404.010 MHz Type=DFM17 ser=22037116 Radiosonde
W4DEX-14D220371162022-12-06 00:51:4137.0453-78.3938827025538Clb=-23.2m/s Type=DFM17 ser=[BC]22037116 Details on http://radiosondy.info
W4DEX-14D220371162022-12-06 00:51:2637.0452-78.3971918725889Clb=-23.8m/s Type=DFM17 ser=[BC]22037116 Details on http://radiosondy.info
KG4IFE-1D220371162022-12-06 00:51:2337.0451-78.3981757825961Clb=-23.8m/s t=-54.7C h=-1.0% p=-1.0hPa 404.010 MHz Type=DFM17 ser=22037116 Radiosonde
W4DEX-14D220371162022-12-06 00:51:1137.0444-78.4011638726251Clb=-24.4m/s Type=DFM17 ser=[BC]22037116 Details on http://radiosondy.info
W4DEX-14D220371162022-12-06 00:50:5637.0429-78.4047707826625Clb=-23.6m/s Type=DFM17 ser=[BC]22037116 Details on http://radiosondy.info
KG4IFE-1D220371162022-12-06 00:50:5337.0426-78.4059838126716Clb=-20.5m/s t=-55.9C h=-1.0% p=-1.0hPa 404.010 MHz Type=DFM17 ser=22037116 Radiosonde
W4DEX-14D220371162022-12-06 00:50:4137.0424-78.4082937626946Clb=-19.2m/s Type=DFM17 ser=[BC]22037116 Details on http://radiosondy.info
W4DEX-14D220371162022-12-06 00:50:2737.0419-78.4117678727257Clb=-20.7m/s Type=DFM17 ser=[BC]22037116 Details on http://radiosondy.info
KG4IFE-1D220371162022-12-06 00:50:2237.0415-78.4132778127362Clb=-19.6m/s t=-56.4C h=-1.0% p=-1.0hPa 404.010 MHz Type=DFM17 ser=22037116 Radiosonde
W4DEX-14D220371162022-12-06 00:50:1137.0408-78.4156739627567Clb=-21.0m/s Type=DFM17 ser=[BC]22037116 Details on http://radiosondy.info
W4DEX-14D220371162022-12-06 00:49:5637.0396-78.41997910727866Clb=-17.6m/s Type=DFM17 ser=[BC]22037116 Details on http://radiosondy.info
W4KZK-14D220371162022-12-06 00:49:5337.0393-78.42127810227925Clb=-21.1m/s t=-53.5C h=-1.0% p=-1.0hPa 404.010 MHz Type=DFM17 ser=22037116 Radiosonde
KG4IFE-1D220371162022-12-06 00:49:5037.0391-78.42227310927991Clb=-20.6m/s t=-52.8C h=-1.0% p=-1.0hPa 404.010 MHz Type=DFM17 ser=22037116 Radiosonde
W4DEX-14D220371162022-12-06 00:49:4137.0387-78.42477612028188Clb=-20.8m/s Type=DFM17 ser=[BC]22037116 Details on http://radiosondy.info
W4DEX-14D220371162022-12-06 00:49:3937.028-78.52588018132312Clb=7.9m/s Type=DFM17 ser=[BC]22037116 Details on http://radiosondy.info
KG4IFE-1D220371162022-12-06 00:49:3637.027-78.53449617832233Clb=5.4m/s t=-45.3C h=-1.0% p=-1.0hPa 404.010 MHz Type=DFM17 ser=22037116 Radiosonde
W4KZK-14D220371162022-12-06 00:49:3537.0264-78.54197622232164Clb=9.2m/s t=-46.4C h=-1.0% p=-1.0hPa 404.010 MHz Type=DFM17 ser=22037116 Radiosonde
KD4EG-15D220371162022-12-06 00:49:3437.0256-78.54767621532113Clb=9.6m/s t=-47.0C h=-1.0% p=-1.0hPa 404.010 MHz Type=DFM17 ser=22037116 Radiosonde
W4DEX-14D220371162022-12-06 00:49:3337.0238-78.55897317431992Clb=3.3m/s Type=DFM17 ser=[BC]22037116 Details on http://radiosondy.info
KD4EG-15D220371162022-12-06 00:49:3237.0231-78.5647519331945Clb=8.5m/s t=-46.8C h=-1.0% p=-1.0hPa 404.010 MHz Type=DFM17 ser=22037116 Radiosonde
W4DEX-14D220371162022-12-06 00:49:3137.022-78.57377916931826Clb=4.2m/s Type=DFM17 ser=[BC]22037116 Details on http://radiosondy.info
W4DEX-14D220371162022-12-06 00:49:3037.0211-78.58148416131743Clb=3.1m/s Type=DFM17 ser=[BC]22037116 Details on http://radiosondy.info
W4DEX-14D220371162022-12-06 00:49:2937.0198-78.58898317431660Clb=1.5m/s Type=DFM17 ser=[BC]22037116 Details on http://radiosondy.info
W4DEX-14D220371162022-12-06 00:49:2837.0187-78.59666917231580Clb=2.0m/s Type=DFM17 ser=[BC]22037116 Details on http://radiosondy.info
W4DEX-14D220371162022-12-06 00:49:2637.0172-78.60459115931499Clb=4.5m/s Type=DFM17 ser=[BC]22037116 Details on http://radiosondy.info
KD4EG-15D220371162022-12-06 00:49:1437.0165-78.61076513931429Clb=7.6m/s t=-47.9C h=-1.0% p=-1.0hPa 404.011 MHz Type=DFM17 ser=22037116 Radiosonde
W4DEX-14D220371162022-12-06 00:49:1037.0161-78.61167617231415Clb=6.4m/s Type=DFM17 ser=[BC]22037116 Details on http://radiosondy.info
KG4IFE-1D220371162022-12-06 00:49:0237.0158-78.61487713731388Clb=7.6m/s t=-48.2C h=-1.0% p=-1.0hPa 404.010 MHz Type=DFM17 ser=22037116 Radiosonde
W4DEX-14D220371162022-12-06 00:48:4437.015-78.61947315631332Clb=8.4m/s Type=DFM17 ser=[BC]22037116 Details on http://radiosondy.info
W4KZK-14D220371162022-12-06 00:48:2437.0138-78.62587315931261Clb=5.1m/s t=-48.4C h=-1.0% p=-1.0hPa 404.010 MHz Type=DFM17 ser=22037116 Radiosonde
W4DEX-14D220371162022-12-06 00:48:1937.0137-78.62638415631248Clb=6.2m/s Type=DFM17 ser=[BC]22037116 Details on http://radiosondy.info
KG4IFE-1D220371162022-12-06 00:48:1037.0133-78.62966512431216Clb=2.0m/s t=-48.3C h=-1.0% p=-1.0hPa 404.010 MHz Type=DFM17 ser=22037116 Radiosonde
W4DEX-14D220371162022-12-06 00:47:5237.0128-78.63346614331166Clb=4.8m/s Type=DFM17 ser=[BC]22037116 Details on http://radiosondy.info
W4DEX-14D220371162022-12-06 00:47:2437.0116-78.63998515431087Clb=2.9m/s Type=DFM17 ser=[BC]22037116 Details on http://radiosondy.info
W4KZK-14D220371162022-12-06 00:47:2337.0115-78.6418016331084Clb=3.5m/s t=-47.8C h=-1.0% p=-1.0hPa 404.010 MHz Type=DFM17 ser=22037116 Radiosonde
KG4IFE-1D220371162022-12-06 00:47:1237.0109-78.64347915731050Clb=8.1m/s t=-47.7C h=-1.0% p=-1.0hPa 404.010 MHz Type=DFM17 ser=22037116 Radiosonde
W4DEX-14D220371162022-12-06 00:46:5537.0102-78.64676615031005Clb=1.6m/s Type=DFM17 ser=[BC]22037116 Details on http://radiosondy.info
W4DEX-14D220371162022-12-06 00:46:3037.0087-78.65357714430930Clb=3.1m/s Type=DFM17 ser=[BC]22037116 Details on http://radiosondy.info
KG4IFE-1D220371162022-12-06 00:46:1737.0076-78.65728217230881Clb=4.0m/s t=-48.5C h=-1.0% p=-1.0hPa 404.010 MHz Type=DFM17 ser=22037116 Radiosonde
W4DEX-14D220371162022-12-06 00:46:0337.0068-78.65965914430848Clb=4.1m/s Type=DFM17 ser=[BC]22037116 Details on http://radiosondy.info
W4DEX-14D220371162022-12-06 00:45:3837.005-78.6667213530769Clb=7.0m/s Type=DFM17 ser=[BC]22037116 Details on http://radiosondy.info
KG4IFE-1D220371162022-12-06 00:45:2137.0039-78.676914630721Clb=5.0m/s t=-49.2C h=-1.0% p=-1.0hPa 404.010 MHz Type=DFM17 ser=22037116 Radiosonde
W4DEX-14D220371162022-12-06 00:45:0937.0032-78.67177114130689Clb=9.7m/s Type=DFM17 ser=[BC]22037116 Details on http://radiosondy.info
W4DEX-14D220371162022-12-06 00:44:4637.0018-78.6787013130610Clb=6.9m/s Type=DFM17 ser=[BC]22037116 Details on http://radiosondy.info
KD4EG-15D220371162022-12-06 00:44:4237.0014-78.67948112030597Clb=6.0m/s t=-49.2C h=-1.0% p=-1.0hPa 404.011 MHz Type=DFM17 ser=22037116 Radiosonde
KG4IFE-1D220371162022-12-06 00:44:2937.0009-78.68277210730554Clb=1.8m/s t=-49.4C h=-1.0% p=-1.0hPa 404.010 MHz Type=DFM17 ser=22037116 Radiosonde
W4DEX-14D220371162022-12-06 00:44:1937.0008-78.68399113530534Clb=2.8m/s Type=DFM17 ser=[BC]22037116 Details on http://radiosondy.info
W4DEX-14D220371162022-12-06 00:43:5336.9999-78.697313030464Clb=2.3m/s Type=DFM17 ser=[BC]22037116 Details on http://radiosondy.info
KD4EG-15D220371162022-12-06 00:43:4736.9997-78.69248414630440Clb=1.2m/s t=-49.8C h=-1.0% p=-1.0hPa 404.010 MHz Type=DFM17 ser=22037116 Radiosonde
KG4IFE-1D220371162022-12-06 00:43:3336.9994-78.69468713530411Clb=7.7m/s t=-49.8C h=-1.0% p=-1.0hPa 404.010 MHz Type=DFM17 ser=22037116 Radiosonde
W4KZK-14D220371162022-12-06 00:43:2936.9994-78.69559116130400Clb=3.8m/s t=-49.8C h=-1.0% p=-1.0hPa 404.010 MHz Type=DFM17 ser=22037116 Radiosonde
W4DEX-14D220371162022-12-06 00:43:2536.9994-78.6969013030392Clb=4.5m/s Type=DFM17 ser=[BC]22037116 Details on http://radiosondy.info
W4DEX-14D220371162022-12-06 00:42:5836.9991-78.7028914130324Clb=7.1m/s Type=DFM17 ser=[BC]22037116 Details on http://radiosondy.info
KD4EG-15D220371162022-12-06 00:42:4936.999-78.70548710930293Clb=2.1m/s t=-49.4C h=-1.0% p=-1.0hPa 404.010 MHz Type=DFM17 ser=22037116 Radiosonde
KG4IFE-1D220371162022-12-06 00:42:3536.999-78.70778615430272Clb=1.9m/s t=-49.5C h=-1.0% p=-1.0hPa 404.010 MHz Type=DFM17 ser=22037116 Radiosonde
W4DEX-14D220371162022-12-06 00:42:2836.9989-78.70858113030255Clb=4.9m/s Type=DFM17 ser=[BC]22037116 Details on http://radiosondy.info
W4KZK-14D220371162022-12-06 00:42:2536.9989-78.70928510030251Clb=1.2m/s t=-49.6C h=-1.0% p=-1.0hPa 404.010 MHz Type=DFM17 ser=22037116 Radiosonde
W4DEX-14D220371162022-12-06 00:41:5936.9988-78.71469313930187Clb=1.9m/s Type=DFM17 ser=[BC]22037116 Details on http://radiosondy.info
KD4EG-15D220371162022-12-06 00:41:4836.9988-78.71789514630155Clb=7.8m/s t=-50.4C h=-1.0% p=-1.0hPa 404.010 MHz Type=DFM17 ser=22037116 Radiosonde
KG4IFE-1D220371162022-12-06 00:41:3536.9988-78.72068110230123Clb=5.9m/s t=-50.4C h=-1.0% p=-1.0hPa 404.010 MHz Type=DFM17 ser=22037116 Radiosonde
W4DEX-14D220371162022-12-06 00:41:3136.9987-78.72098613930117Clb=3.2m/s Type=DFM17 ser=[BC]22037116 Details on http://radiosondy.info
W4KZK-14D220371162022-12-06 00:41:2336.9987-78.72378915030091Clb=3.6m/s t=-50.4C h=-1.0% p=-1.0hPa 404.010 MHz Type=DFM17 ser=22037116 Radiosonde
W4DEX-14D220371162022-12-06 00:41:0236.9986-78.72759313730039Clb=6.3m/s Type=DFM17 ser=[BC]22037116 Details on http://radiosondy.info
KD4EG-15D220371162022-12-06 00:40:5036.9984-78.73098717029999Clb=4.6m/s t=-50.1C h=-1.0% p=-1.0hPa 404.010 MHz Type=DFM17 ser=22037116 Radiosonde
KG4IFE-1D220371162022-12-06 00:40:3636.9982-78.73398015429965Clb=8.8m/s t=-50.2C h=-1.0% p=-1.0hPa 404.010 MHz Type=DFM17 ser=22037116 Radiosonde
W4DEX-14D220371162022-12-06 00:40:3336.9982-78.73398115029956Clb=7.9m/s Type=DFM17 ser=[BC]22037116 Details on http://radiosondy.info
W4KZK-14D220371162022-12-06 00:40:2036.9979-78.73747812029917Clb=3.7m/s t=-50.5C h=-1.0% p=-1.0hPa 404.010 MHz Type=DFM17 ser=22037116 Radiosonde
W4DEX-14D220371162022-12-06 00:40:0736.9975-78.74078313329869Clb=5.1m/s Type=DFM17 ser=[BC]22037116 Details on http://radiosondy.info
KD4EG-15D220371162022-12-06 00:39:5336.9969-78.74457912229822Clb=9.8m/s t=-50.6C h=-1.0% p=-1.0hPa 404.010 MHz Type=DFM17 ser=22037116 Radiosonde
W4DEX-14D220371162022-12-06 00:39:3836.9966-78.74697913729778Clb=3.8m/s Type=DFM17 ser=[BC]22037116 Details on http://radiosondy.info
W4KZK-14D220371162022-12-06 00:39:2236.9959-78.75167815229715Clb=5.0m/s t=-50.1C h=-1.0% p=-1.0hPa 404.010 MHz Type=DFM17 ser=22037116 Radiosonde
W4DEX-14D220371162022-12-06 00:39:1236.9957-78.75318014629685Clb=6.4m/s Type=DFM17 ser=[BC]22037116 Details on http://radiosondy.info
KD4EG-15D220371162022-12-06 00:38:5836.995-78.75737512629627Clb=5.3m/s t=-50.2C h=-1.0% p=-1.0hPa 404.011 MHz Type=DFM17 ser=22037116 Radiosonde
W4DEX-14D220371162022-12-06 00:38:4536.9946-78.75988213729585Clb=8.2m/s Type=DFM17 ser=[BC]22037116 Details on http://radiosondy.info
KG4IFE-1D220371162022-12-06 00:38:4336.9945-78.7617711129570Clb=5.6m/s t=-50.4C h=-1.0% p=-1.0hPa 404.010 MHz Type=DFM17 ser=22037116 Radiosonde
W4KZK-14D220371162022-12-06 00:38:2336.9935-78.7667415429490Clb=7.5m/s t=-50.8C h=-1.0% p=-1.0hPa 404.010 MHz Type=DFM17 ser=22037116 Radiosonde
W4DEX-14D220371162022-12-06 00:38:2036.9935-78.7667513729483Clb=6.1m/s Type=DFM17 ser=[BC]22037116 Details on http://radiosondy.info
KD4EG-15D220371162022-12-06 00:38:0336.9928-78.77077414429418Clb=6.9m/s t=-50.6C h=-1.0% p=-1.0hPa 404.010 MHz Type=DFM17 ser=22037116 Radiosonde
W4DEX-14D220371162022-12-06 00:37:5036.9925-78.77218813929385Clb=8.3m/s Type=DFM17 ser=[BC]22037116 Details on http://radiosondy.info
KG4IFE-1D220371162022-12-06 00:37:4536.9924-78.7748115629365Clb=4.9m/s t=-50.6C h=-1.0% p=-1.0hPa 404.010 MHz Type=DFM17 ser=22037116 Radiosonde
W4DEX-14D220371162022-12-06 00:37:1836.9918-78.77867912429287Clb=5.2m/s Type=DFM17 ser=[BC]22037116 Details on http://radiosondy.info
W4KZK-14D220371162022-12-06 00:37:1636.9917-78.77968912229276Clb=7.5m/s t=-50.9C h=-1.0% p=-1.0hPa 404.010 MHz Type=DFM17 ser=22037116 Radiosonde
KD4EG-15D220371162022-12-06 00:36:5836.9914-78.78359113029209Clb=7.0m/s t=-51.2C h=-1.0% p=-1.0hPa 404.010 MHz Type=DFM17 ser=22037116 Radiosonde
W4DEX-14D220371162022-12-06 00:36:4736.9914-78.78448012029190Clb=7.2m/s Type=DFM17 ser=[BC]22037116 Details on http://radiosondy.info
KG4IFE-1D220371162022-12-06 00:36:4136.9911-78.78628710629165Clb=8.2m/s t=-51.5C h=-1.0% p=-1.0hPa 404.010 MHz Type=DFM17 ser=22037116 Radiosonde
W4DEX-14D220371162022-12-06 00:36:1836.9908-78.78989812029094Clb=6.2m/s Type=DFM17 ser=[BC]22037116 Details on http://radiosondy.info
W4KZK-14D220371162022-12-06 00:36:1036.9908-78.79197311329065Clb=4.0m/s t=-52.2C h=-1.0% p=-1.0hPa 404.010 MHz Type=DFM17 ser=22037116 Radiosonde
KD4EG-15D220371162022-12-06 00:35:5936.9908-78.79468612229020Clb=7.5m/s t=-52.1C h=-1.0% p=-1.0hPa 404.010 MHz Type=DFM17 ser=22037116 Radiosonde
W4DEX-14D220371162022-12-06 00:35:5636.9908-78.79548212829003Clb=4.5m/s Type=DFM17 ser=[BC]22037116 Details on http://radiosondy.info
KG4IFE-1D220371162022-12-06 00:35:5336.9909-78.79828613328963Clb=7.2m/s t=-52.0C h=-1.0% p=-1.0hPa 404.010 MHz Type=DFM17 ser=22037116 Radiosonde
W4DEX-14D220371162022-12-06 00:35:4136.991-78.80148613028910Clb=8.2m/s Type=DFM17 ser=[BC]22037116 Details on http://radiosondy.info
W4KZK-14D220371162022-12-06 00:35:4036.9912-78.80499315428861Clb=7.2m/s t=-52.3C h=-1.0% p=-1.0hPa 404.010 MHz Type=DFM17 ser=22037116 Radiosonde
KD4EG-15D220371162022-12-06 00:35:3436.9912-78.806910210428827Clb=7.6m/s t=-52.3C h=-1.0% p=-1.0hPa 404.010 MHz Type=DFM17 ser=22037116 Radiosonde
W4DEX-14D220371162022-12-06 00:35:3136.9912-78.807210713128816Clb=3.4m/s Type=DFM17 ser=[BC]22037116 Details on http://radiosondy.info
KG4IFE-1D220371162022-12-06 00:35:2436.9913-78.81038813128781Clb=5.9m/s t=-52.3C h=-1.0% p=-1.0hPa 404.010 MHz Type=DFM17 ser=22037116 Radiosonde
W4DEX-14D220371162022-12-06 00:35:1336.9915-78.81349513528723Clb=5.6m/s Type=DFM17 ser=[BC]22037116 Details on http://radiosondy.info
W4KZK-14D220371162022-12-06 00:35:0036.9917-78.81889313028653Clb=6.7m/s t=-51.9C h=-1.0% p=-1.0hPa 404.010 MHz Type=DFM17 ser=22037116 Radiosonde
W4DEX-14D220371162022-12-06 00:34:5636.9916-78.81957413328632Clb=4.4m/s Type=DFM17 ser=[BC]22037116 Details on http://radiosondy.info
KG4IFE-1D220371162022-12-06 00:34:4936.9915-78.82298412828591Clb=6.7m/s t=-52.0C h=-1.0% p=-1.0hPa 404.010 MHz Type=DFM17 ser=22037116 Radiosonde
W4DEX-14D220371162022-12-06 00:34:4136.9914-78.82578214128544Clb=7.0m/s Type=DFM17 ser=[BC]22037116 Details on http://radiosondy.info
W4KZK-14D220371162022-12-06 00:34:3136.9907-78.83229314328465Clb=7.3m/s t=-52.2C h=-1.0% p=-1.0hPa 404.010 MHz Type=DFM17 ser=22037116 Radiosonde
KD4EG-15D220371162022-12-06 00:34:2936.9908-78.83269713328459Clb=5.5m/s t=-52.2C h=-1.0% p=-1.0hPa 404.010 MHz Type=DFM17 ser=22037116 Radiosonde
KG4IFE-1D220371162022-12-06 00:34:2236.9905-78.83599314828413Clb=6.0m/s t=-52.2C h=-1.0% p=-1.0hPa 404.010 MHz Type=DFM17 ser=22037116 Radiosonde
W4DEX-14D220371162022-12-06 00:34:1436.9905-78.83838213328375Clb=5.9m/s Type=DFM17 ser=[BC]22037116 Details on http://radiosondy.info
W4DEX-14D220371162022-12-06 00:33:5736.99-78.84457212228298Clb=2.0m/s Type=DFM17 ser=[BC]22037116 Details on http://radiosondy.info
KD4EG-15D220371162022-12-06 00:33:5536.9899-78.84579111928286Clb=8.5m/s t=-52.4C h=-1.0% p=-1.0hPa 404.010 MHz Type=DFM17 ser=22037116 Radiosonde
W4KZK-14D220371162022-12-06 00:33:5436.9899-78.84579111928286Clb=8.5m/s t=-52.4C h=-1.0% p=-1.0hPa 404.010 MHz Type=DFM17 ser=22037116 Radiosonde
KG4IFE-1D220371162022-12-06 00:33:4736.9896-78.84837012628248Clb=3.7m/s t=-52.4C h=-1.0% p=-1.0hPa 404.010 MHz Type=DFM17 ser=22037116 Radiosonde
W4DEX-14D220371162022-12-06 00:33:4136.9895-78.85019111928217Clb=4.4m/s Type=DFM17 ser=[BC]22037116 Details on http://radiosondy.info
W4DEX-14D220371162022-12-06 00:33:2636.9889-78.85557510428139Clb=5.2m/s Type=DFM17 ser=[BC]22037116 Details on http://radiosondy.info
KD4EG-15D220371162022-12-06 00:33:2436.9887-78.85637710228128Clb=5.1m/s t=-52.3C h=-1.0% p=-1.0hPa 404.011 MHz Type=DFM17 ser=22037116 Radiosonde
W4KZK-14D220371162022-12-06 00:33:2336.9886-78.85748611328112Clb=5.3m/s t=-52.4C h=-1.0% p=-1.0hPa 404.010 MHz Type=DFM17 ser=22037116 Radiosonde
KG4IFE-1D220371162022-12-06 00:33:1636.9883-78.8599738328071Clb=2.9m/s t=-52.5C h=-1.0% p=-1.0hPa 404.010 MHz Type=DFM17 ser=22037116 Radiosonde
W4DEX-14D220371162022-12-06 00:33:1236.9882-78.86027411528061Clb=7.1m/s Type=DFM17 ser=[BC]22037116 Details on http://radiosondy.info
W4KZK-14D220371162022-12-06 00:33:0536.9685-78.9917927625151Clb=7.0m/s t=-55.9C h=-1.0% p=-1.0hPa 404.010 MHz Type=DFM17 ser=22037116 Radiosonde
KG4IFE-1D220371162022-12-06 00:32:5636.9685-78.9919887625145Clb=4.9m/s t=-56.0C h=-1.0% p=-1.0hPa 404.010 MHz Type=DFM17 ser=22037116 Radiosonde
W4DEX-14D220371162022-12-06 00:32:4936.9685-78.9924826725132Clb=6.6m/s Type=DFM17 ser=[BC]22037116 Details on http://radiosondy.info
W4DEX-14D220371162022-12-06 00:32:2236.9677-78.9954686525052Clb=3.9m/s Type=DFM17 ser=[BC]22037116 Details on http://radiosondy.info
KD4EG-15D220371162022-12-06 00:32:1136.9671-78.9978767224989Clb=5.0m/s t=-56.7C h=-1.0% p=-1.0hPa 404.011 MHz Type=DFM17 ser=22037116 Radiosonde
KG4IFE-1D220371162022-12-06 00:31:5436.9671-78.998816524983Clb=6.7m/s t=-56.6C h=-1.0% p=-1.0hPa 404.010 MHz Type=DFM17 ser=22037116 Radiosonde
W4DEX-14D220371162022-12-06 00:31:5036.967-78.9982836124972Clb=5.2m/s Type=DFM17 ser=[BC]22037116 Details on http://radiosondy.info
W4DEX-14D220371162022-12-06 00:31:2336.9665-79.0009766324894Clb=5.4m/s Type=DFM17 ser=[BC]22037116 Details on http://radiosondy.info
KD4EG-15D220371162022-12-06 00:31:1236.9663-79.00261026724858Clb=5.0m/s t=-56.9C h=-1.0% p=-1.0hPa 404.011 MHz Type=DFM17 ser=22037116 Radiosonde
KG4IFE-1D220371162022-12-06 00:30:5736.9663-79.0038906124821Clb=5.3m/s t=-57.3C h=-1.0% p=-1.0hPa 404.010 MHz Type=DFM17 ser=22037116 Radiosonde
W4DEX-14D220371162022-12-06 00:30:5336.9663-79.0038916924816Clb=5.4m/s Type=DFM17 ser=[BC]22037116 Details on http://radiosondy.info
W4DEX-14D220371162022-12-06 00:30:2736.9666-79.0069916924742Clb=4.3m/s Type=DFM17 ser=[BC]22037116 Details on http://radiosondy.info
KD4EG-15D220371162022-12-06 00:30:1436.9666-79.0094888024690Clb=4.6m/s t=-57.1C h=-1.0% p=-1.0hPa 404.010 MHz Type=DFM17 ser=22037116 Radiosonde
W4DEX-14D220371162022-12-06 00:29:5736.9666-79.01011126524669Clb=2.3m/s Type=DFM17 ser=[BC]22037116 Details on http://radiosondy.info
W4DEX-14D220371162022-12-06 00:29:3136.9666-79.0131736924596Clb=4.3m/s Type=DFM17 ser=[BC]22037116 Details on http://radiosondy.info
KD4EG-15D220371162022-12-06 00:29:1736.9664-79.0152746524549Clb=4.7m/s t=-58.1C h=-1.0% p=-1.0hPa 404.011 MHz Type=DFM17 ser=22037116 Radiosonde
W4DEX-14D220371162022-12-06 00:29:0236.9665-79.01631036724520Clb=4.1m/s Type=DFM17 ser=[BC]22037116 Details on http://radiosondy.info
KG4IFE-1D220371162022-12-06 00:29:0136.9666-79.0167896924515Clb=5.2m/s t=-58.0C h=-1.0% p=-1.0hPa 404.010 MHz Type=DFM17 ser=22037116 Radiosonde
W4KZK-14D220371162022-12-06 00:28:5736.9665-79.0171836724505Clb=5.6m/s t=-57.9C h=-1.0% p=-1.0hPa 404.010 MHz Type=DFM17 ser=22037116 Radiosonde
W4DEX-14D220371162022-12-06 00:28:3536.9666-79.0194977024443Clb=5.5m/s Type=DFM17 ser=[BC]22037116 Details on http://radiosondy.info
KD4EG-15D220371162022-12-06 00:28:1936.9668-79.0217858024393Clb=4.5m/s t=-57.6C h=-1.0% p=-1.0hPa 404.010 MHz Type=DFM17 ser=22037116 Radiosonde
W4DEX-14D220371162022-12-06 00:28:0736.9669-79.02271107424368Clb=4.2m/s Type=DFM17 ser=[BC]22037116 Details on http://radiosondy.info
KG4IFE-1D220371162022-12-06 00:28:0436.9671-79.02331005924359Clb=5.1m/s t=-57.4C h=-1.0% p=-1.0hPa 404.010 MHz Type=DFM17 ser=22037116 Radiosonde
W4KZK-14D220371162022-12-06 00:27:5636.9676-79.026948124297Clb=6.6m/s t=-57.1C h=-1.0% p=-1.0hPa 404.010 MHz Type=DFM17 ser=22037116 Radiosonde
W4DEX-14D220371162022-12-06 00:27:3936.9676-79.026938324292Clb=4.8m/s Type=DFM17 ser=[BC]22037116 Details on http://radiosondy.info
KD4EG-15D220371162022-12-06 00:27:2036.968-79.0289879324236Clb=4.7m/s t=-56.9C h=-1.0% p=-1.0hPa 404.010 MHz Type=DFM17 ser=22037116 Radiosonde
W4DEX-14D220371162022-12-06 00:27:0936.968-79.02981128124212Clb=7.5m/s Type=DFM17 ser=[BC]22037116 Details on http://radiosondy.info
KG4IFE-1D220371162022-12-06 00:27:0336.9683-79.03071057424193Clb=5.4m/s t=-56.7C h=-1.0% p=-1.0hPa 404.010 MHz Type=DFM17 ser=22037116 Radiosonde
W4KZK-14D220371162022-12-06 00:26:5136.9687-79.03241006724155Clb=7.1m/s t=-56.7C h=-1.0% p=-1.0hPa 404.010 MHz Type=DFM17 ser=22037116 Radiosonde
W4DEX-14D220371162022-12-06 00:26:4136.9687-79.03341058024129Clb=5.6m/s Type=DFM17 ser=[BC]22037116 Details on http://radiosondy.info
KD4EG-15D220371162022-12-06 00:26:1836.9695-79.03651029324063Clb=2.6m/s t=-57.6C h=-1.0% p=-1.0hPa 404.010 MHz Type=DFM17 ser=22037116 Radiosonde
W4DEX-14D220371162022-12-06 00:26:1136.9696-79.0371048124046Clb=6.5m/s Type=DFM17 ser=[BC]22037116 Details on http://radiosondy.info
KG4IFE-1D220371162022-12-06 00:26:0336.9699-79.03811108024025Clb=5.8m/s t=-57.8C h=-1.0% p=-1.0hPa 404.010 MHz Type=DFM17 ser=22037116 Radiosonde
W4KZK-14D220371162022-12-06 00:25:4936.9702-79.04021078123981Clb=2.0m/s t=-57.9C h=-1.0% p=-1.0hPa 404.010 MHz Type=DFM17 ser=22037116 Radiosonde
W4DEX-14D220371162022-12-06 00:25:4236.9703-79.0406868323964Clb=6.2m/s Type=DFM17 ser=[BC]22037116 Details on http://radiosondy.info
KD4EG-15D220371162022-12-06 00:25:1836.9706-79.0443807023892Clb=6.0m/s t=-57.7C h=-1.0% p=-1.0hPa 404.011 MHz Type=DFM17 ser=22037116 Radiosonde
W4DEX-14D220371162022-12-06 00:25:1336.9706-79.0445898523882Clb=4.6m/s Type=DFM17 ser=[BC]22037116 Details on http://radiosondy.info
KG4IFE-1D220371162022-12-06 00:25:0436.9706-79.0463839323850Clb=6.2m/s t=-58.0C h=-1.0% p=-1.0hPa 404.010 MHz Type=DFM17 ser=22037116 Radiosonde
W4KZK-14D220371162022-12-06 00:24:4536.9705-79.0488778523804Clb=6.6m/s t=-58.6C h=-1.0% p=-1.0hPa 404.010 MHz Type=DFM17 ser=22037116 Radiosonde
W4DEX-14D220371162022-12-06 00:24:4436.9705-79.0485788523804Clb=6.5m/s Type=DFM17 ser=[BC]22037116 Details on http://radiosondy.info
KD4EG-15D220371162022-12-06 00:24:1836.9701-79.0527858923720Clb=6.6m/s t=-59.2C h=-1.0% p=-1.0hPa 404.010 MHz Type=DFM17 ser=22037116 Radiosonde
W4DEX-14D220371162022-12-06 00:24:1536.9701-79.0524888723720Clb=6.6m/s Type=DFM17 ser=[BC]22037116 Details on http://radiosondy.info
KG4IFE-1D220371162022-12-06 00:24:0336.97-79.0544799123686Clb=6.2m/s t=-59.8C h=-1.0% p=-1.0hPa 404.010 MHz Type=DFM17 ser=22037116 Radiosonde
W4DEX-14D220371162022-12-06 00:23:4836.9697-79.0564807423637Clb=5.0m/s Type=DFM17 ser=[BC]22037116 Details on http://radiosondy.info
W4KZK-14D220371162022-12-06 00:23:4236.9695-79.0575837423619Clb=7.3m/s t=-60.5C h=-1.0% p=-1.0hPa 404.010 MHz Type=DFM17 ser=22037116 Radiosonde
W4DEX-14D220371162022-12-06 00:23:2036.9692-79.0598756923552Clb=6.6m/s Type=DFM17 ser=[BC]22037116 Details on http://radiosondy.info
KG4IFE-1D220371162022-12-06 00:23:0536.969-79.0617728023507Clb=3.9m/s t=-60.9C h=-1.0% p=-1.0hPa 404.010 MHz Type=DFM17 ser=22037116 Radiosonde
W4DEX-14D220371162022-12-06 00:22:5136.9687-79.0629816723468Clb=6.3m/s Type=DFM17 ser=[BC]22037116 Details on http://radiosondy.info
W4KZK-14D220371162022-12-06 00:22:4036.9683-79.0643756523435Clb=6.4m/s t=-61.2C h=-1.0% p=-1.0hPa 404.010 MHz Type=DFM17 ser=22037116 Radiosonde
W4DEX-14D220371162022-12-06 00:22:2136.9679-79.0659636523386Clb=7.0m/s Type=DFM17 ser=[BC]22037116 Details on http://radiosondy.info
KD4EG-15D220371162022-12-06 00:22:1936.9678-79.0662646123380Clb=6.0m/s t=-61.3C h=-1.0% p=-1.0hPa 404.011 MHz Type=DFM17 ser=22037116 Radiosonde
KG4IFE-1D220371162022-12-06 00:22:0636.9674-79.0679644823335Clb=6.8m/s t=-61.1C h=-1.0% p=-1.0hPa 404.010 MHz Type=DFM17 ser=22037116 Radiosonde
W4DEX-14D220371162022-12-06 00:21:5436.9671-79.0687706123302Clb=5.5m/s Type=DFM17 ser=[BC]22037116 Details on http://radiosondy.info
W4KZK-14D220371162022-12-06 00:21:3836.9666-79.0709696323242Clb=3.9m/s t=-60.7C h=-1.0% p=-1.0hPa 404.010 MHz Type=DFM17 ser=22037116 Radiosonde
W4DEX-14D220371162022-12-06 00:21:2636.9664-79.0714536123219Clb=4.0m/s Type=DFM17 ser=[BC]22037116 Details on http://radiosondy.info
KD4EG-15D220371162022-12-06 00:21:2336.9662-79.0718716923209Clb=6.6m/s t=-60.6C h=-1.0% p=-1.0hPa 404.011 MHz Type=DFM17 ser=22037116 Radiosonde
KG4IFE-1D220371162022-12-06 00:21:0936.9658-79.0735815723158Clb=4.3m/s t=-60.6C h=-1.0% p=-1.0hPa 404.010 MHz Type=DFM17 ser=22037116 Radiosonde
W4DEX-14D220371162022-12-06 00:21:0036.9657-79.0741825923135Clb=5.6m/s Type=DFM17 ser=[BC]22037116 Details on http://radiosondy.info
W4KZK-14D220371162022-12-06 00:20:3636.9655-79.0766776323064Clb=7.0m/s t=-61.5C h=-1.0% p=-1.0hPa 404.010 MHz Type=DFM17 ser=22037116 Radiosonde
W4DEX-14D220371162022-12-06 00:20:3136.9654-79.0768755923053Clb=4.8m/s Type=DFM17 ser=[BC]22037116 Details on http://radiosondy.info
KD4EG-15D220371162022-12-06 00:20:2436.9654-79.0781895223017Clb=5.1m/s t=-61.6C h=-1.0% p=-1.0hPa 404.011 MHz Type=DFM17 ser=22037116 Radiosonde
KG4IFE-1D220371162022-12-06 00:20:1036.9654-79.0789965922994Clb=3.7m/s t=-61.6C h=-1.0% p=-1.0hPa 404.010 MHz Type=DFM17 ser=22037116 Radiosonde
W4DEX-14D220371162022-12-06 00:20:0236.9655-79.0795994822972Clb=3.7m/s Type=DFM17 ser=[BC]22037116 Details on http://radiosondy.info
W4DEX-14D220371162022-12-06 00:19:3336.9656-79.0816856122895Clb=7.0m/s Type=DFM17 ser=[BC]22037116 Details on http://radiosondy.info
W4KZK-14D220371162022-12-06 00:19:3236.9656-79.08211077222890Clb=4.1m/s t=-62.0C h=-1.0% p=-1.0hPa 404.010 MHz Type=DFM17 ser=22037116 Radiosonde
KD4EG-15D220371162022-12-06 00:19:2536.9658-79.0827924322870Clb=3.2m/s t=-62.2C h=-1.0% p=-1.0hPa 404.011 MHz Type=DFM17 ser=22037116 Radiosonde
KG4IFE-1D220371162022-12-06 00:19:1236.9659-79.084806922837Clb=4.2m/s t=-62.5C h=-1.0% p=-1.0hPa 404.010 MHz Type=DFM17 ser=22037116 Radiosonde
W4DEX-14D220371162022-12-06 00:19:0636.9659-79.08441045222822Clb=5.0m/s Type=DFM17 ser=[BC]22037116 Details on http://radiosondy.info
W4DEX-14D220371162022-12-06 00:18:3936.9665-79.08671004622747Clb=5.6m/s Type=DFM17 ser=[BC]22037116 Details on http://radiosondy.info
W4KZK-14D220371162022-12-06 00:18:3436.9665-79.08751064622727Clb=6.3m/s t=-62.8C h=-1.0% p=-1.0hPa 404.010 MHz Type=DFM17 ser=22037116 Radiosonde
KD4EG-15D220371162022-12-06 00:18:3036.9665-79.08761134422721Clb=6.3m/s t=-62.8C h=-1.0% p=-1.0hPa 404.011 MHz Type=DFM17 ser=22037116 Radiosonde
KG4IFE-1D220371162022-12-06 00:18:1736.9666-79.0887927222680Clb=5.0m/s t=-62.9C h=-1.0% p=-1.0hPa 404.010 MHz Type=DFM17 ser=22037116 Radiosonde
W4DEX-14D220371162022-12-06 00:18:1236.9666-79.0889965222671Clb=3.9m/s Type=DFM17 ser=[BC]22037116 Details on http://radiosondy.info
W4DEX-14D220371162022-12-06 00:17:4336.9668-79.0913854822602Clb=3.9m/s Type=DFM17 ser=[BC]22037116 Details on http://radiosondy.info
KD4EG-15D220371162022-12-06 00:17:3136.9667-79.0931863722549Clb=5.9m/s t=-62.3C h=-1.0% p=-1.0hPa 404.011 MHz Type=DFM17 ser=22037116 Radiosonde
KG4IFE-1D220371162022-12-06 00:17:1636.9667-79.0935854822532Clb=5.5m/s t=-62.3C h=-1.0% p=-1.0hPa 404.010 MHz Type=DFM17 ser=22037116 Radiosonde
W4DEX-14D220371162022-12-06 00:17:1436.9667-79.0935864822527Clb=4.1m/s Type=DFM17 ser=[BC]22037116 Details on http://radiosondy.info
W4DEX-14D220371162022-12-06 00:16:4536.9662-79.0957603922454Clb=5.8m/s Type=DFM17 ser=[BC]22037116 Details on http://radiosondy.info
W4KZK-14D220371162022-12-06 00:16:2736.9657-79.0969523522406Clb=5.7m/s t=-62.5C h=-1.0% p=-1.0hPa 404.010 MHz Type=DFM17 ser=22037116 Radiosonde
KG4IFE-1D220371162022-12-06 00:16:1836.9654-79.0974603322374Clb=5.1m/s t=-62.6C h=-1.0% p=-1.0hPa 404.010 MHz Type=DFM17 ser=22037116 Radiosonde
W4DEX-14D220371162022-12-06 00:15:5636.9651-79.0986792622304Clb=5.2m/s Type=DFM17 ser=[BC]22037116 Details on http://radiosondy.info
KD4EG-15D220371162022-12-06 00:15:4836.9648-79.09951012822252Clb=4.9m/s t=-63.3C h=-1.0% p=-1.0hPa 404.011 MHz Type=DFM17 ser=22037116 Radiosonde
W4KZK-14D220371162022-12-06 00:15:4436.9648-79.0996325922231Clb=5.6m/s t=-63.2C h=-1.0% p=-1.0hPa 404.010 MHz Type=DFM17 ser=22037116 Radiosonde
W4DEX-14D220371162022-12-06 00:15:4136.9648-79.0995481522225Clb=5.2m/s Type=DFM17 ser=[BC]22037116 Details on http://radiosondy.info
W4DEX-14D220371162022-12-06 00:15:2936.9648-79.1001621722144Clb=5.7m/s Type=DFM17 ser=[BC]22037116 Details on http://radiosondy.info
KD4EG-15D220371162022-12-06 00:15:2136.9648-79.1005721922091Clb=5.4m/s t=-62.9C h=-1.0% p=-1.0hPa 404.011 MHz Type=DFM17 ser=22037116 Radiosonde
W4DEX-14D220371162022-12-06 00:15:1436.9649-79.10081383022064Clb=6.1m/s Type=DFM17 ser=[BC]22037116 Details on http://radiosondy.info
KG4IFE-1D220371162022-12-06 00:15:1136.965-79.101871322054Clb=4.7m/s t=-62.8C h=-1.0% p=-1.0hPa 404.010 MHz Type=DFM17 ser=22037116 Radiosonde
W4DEX-14D220371162022-12-06 00:14:5636.9651-79.10211103921984Clb=4.1m/s Type=DFM17 ser=[BC]22037116 Details on http://radiosondy.info
KD4EG-15D220371162022-12-06 00:14:4636.9654-79.10341153721924Clb=6.3m/s t=-61.9C h=-1.0% p=-1.0hPa 404.011 MHz Type=DFM17 ser=22037116 Radiosonde
W4DEX-14D220371162022-12-06 00:14:4436.9655-79.10381054321902Clb=6.0m/s Type=DFM17 ser=[BC]22037116 Details on http://radiosondy.info
W4DEX-14D220371162022-12-06 00:14:4036.966-79.10571025621820Clb=3.8m/s Type=DFM17 ser=[BC]22037116 Details on http://radiosondy.info
KD4EG-15D220371162022-12-06 00:14:3736.9663-79.1078785221753Clb=5.2m/s t=-62.2C h=-1.0% p=-1.0hPa 404.011 MHz Type=DFM17 ser=22037116 Radiosonde
W4DEX-14D220371162022-12-06 00:14:3636.9663-79.10821005921738Clb=5.9m/s Type=DFM17 ser=[BC]22037116 Details on http://radiosondy.info
KG4IFE-1D220371162022-12-06 00:14:3236.9665-79.10921016521716Clb=4.0m/s t=-62.1C h=-1.0% p=-1.0hPa 404.010 MHz Type=DFM17 ser=22037116 Radiosonde
W4KZK-14D220371162022-12-06 00:14:2836.9666-79.1098956321700Clb=4.8m/s t=-62.1C h=-1.0% p=-1.0hPa 404.010 MHz Type=DFM17 ser=22037116 Radiosonde
W4DEX-14D220371162022-12-06 00:14:1836.9667-79.11091025621654Clb=6.0m/s Type=DFM17 ser=[BC]22037116 Details on http://radiosondy.info
KD4EG-15D220371162022-12-06 00:14:0736.967-79.1133975721582Clb=6.6m/s t=-62.3C h=-1.0% p=-1.0hPa 404.011 MHz Type=DFM17 ser=22037116 Radiosonde
W4DEX-14D220371162022-12-06 00:14:0336.967-79.1134886121570Clb=5.2m/s Type=DFM17 ser=[BC]22037116 Details on http://radiosondy.info
KG4IFE-1D220371162022-12-06 00:14:0036.9671-79.1146996921542Clb=4.5m/s t=-62.4C h=-1.0% p=-1.0hPa 404.010 MHz Type=DFM17 ser=22037116 Radiosonde
W4KZK-14D220371162022-12-06 00:13:5936.9671-79.1155816721512Clb=4.9m/s t=-62.4C h=-1.0% p=-1.0hPa 404.010 MHz Type=DFM17 ser=22037116 Radiosonde
W4DEX-14D220371162022-12-06 00:13:5836.9671-79.11631016521484Clb=4.8m/s Type=DFM17 ser=[BC]22037116 Details on http://radiosondy.info
W4DEX-14D220371162022-12-06 00:13:5336.9669-79.1193866121402Clb=4.7m/s Type=DFM17 ser=[BC]22037116 Details on http://radiosondy.info
KG4IFE-1D220371162022-12-06 00:13:5136.9669-79.1206925921369Clb=5.8m/s t=-62.5C h=-1.0% p=-1.0hPa 404.010 MHz Type=DFM17 ser=22037116 Radiosonde
W4KZK-14D220371162022-12-06 00:13:5036.9666-79.1219726321330Clb=5.4m/s t=-63.0C h=-1.0% p=-1.0hPa 404.010 MHz Type=DFM17 ser=22037116 Radiosonde
W4DEX-14D220371162022-12-06 00:13:4936.9666-79.1221776121321Clb=6.0m/s Type=DFM17 ser=[BC]22037116 Details on http://radiosondy.info
KD4EG-15D220371162022-12-06 00:13:4436.9661-79.1251836521237Clb=5.8m/s t=-63.4C h=-1.0% p=-1.0hPa 404.011 MHz Type=DFM17 ser=22037116 Radiosonde
W4DEX-14D220371162022-12-06 00:13:4236.9656-79.1278687221159Clb=5.4m/s Type=DFM17 ser=[BC]22037116 Details on http://radiosondy.info
W4DEX-14D220371162022-12-06 00:13:4036.9652-79.1311896721082Clb=3.1m/s Type=DFM17 ser=[BC]22037116 Details on http://radiosondy.info
KG4IFE-1D220371162022-12-06 00:13:3936.965-79.1336726121028Clb=6.6m/s t=-64.5C h=-1.0% p=-1.0hPa 404.010 MHz Type=DFM17 ser=22037116 Radiosonde
W4DEX-14D220371162022-12-06 00:13:3836.9649-79.1342855921009Clb=4.3m/s Type=DFM17 ser=[BC]22037116 Details on http://radiosondy.info
W4DEX-14D220371162022-12-06 00:13:3736.9649-79.1369996320929Clb=4.2m/s Type=DFM17 ser=[BC]22037116 Details on http://radiosondy.info
KG4IFE-1D220371162022-12-06 00:13:3636.9648-79.1391787820874Clb=7.4m/s t=-64.0C h=-1.0% p=-1.0hPa 404.010 MHz Type=DFM17 ser=22037116 Radiosonde
W4KZK-14D220371162022-12-06 00:13:3536.9646-79.1417755720809Clb=4.0m/s t=-63.9C h=-1.0% p=-1.0hPa 404.010 MHz Type=DFM17 ser=22037116 Radiosonde
KD4EG-15D220371162022-12-06 00:13:3336.9643-79.1435746320765Clb=3.7m/s t=-64.2C h=-1.0% p=-1.0hPa 404.011 MHz Type=DFM17 ser=22037116 Radiosonde
W4DEX-14D220371162022-12-06 00:13:1936.964-79.1453695920704Clb=4.7m/s Type=DFM17 ser=[BC]22037116 Details on http://radiosondy.info
W4KZK-14D220371162022-12-06 00:13:0836.9636-79.1474685920646Clb=6.1m/s t=-64.4C h=-1.0% p=-1.0hPa 404.010 MHz Type=DFM17 ser=22037116 Radiosonde
W4DEX-14D220371162022-12-06 00:13:0336.9634-79.1479755920626Clb=4.5m/s Type=DFM17 ser=[BC]22037116 Details on http://radiosondy.info
KD4EG-15D220371162022-12-06 00:13:0136.9633-79.1491735220601Clb=5.5m/s t=-64.3C h=-1.0% p=-1.0hPa 404.011 MHz Type=DFM17 ser=22037116 Radiosonde
KG4IFE-1D220371162022-12-06 00:13:0036.963-79.1503755620562Clb=5.6m/s t=-64.2C h=-1.0% p=-1.0hPa 404.010 MHz Type=DFM17 ser=22037116 Radiosonde
W4KZK-14D220371162022-12-06 00:12:5936.9624-79.1531836520473Clb=3.5m/s t=-63.9C h=-1.0% p=-1.0hPa 404.010 MHz Type=DFM17 ser=22037116 Radiosonde
W4DEX-14D220371162022-12-06 00:12:5836.9618-79.156696320373Clb=5.0m/s Type=DFM17 ser=[BC]22037116 Details on http://radiosondy.info
W4DEX-14D220371162022-12-06 00:12:5736.9609-79.1587635620291Clb=4.2m/s Type=DFM17 ser=[BC]22037116 Details on http://radiosondy.info
W4DEX-14D220371162022-12-06 00:12:5636.9603-79.1611674120207Clb=6.7m/s Type=DFM17 ser=[BC]22037116 Details on http://radiosondy.info
W4DEX-14D220371162022-12-06 00:12:5536.9598-79.1629874120123Clb=4.3m/s Type=DFM17 ser=[BC]22037116 Details on http://radiosondy.info
KG4IFE-1D220371162022-12-06 00:12:4936.9598-79.16481223520039Clb=6.1m/s t=-64.5C h=-1.0% p=-1.0hPa 404.010 MHz Type=DFM17 ser=22037116 Radiosonde
W4DEX-14D220371162022-12-06 00:12:4836.9598-79.16471234420039Clb=6.0m/s Type=DFM17 ser=[BC]22037116 Details on http://radiosondy.info
W4DEX-14D220371162022-12-06 00:12:2736.96-79.16671074419948Clb=6.1m/s Type=DFM17 ser=[BC]22037116 Details on http://radiosondy.info
W4KZK-14D220371162022-12-06 00:12:1536.9603-79.16791054319901Clb=4.9m/s t=-65.6C h=-1.0% p=-1.0hPa 404.011 MHz Type=DFM17 ser=22037116 Radiosonde
KD4EG-15D220371162022-12-06 00:12:1436.9603-79.16791054319901Clb=4.9m/s t=-65.6C h=-1.0% p=-1.0hPa 404.011 MHz Type=DFM17 ser=22037116 Radiosonde
W4DEX-14D220371162022-12-06 00:11:5836.9604-79.16871164319863Clb=4.3m/s Type=DFM17 ser=[BC]22037116 Details on http://radiosondy.info
W4DEX-14D220371162022-12-06 00:11:3336.9609-79.17051093719782Clb=4.3m/s Type=DFM17 ser=[BC]22037116 Details on http://radiosondy.info
KD4EG-15D220371162022-12-06 00:11:1936.9614-79.1716903519725Clb=6.7m/s t=-65.2C h=-1.0% p=-1.0hPa 404.011 MHz Type=DFM17 ser=22037116 Radiosonde
W4KZK-14D220371162022-12-06 00:11:1636.9614-79.1717954119720Clb=5.2m/s t=-65.2C h=-1.0% p=-1.0hPa 404.010 MHz Type=DFM17 ser=22037116 Radiosonde
W4DEX-14D220371162022-12-06 00:11:0536.9615-79.17211203319697Clb=6.2m/s Type=DFM17 ser=[BC]22037116 Details on http://radiosondy.info
KG4IFE-1D220371162022-12-06 00:11:0136.9616-79.17241142819686Clb=6.4m/s t=-65.0C h=-1.0% p=-1.0hPa 404.010 MHz Type=DFM17 ser=22037116 Radiosonde
W4DEX-14D220371162022-12-06 00:10:3936.962-79.17351163319612Clb=5.1m/s Type=DFM17 ser=[BC]22037116 Details on http://radiosondy.info
KD4EG-15D220371162022-12-06 00:10:1936.9623-79.17461153319556Clb=5.7m/s t=-64.4C h=-1.0% p=-1.0hPa 404.011 MHz Type=DFM17 ser=22037116 Radiosonde
W4KZK-14D220371162022-12-06 00:10:1136.9626-79.17491333119534Clb=4.7m/s t=-64.3C h=-1.0% p=-1.0hPa 404.010 MHz Type=DFM17 ser=22037116 Radiosonde
W4DEX-14D220371162022-12-06 00:10:0836.9625-79.17491193919529Clb=6.3m/s Type=DFM17 ser=[BC]22037116 Details on http://radiosondy.info
KG4IFE-1D220371162022-12-06 00:10:0136.9627-79.17541223319506Clb=4.8m/s t=-64.2C h=-1.0% p=-1.0hPa 404.010 MHz Type=DFM17 ser=22037116 Radiosonde
W4DEX-14D220371162022-12-06 00:09:3936.9632-79.17661194619447Clb=5.8m/s Type=DFM17 ser=[BC]22037116 Details on http://radiosondy.info
KD4EG-15D220371162022-12-06 00:09:2036.964-79.17811164119381Clb=5.3m/s t=-63.7C h=-1.0% p=-1.0hPa 404.011 MHz Type=DFM17 ser=22037116 Radiosonde
W4DEX-14D220371162022-12-06 00:09:1236.9641-79.17831205019365Clb=5.8m/s Type=DFM17 ser=[BC]22037116 Details on http://radiosondy.info
W4KZK-14D220371162022-12-06 00:09:1036.9643-79.1791095019344Clb=5.4m/s t=-63.4C h=-1.0% p=-1.0hPa 404.010 MHz Type=DFM17 ser=22037116 Radiosonde
KG4IFE-1D220371162022-12-06 00:09:0536.9643-79.1791095019344Clb=5.4m/s t=-63.4C h=-1.0% p=-1.0hPa 404.010 MHz Type=DFM17 ser=22037116 Radiosonde
W4DEX-14D220371162022-12-06 00:08:4536.9649-79.18051145619283Clb=3.5m/s Type=DFM17 ser=[BC]22037116 Details on http://radiosondy.info
KD4EG-15D220371162022-12-06 00:08:2236.9655-79.18261105719216Clb=4.0m/s t=-63.6C h=-1.0% p=-1.0hPa 404.011 MHz Type=DFM17 ser=22037116 Radiosonde
W4DEX-14D220371162022-12-06 00:08:1836.9656-79.18291216319201Clb=5.6m/s Type=DFM17 ser=[BC]22037116 Details on http://radiosondy.info
W4KZK-14D220371162022-12-06 00:08:0836.966-79.18391085719173Clb=7.1m/s t=-273.0C h=-1.0% p=-1.0hPa 404.010 MHz Type=DFM17 ser=22037116 Radiosonde
KG4IFE-1D220371162022-12-06 00:08:0736.966-79.18391085719173Clb=7.1m/s t=-63.9C h=-1.0% p=-1.0hPa 404.010 MHz Type=DFM17 ser=22037116 Radiosonde
W4DEX-14D220371162022-12-06 00:07:4936.9666-79.18561166319121Clb=6.8m/s Type=DFM17 ser=[BC]22037116 Details on http://radiosondy.info
W4DEX-14D220371162022-12-06 00:07:2336.9678-79.18811226719040Clb=6.2m/s Type=DFM17 ser=[BC]22037116 Details on http://radiosondy.info
KG4IFE-1D220371162022-12-06 00:07:1136.9684-79.18931195919005Clb=5.1m/s t=-65.7C h=-1.0% p=-1.0hPa 404.010 MHz Type=DFM17 ser=22037116 Radiosonde
W4KZK-14D220371162022-12-06 00:07:0836.9685-79.18971116918995Clb=5.2m/s t=-65.7C h=-1.0% p=-1.0hPa 404.010 MHz Type=DFM17 ser=22037116 Radiosonde
W4DEX-14D220371162022-12-06 00:06:5736.9689-79.19091086718959Clb=4.5m/s Type=DFM17 ser=[BC]22037116 Details on http://radiosondy.info
KD4EG-15D220371162022-12-06 00:06:3236.97-79.19391055418880Clb=4.2m/s t=-65.4C h=-1.0% p=-1.0hPa 404.011 MHz Type=DFM17 ser=22037116 Radiosonde
W4DEX-14D220371162022-12-06 00:06:3136.9699-79.19371126318880Clb=4.2m/s Type=DFM17 ser=[BC]22037116 Details on http://radiosondy.info
KG4IFE-1D220371162022-12-06 00:06:1936.9704-79.19521106118843Clb=3.7m/s t=-65.9C h=-1.0% p=-1.0hPa 404.010 MHz Type=DFM17 ser=22037116 Radiosonde
W4KZK-14D220371162022-12-06 00:06:1336.9705-79.1958996918821Clb=5.1m/s t=-66.0C h=-1.0% p=-1.0hPa 404.010 MHz Type=DFM17 ser=22037116 Radiosonde
W4DEX-14D220371162022-12-06 00:06:0436.9707-79.19651117818801Clb=4.4m/s Type=DFM17 ser=[BC]22037116 Details on http://radiosondy.info
W4DEX-14D220371162022-12-06 00:05:3536.9717-79.19991017418719Clb=5.1m/s Type=DFM17 ser=[BC]22037116 Details on http://radiosondy.info
KD4EG-15D220371162022-12-06 00:05:3436.9717-79.20041028118714Clb=5.3m/s t=-67.1C h=-1.0% p=-1.0hPa 404.011 MHz Type=DFM17 ser=22037116 Radiosonde
KG4IFE-1D220371162022-12-06 00:05:2036.9721-79.20261026918661Clb=4.3m/s t=-66.7C h=-1.0% p=-1.0hPa 404.010 MHz Type=DFM17 ser=22037116 Radiosonde
W4KZK-14D220371162022-12-06 00:05:1136.9722-79.2033997618645Clb=5.8m/s t=-66.6C h=-1.0% p=-1.0hPa 404.010 MHz Type=DFM17 ser=22037116 Radiosonde
W4DEX-14D220371162022-12-06 00:05:0836.9722-79.20331007218639Clb=5.8m/s Type=DFM17 ser=[BC]22037116 Details on http://radiosondy.info
W4DEX-14D220371162022-12-06 00:04:4336.9728-79.20661047018560Clb=5.5m/s Type=DFM17 ser=[BC]22037116 Details on http://radiosondy.info
KD4EG-15D220371162022-12-06 00:04:4036.9728-79.2073946918550Clb=4.7m/s t=-66.0C h=-1.0% p=-1.0hPa 404.011 MHz Type=DFM17 ser=22037116 Radiosonde
KG4IFE-1D220371162022-12-06 00:04:2536.9731-79.2087997218515Clb=4.4m/s t=-66.3C h=-1.0% p=-1.0hPa 404.010 MHz Type=DFM17 ser=22037116 Radiosonde
W4DEX-14D220371162022-12-06 00:04:1636.9732-79.20981035618486Clb=5.5m/s Type=DFM17 ser=[BC]22037116 Details on http://radiosondy.info
W4KZK-14D220371162022-12-06 00:04:1236.9733-79.21031085018474Clb=5.9m/s t=-66.4C h=-1.0% p=-1.0hPa 404.011 MHz Type=DFM17 ser=22037116 Radiosonde
W4DEX-14D220371162022-12-06 00:03:5636.9737-79.2123965718409Clb=4.3m/s Type=DFM17 ser=[BC]22037116 Details on http://radiosondy.info
KD4EG-15D220371162022-12-06 00:03:5336.9738-79.2131155618392Clb=5.0m/s t=-66.4C h=-1.0% p=-1.0hPa 404.011 MHz Type=DFM17 ser=22037116 Radiosonde
KG4IFE-1D220371162022-12-06 00:03:4636.9743-79.21431065718356Clb=4.5m/s t=-66.9C h=-1.0% p=-1.0hPa 404.010 MHz Type=DFM17 ser=22037116 Radiosonde
W4DEX-14D220371162022-12-06 00:03:4136.9745-79.21491126918336Clb=4.0m/s Type=DFM17 ser=[BC]22037116 Details on http://radiosondy.info
W4KZK-14D220371162022-12-06 00:03:3636.9749-79.2161116918310Clb=4.1m/s t=-67.3C h=-1.0% p=-1.0hPa 404.010 MHz Type=DFM17 ser=22037116 Radiosonde
W4DEX-14D220371162022-12-06 00:03:2936.9757-79.21771197218259Clb=5.0m/s Type=DFM17 ser=[BC]22037116 Details on http://radiosondy.info
KD4EG-15D220371162022-12-06 00:03:2636.9761-79.21891097218234Clb=3.6m/s t=-67.3C h=-1.0% p=-1.0hPa 404.011 MHz Type=DFM17 ser=22037116 Radiosonde
KG4IFE-1D220371162022-12-06 00:03:1836.9767-79.22041147018199Clb=4.7m/s t=-67.1C h=-1.0% p=-1.0hPa 404.010 MHz Type=DFM17 ser=22037116 Radiosonde
W4DEX-14D220371162022-12-06 00:03:1436.9768-79.22081097618183Clb=5.4m/s Type=DFM17 ser=[BC]22037116 Details on http://radiosondy.info
W4KZK-14D220371162022-12-06 00:03:0336.9774-79.22271097818142Clb=6.0m/s t=-66.8C h=-1.0% p=-1.0hPa 404.010 MHz Type=DFM17 ser=22037116 Radiosonde
W4DEX-14D220371162022-12-06 00:02:5636.9778-79.22411108018105Clb=6.5m/s Type=DFM17 ser=[BC]22037116 Details on http://radiosondy.info
KD4EG-15D220371162022-12-06 00:02:5136.9782-79.22551078018078Clb=5.9m/s t=-66.5C h=-1.0% p=-1.0hPa 404.011 MHz Type=DFM17 ser=22037116 Radiosonde
KG4IFE-1D220371162022-12-06 00:02:4436.9787-79.22771059118028Clb=5.0m/s t=-66.4C h=-1.0% p=-1.0hPa 404.010 MHz Type=DFM17 ser=22037116 Radiosonde
W4DEX-14D220371162022-12-06 00:02:4136.9787-79.22771068518023Clb=6.0m/s Type=DFM17 ser=[BC]22037116 Details on http://radiosondy.info
W4KZK-14D220371162022-12-06 00:02:3136.9792-79.2307998917966Clb=4.5m/s t=-66.5C h=-1.0% p=-1.0hPa 404.010 MHz Type=DFM17 ser=22037116 Radiosonde
W4DEX-14D220371162022-12-06 00:02:2636.9793-79.2315968917945Clb=4.2m/s Type=DFM17 ser=[BC]22037116 Details on http://radiosondy.info
KD4EG-15D220371162022-12-06 00:02:2136.9796-79.2333959417914Clb=6.5m/s t=-66.9C h=-1.0% p=-1.0hPa 404.011 MHz Type=DFM17 ser=22037116 Radiosonde
KG4IFE-1D220371162022-12-06 00:02:1436.9798-79.2356919117872Clb=5.5m/s t=-66.8C h=-1.0% p=-1.0hPa 404.010 MHz Type=DFM17 ser=22037116 Radiosonde
W4DEX-14D220371162022-12-06 00:02:1236.9798-79.2356929417866Clb=5.9m/s Type=DFM17 ser=[BC]22037116 Details on http://radiosondy.info
W4KZK-14D220371162022-12-06 00:01:5736.98-79.249110017788Clb=5.0m/s t=-66.4C h=-1.0% p=-1.0hPa 404.010 MHz Type=DFM17 ser=22037116 Radiosonde
W4DEX-14D220371162022-12-06 00:01:5636.98-79.24889817784Clb=4.8m/s Type=DFM17 ser=[BC]22037116 Details on http://radiosondy.info
KD4EG-15D220371162022-12-06 00:01:4936.98-79.24259410017747Clb=6.3m/s t=-66.1C h=-1.0% p=-1.0hPa 404.011 MHz Type=DFM17 ser=22037116 Radiosonde
KG4IFE-1D220371162022-12-06 00:01:4136.9801-79.2448919117704Clb=4.5m/s t=-65.8C h=-1.0% p=-1.0hPa 404.010 MHz Type=DFM17 ser=22037116 Radiosonde
W4DEX-14D220371162022-12-06 00:01:2736.9804-79.2499810017626Clb=3.8m/s Type=DFM17 ser=[BC]22037116 Details on http://radiosondy.info
W4KZK-14D220371162022-12-06 00:01:2636.9805-79.24991068917616Clb=5.4m/s t=-66.8C h=-1.0% p=-1.0hPa 404.010 MHz Type=DFM17 ser=22037116 Radiosonde
W4DEX-14D220371162022-12-06 00:01:1136.9809-79.25369010717554Clb=5.6m/s Type=DFM17 ser=[BC]22037116 Details on http://radiosondy.info
KD4EG-15D220371162022-12-06 00:00:5536.9802-79.2727929817277Clb=4.9m/s t=-67.9C h=-1.0% p=-1.0hPa 404.011 MHz Type=DFM17 ser=22037116 Radiosonde
W4DEX-14D220371162022-12-06 00:00:5436.9802-79.273899317267Clb=6.0m/s Type=DFM17 ser=[BC]22037116 Details on http://radiosondy.info
KG4IFE-1D220371162022-12-06 00:00:5336.9802-79.2744919317247Clb=5.3m/s t=-68.2C h=-1.0% p=-1.0hPa 404.010 MHz Type=DFM17 ser=22037116 Radiosonde
W4DEX-14D220371162022-12-06 00:00:5136.9803-79.2772969417192Clb=5.1m/s Type=DFM17 ser=[BC]22037116 Details on http://radiosondy.info
W4KZK-14D220371162022-12-06 00:00:4836.9806-79.281918917132Clb=5.8m/s t=-67.8C h=-1.0% p=-1.0hPa 404.010 MHz Type=DFM17 ser=22037116 Radiosonde
W4DEX-14D220371162022-12-06 00:00:4736.9806-79.2816979117116Clb=5.8m/s Type=DFM17 ser=[BC]22037116 Details on http://radiosondy.info
KG4IFE-1D220371162022-12-06 00:00:4636.9808-79.283979417095Clb=5.0m/s t=-67.6C h=-1.0% p=-1.0hPa 404.010 MHz Type=DFM17 ser=22037116 Radiosonde
W4DEX-14D220371162022-12-06 00:00:4336.981-79.28581038917040Clb=4.5m/s Type=DFM17 ser=[BC]22037116 Details on http://radiosondy.info
W4DEX-14D220371162022-12-06 00:00:3836.9814-79.2899968516957Clb=5.4m/s Type=DFM17 ser=[BC]22037116 Details on http://radiosondy.info
W4DEX-14D220371162022-12-06 00:00:3636.982-79.29381108916875Clb=5.6m/s Type=DFM17 ser=[BC]22037116 Details on http://radiosondy.info
KD4EG-15D220371162022-12-06 00:00:3336.9828-79.297510710016806Clb=5.3m/s t=-66.5C h=-1.0% p=-1.0hPa 404.011 MHz Type=DFM17 ser=22037116 Radiosonde
W4DEX-14D220371162022-12-06 00:00:3236.9841-79.30211110716721Clb=5.8m/s Type=DFM17 ser=[BC]22037116 Details on http://radiosondy.info
KD4EG-15D220371162022-12-06 00:00:3136.986-79.308310410416626Clb=5.5m/s t=-66.8C h=-1.0% p=-1.0hPa 404.011 MHz Type=DFM17 ser=22037116 Radiosonde
KG4IFE-1D220371162022-12-06 00:00:3036.9862-79.309211210416612Clb=3.8m/s t=-66.8C h=-1.0% p=-1.0hPa 404.010 MHz Type=DFM17 ser=22037116 Radiosonde
W4DEX-14D220371162022-12-06 00:00:2536.9868-79.311510910716575Clb=5.1m/s Type=DFM17 ser=[BC]22037116 Details on http://radiosondy.info
W4DEX-14D220371162022-12-06 00:00:0136.9879-79.316310610916507Clb=5.0m/s Type=DFM17 ser=[BC]22037116 Details on http://radiosondy.info
KG4IFE-1D220371162022-12-05 23:59:4736.9884-79.319510310716461Clb=5.1m/s t=-66.3C h=-1.0% p=-1.0hPa 404.010 MHz Type=DFM17 ser=22037116 Radiosonde
W4KZK-14D220371162022-12-05 23:59:4636.9887-79.321310210916437Clb=3.3m/s t=-66.1C h=-1.0% p=-1.0hPa 404.010 MHz Type=DFM17 ser=22037116 Radiosonde
W4DEX-14D220371162022-12-05 23:59:3436.9887-79.321310310716433Clb=4.8m/s Type=DFM17 ser=[BC]22037116 Details on http://radiosondy.info
W4DEX-14D220371162022-12-05 23:59:0936.9894-79.32629910916362Clb=4.7m/s Type=DFM17 ser=[BC]22037116 Details on http://radiosondy.info
KG4IFE-1D220371162022-12-05 23:58:5336.9898-79.32941019316321Clb=7.2m/s t=-65.4C h=-1.0% p=-1.0hPa 404.010 MHz Type=DFM17 ser=22037116 Radiosonde
W4KZK-14D220371162022-12-05 23:58:4736.9902-79.330411713316296Clb=4.5m/s t=-65.2C h=-1.0% p=-1.0hPa 404.010 MHz Type=DFM17 ser=22037116 Radiosonde
W4DEX-14D220371162022-12-05 23:58:4236.9904-79.331111110616273Clb=9.8m/s Type=DFM17 ser=[BC]22037116 Details on http://radiosondy.info
W4DEX-14D220371162022-12-05 23:58:1736.9917-79.335712412016176Clb=4.4m/s Type=DFM17 ser=[BC]22037116 Details on http://radiosondy.info
KD4EG-15D220371162022-12-05 23:58:1336.9925-79.337511212016150Clb=5.7m/s t=-66.6C h=-1.0% p=-1.0hPa 404.010 MHz Type=DFM17 ser=22037116 Radiosonde
KG4IFE-1D220371162022-12-05 23:57:5936.9932-79.339311913316125Clb=4.6m/s t=-67.2C h=-1.0% p=-1.0hPa 404.010 MHz Type=DFM17 ser=22037116 Radiosonde
W4DEX-14D220371162022-12-05 23:57:5036.9938-79.340711412616105Clb=3.8m/s Type=DFM17 ser=[BC]22037116 Details on http://radiosondy.info
W4DEX-14D220371162022-12-05 23:57:2436.9959-79.345912112816035Clb=4.4m/s Type=DFM17 ser=[BC]22037116 Details on http://radiosondy.info
KG4IFE-1D220371162022-12-05 23:57:0336.998-79.349813113115982Clb=4.6m/s t=-68.3C h=-1.0% p=-1.0hPa 404.010 MHz Type=DFM17 ser=22037116 Radiosonde
W4DEX-14D220371162022-12-05 23:56:5436.9986-79.350912013715961Clb=5.6m/s Type=DFM17 ser=[BC]22037116 Details on http://radiosondy.info
W4KZK-14D220371162022-12-05 23:56:4936.9993-79.352213113315943Clb=5.1m/s t=-68.2C h=-1.0% p=-1.0hPa 404.010 MHz Type=DFM17 ser=22037116 Radiosonde
W4DEX-14D220371162022-12-05 23:56:2937.0017-79.35612915015873Clb=3.9m/s Type=DFM17 ser=[BC]22037116 Details on http://radiosondy.info
KG4IFE-1D220371162022-12-05 23:56:0637.0045-79.360912315715810Clb=4.5m/s t=-68.8C h=-1.0% p=-1.0hPa 404.010 MHz Type=DFM17 ser=22037116 Radiosonde
W4DEX-14D220371162022-12-05 23:56:0237.0049-79.361712215615794Clb=6.0m/s Type=DFM17 ser=[BC]22037116 Details on http://radiosondy.info
W4DEX-14D220371162022-12-05 23:56:0137.008-79.367912016115716Clb=5.4m/s Type=DFM17 ser=[BC]22037116 Details on http://radiosondy.info
KG4IFE-1D220371162022-12-05 23:56:0037.0111-79.374411916315646Clb=4.1m/s t=-68.3C h=-1.0% p=-1.0hPa 404.010 MHz Type=DFM17 ser=22037116 Radiosonde
W4DEX-14D220371162022-12-05 23:55:5937.014-79.38111916715566Clb=3.9m/s Type=DFM17 ser=[BC]22037116 Details on http://radiosondy.info
KG4IFE-1D220371162022-12-05 23:55:5437.017-79.388511516315495Clb=4.8m/s t=-68.4C h=-1.0% p=-1.0hPa 404.010 MHz Type=DFM17 ser=22037116 Radiosonde
W4DEX-14D220371162022-12-05 23:55:5337.0168-79.38811616515495Clb=4.8m/s Type=DFM17 ser=[BC]22037116 Details on http://radiosondy.info
W4KZK-14D220371162022-12-05 23:55:3937.0191-79.39411316915438Clb=5.8m/s t=-68.8C h=-1.0% p=-1.0hPa 404.010 MHz Type=DFM17 ser=22037116 Radiosonde
W4DEX-14D220371162022-12-05 23:55:3337.0194-79.39511417415422Clb=4.8m/s Type=DFM17 ser=[BC]22037116 Details on http://radiosondy.info
W4DEX-14D220371162022-12-05 23:55:0837.0219-79.402511417615349Clb=5.5m/s Type=DFM17 ser=[BC]22037116 Details on http://radiosondy.info
KG4IFE-1D220371162022-12-05 23:55:0737.0222-79.403511418115343Clb=5.0m/s t=-68.3C h=-1.0% p=-1.0hPa 404.010 MHz Type=DFM17 ser=22037116 Radiosonde
W4KZK-14D220371162022-12-05 23:54:4537.0246-79.410611117215278Clb=5.4m/s t=-67.9C h=-1.0% p=-1.0hPa 404.010 MHz Type=DFM17 ser=22037116 Radiosonde
KD4EG-15D220371162022-12-05 23:54:3337.0267-79.417211217615219Clb=4.6m/s t=-67.6C h=-1.0% p=-1.0hPa 404.010 MHz Type=DFM17 ser=22037116 Radiosonde
W4DEX-14D220371162022-12-05 23:54:2137.0269-79.417611517815209Clb=4.5m/s Type=DFM17 ser=[BC]22037116 Details on http://radiosondy.info
KG4IFE-1D220371162022-12-05 23:54:1937.0275-79.419211218115200Clb=3.9m/s t=-67.4C h=-1.0% p=-1.0hPa 404.010 MHz Type=DFM17 ser=22037116 Radiosonde
W4DEX-14D220371162022-12-05 23:53:5637.0294-79.425311417215137Clb=3.7m/s Type=DFM17 ser=[BC]22037116 Details on http://radiosondy.info
W4KZK-14D220371162022-12-05 23:53:5237.0303-79.427811116715118Clb=5.7m/s t=-67.1C h=-1.0% p=-1.0hPa 404.010 MHz Type=DFM17 ser=22037116 Radiosonde
KD4EG-15D220371162022-12-05 23:53:4237.0314-79.431311217615084Clb=5.3m/s t=-66.9C h=-1.0% p=-1.0hPa 404.010 MHz Type=DFM17 ser=22037116 Radiosonde
W4DEX-14D220371162022-12-05 23:53:3237.0319-79.432811017015064Clb=3.7m/s Type=DFM17 ser=[BC]22037116 Details on http://radiosondy.info
KG4IFE-1D220371162022-12-05 23:53:2837.0326-79.435311116715045Clb=5.4m/s t=-66.6C h=-1.0% p=-1.0hPa 404.010 MHz Type=DFM17 ser=22037116 Radiosonde
W4DEX-14D220371162022-12-05 23:53:0837.0341-79.440210716714989Clb=4.1m/s Type=DFM17 ser=[BC]22037116 Details on http://radiosondy.info
W4KZK-14D220371162022-12-05 23:52:5937.0351-79.443611116714957Clb=5.9m/s t=-65.9C h=-1.0% p=-1.0hPa 404.010 MHz Type=DFM17 ser=22037116 Radiosonde
KD4EG-15D220371162022-12-05 23:52:5137.0359-79.446110916514932Clb=5.2m/s t=-65.7C h=-1.0% p=-1.0hPa 404.010 MHz Type=DFM17 ser=22037116 Radiosonde
W4DEX-14D220371162022-12-05 23:52:4437.0363-79.447511016114911Clb=5.3m/s Type=DFM17 ser=[BC]22037116 Details on http://radiosondy.info
KG4IFE-1D220371162022-12-05 23:52:3837.0373-79.450911116714881Clb=3.7m/s t=-65.3C h=-1.0% p=-1.0hPa 404.010 MHz Type=DFM17 ser=22037116 Radiosonde
W4DEX-14D220371162022-12-05 23:52:1837.0383-79.454611215714829Clb=4.8m/s Type=DFM17 ser=[BC]22037116 Details on http://radiosondy.info
W4KZK-14D220371162022-12-05 23:52:0237.0398-79.459211215414780Clb=5.6m/s t=-64.5C h=-1.0% p=-1.0hPa 404.010 MHz Type=DFM17 ser=22037116 Radiosonde
KD4EG-15D220371162022-12-05 23:51:5937.0404-79.46110715714759Clb=5.3m/s t=-64.3C h=-1.0% p=-1.0hPa 404.010 MHz Type=DFM17 ser=22037116 Radiosonde
W4DEX-14D220371162022-12-05 23:51:5637.0405-79.461510615714749Clb=5.1m/s Type=DFM17 ser=[BC]22037116 Details on http://radiosondy.info
KG4IFE-1D220371162022-12-05 23:51:5137.0414-79.464110913914718Clb=7.0m/s t=-64.0C h=-1.0% p=-1.0hPa 404.010 MHz Type=DFM17 ser=22037116 Radiosonde
W4DEX-14D220371162022-12-05 23:51:4137.0427-79.468211515614654Clb=6.0m/s Type=DFM17 ser=[BC]22037116 Details on http://radiosondy.info
W4KZK-14D220371162022-12-05 23:51:3037.045-79.474411416314582Clb=4.8m/s t=-63.7C h=-1.0% p=-1.0hPa 404.010 MHz Type=DFM17 ser=22037116 Radiosonde
KD4EG-15D220371162022-12-05 23:51:2937.045-79.474411416314582Clb=4.8m/s t=-63.7C h=-1.0% p=-1.0hPa 404.010 MHz Type=DFM17 ser=22037116 Radiosonde
W4DEX-14D220371162022-12-05 23:51:2637.0452-79.474811516114571Clb=6.0m/s Type=DFM17 ser=[BC]22037116 Details on http://radiosondy.info
KG4IFE-1D220371162022-12-05 23:51:2037.0463-79.47811715214537Clb=5.4m/s t=-63.4C h=-1.0% p=-1.0hPa 404.010 MHz Type=DFM17 ser=22037116 Radiosonde
W4DEX-14D220371162022-12-05 23:51:1737.0477-79.481711416914487Clb=6.5m/s Type=DFM17 ser=[BC]22037116 Details on http://radiosondy.info
KD4EG-15D220371162022-12-05 23:51:1637.0502-79.488911616314416Clb=3.1m/s t=-63.0C h=-1.0% p=-1.0hPa 404.010 MHz Type=DFM17 ser=22037116 Radiosonde
KG4IFE-1D220371162022-12-05 23:51:1537.0516-79.492811317014377Clb=4.7m/s t=-62.8C h=-1.0% p=-1.0hPa 404.010 MHz Type=DFM17 ser=22037116 Radiosonde
KD4EG-15D220371162022-12-05 23:51:1437.0554-79.503711216114261Clb=5.0m/s t=-62.2C h=-1.0% p=-1.0hPa 404.010 MHz Type=DFM17 ser=22037116 Radiosonde
W4DEX-14D220371162022-12-05 23:51:0237.0602-79.517311616914116Clb=5.1m/s Type=DFM17 ser=[BC]22037116 Details on http://radiosondy.info
KD4EG-15D220371162022-12-05 23:51:0137.0606-79.518211216514110Clb=4.9m/s t=-61.3C h=-1.0% p=-1.0hPa 404.010 MHz Type=DFM17 ser=22037116 Radiosonde
W4KZK-14D220371162022-12-05 23:50:5337.0616-79.521111216314082Clb=4.8m/s t=-61.2C h=-1.0% p=-1.0hPa 404.010 MHz Type=DFM17 ser=22037116 Radiosonde
KG4IFE-1D220371162022-12-05 23:50:4937.0619-79.522111416714072Clb=5.8m/s t=-61.1C h=-1.0% p=-1.0hPa 404.010 MHz Type=DFM17 ser=22037116 Radiosonde
W4DEX-14D220371162022-12-05 23:50:4037.0628-79.524511617014042Clb=4.3m/s Type=DFM17 ser=[BC]22037116 Details on http://radiosondy.info
W4DEX-14D220371162022-12-05 23:50:1637.0655-79.531811817013969Clb=4.3m/s Type=DFM17 ser=[BC]22037116 Details on http://radiosondy.info
KD4EG-15D220371162022-12-05 23:50:1337.0662-79.533711216913954Clb=4.4m/s t=-60.9C h=-1.0% p=-1.0hPa 404.010 MHz Type=DFM17 ser=22037116 Radiosonde
W4KZK-14D220371162022-12-05 23:50:0037.0674-79.537111517213921Clb=4.3m/s t=-60.9C h=-1.0% p=-1.0hPa 404.010 MHz Type=DFM17 ser=22037116 Radiosonde
KG4IFE-1D220371162022-12-05 23:49:5937.0674-79.537111517213921Clb=4.3m/s t=-60.9C h=-1.0% p=-1.0hPa 404.010 MHz Type=DFM17 ser=22037116 Radiosonde
W4DEX-14D220371162022-12-05 23:49:5237.0681-79.539111517013897Clb=4.3m/s Type=DFM17 ser=[BC]22037116 Details on http://radiosondy.info
W4DEX-14D220371162022-12-05 23:49:2837.0707-79.546411717213828Clb=4.9m/s Type=DFM17 ser=[BC]22037116 Details on http://radiosondy.info
KD4EG-15D220371162022-12-05 23:49:2437.0714-79.548411417013813Clb=5.4m/s t=-61.1C h=-1.0% p=-1.0hPa 404.010 MHz Type=DFM17 ser=22037116 Radiosonde
KG4IFE-1D220371162022-12-05 23:49:1037.0728-79.552211317213777Clb=5.0m/s t=-61.1C h=-1.0% p=-1.0hPa 404.010 MHz Type=DFM17 ser=22037116 Radiosonde
W4KZK-14D220371162022-12-05 23:49:0837.0732-79.553211417213767Clb=5.3m/s t=-61.1C h=-1.0% p=-1.0hPa 404.010 MHz Type=DFM17 ser=22037116 Radiosonde
W4DEX-14D220371162022-12-05 23:49:0437.0734-79.553711617413758Clb=4.5m/s Type=DFM17 ser=[BC]22037116 Details on http://radiosondy.info
W4DEX-14D220371162022-12-05 23:48:3937.076-79.561111817613689Clb=4.5m/s Type=DFM17 ser=[BC]22037116 Details on http://radiosondy.info
KD4EG-15D220371162022-12-05 23:48:3337.0772-79.564111417613666Clb=3.1m/s t=-61.0C h=-1.0% p=-1.0hPa 404.010 MHz Type=DFM17 ser=22037116 Radiosonde
KG4IFE-1D220371162022-12-05 23:48:2037.0788-79.568611617813626Clb=4.7m/s t=-61.0C h=-1.0% p=-1.0hPa 404.010 MHz Type=DFM17 ser=22037116 Radiosonde
W4DEX-14D220371162022-12-05 23:48:1537.0788-79.568611718013623Clb=3.3m/s Type=DFM17 ser=[BC]22037116 Details on http://radiosondy.info
W4DEX-14D220371162022-12-05 23:47:5637.0816-79.576211418313556Clb=4.0m/s Type=DFM17 ser=[BC]22037116 Details on http://radiosondy.info
KD4EG-15D220371162022-12-05 23:47:5137.0828-79.579311418013533Clb=4.4m/s t=-60.8C h=-1.0% p=-1.0hPa 404.010 MHz Type=DFM17 ser=22037116 Radiosonde
KG4IFE-1D220371162022-12-05 23:47:4237.0846-79.583911418313491Clb=2.9m/s t=-60.8C h=-1.0% p=-1.0hPa 404.010 MHz Type=DFM17 ser=22037116 Radiosonde
W4DEX-14D220371162022-12-05 23:47:4137.0846-79.583911618713488Clb=5.1m/s Type=DFM17 ser=[BC]22037116 Details on http://radiosondy.info
W4KZK-14D220371162022-12-05 23:47:3737.0856-79.586611418513469Clb=4.2m/s t=-60.8C h=-1.0% p=-1.0hPa 404.010 MHz Type=DFM17 ser=22037116 Radiosonde
W4DEX-14D220371162022-12-05 23:47:2637.0876-79.591811318513421Clb=3.9m/s Type=DFM17 ser=[BC]22037116 Details on http://radiosondy.info
KD4EG-15D220371162022-12-05 23:47:2037.0893-79.596511518513385Clb=4.0m/s t=-60.9C h=-1.0% p=-1.0hPa 404.010 MHz Type=DFM17 ser=22037116 Radiosonde
W4DEX-14D220371162022-12-05 23:47:1137.0905-79.599711618113356Clb=4.9m/s Type=DFM17 ser=[BC]22037116 Details on http://radiosondy.info
W4KZK-14D220371162022-12-05 23:47:0437.0922-79.604311418713321Clb=3.8m/s t=-60.9C h=-1.0% p=-1.0hPa 404.010 MHz Type=DFM17 ser=22037116 Radiosonde
W4DEX-14D220371162022-12-05 23:46:5637.0933-79.607411618713290Clb=4.7m/s Type=DFM17 ser=[BC]22037116 Details on http://radiosondy.info
KD4EG-15D220371162022-12-05 23:46:5037.0951-79.612111719113252Clb=3.9m/s t=-60.9C h=-1.0% p=-1.0hPa 404.010 MHz Type=DFM17 ser=22037116 Radiosonde
W4KZK-14D220371162022-12-05 23:46:4937.0987-79.621211719313175Clb=5.8m/s t=-61.4C h=-1.0% p=-1.0hPa 404.010 MHz Type=DFM17 ser=22037116 Radiosonde
W4DEX-14D220371162022-12-05 23:46:4837.1027-79.631711419813083Clb=3.9m/s Type=DFM17 ser=[BC]22037116 Details on http://radiosondy.info
W4KZK-14D220371162022-12-05 23:46:4737.1055-79.639611519813023Clb=4.8m/s t=-61.7C h=-1.0% p=-1.0hPa 404.010 MHz Type=DFM17 ser=22037116 Radiosonde
KD4EG-15D220371162022-12-05 23:46:4037.1079-79.646311319312971Clb=4.4m/s t=-61.6C h=-1.0% p=-1.0hPa 404.010 MHz Type=DFM17 ser=22037116 Radiosonde
W4DEX-14D220371162022-12-05 23:46:3437.1087-79.648511618912949Clb=5.2m/s Type=DFM17 ser=[BC]22037116 Details on http://radiosondy.info
KG4IFE-1D220371162022-12-05 23:46:3137.1097-79.651211318912932Clb=4.0m/s t=-61.7C h=-1.0% p=-1.0hPa 404.010 MHz Type=DFM17 ser=22037116 Radiosonde
W4DEX-14D220371162022-12-05 23:46:1137.1115-79.656511318512886Clb=4.0m/s Type=DFM17 ser=[BC]22037116 Details on http://radiosondy.info
W4KZK-14D220371162022-12-05 23:46:1037.112-79.658111318912877Clb=3.6m/s t=-61.6C h=-1.0% p=-1.0hPa 404.010 MHz Type=DFM17 ser=22037116 Radiosonde
KD4EG-15D220371162022-12-05 23:45:5537.1136-79.662911118312843Clb=4.2m/s t=-61.9C h=-1.0% p=-1.0hPa 404.010 MHz Type=DFM17 ser=22037116 Radiosonde
W4DEX-14D220371162022-12-05 23:45:4737.1141-79.664511218712828Clb=3.4m/s Type=DFM17 ser=[BC]22037116 Details on http://radiosondy.info
KG4IFE-1D220371162022-12-05 23:45:4237.115-79.667311018312814Clb=4.2m/s t=-62.1C h=-1.0% p=-1.0hPa 404.010 MHz Type=DFM17 ser=22037116 Radiosonde
W4DEX-14D220371162022-12-05 23:45:2437.1168-79.672611418912774Clb=2.8m/s Type=DFM17 ser=[BC]22037116 Details on http://radiosondy.info
W4KZK-14D220371162022-12-05 23:45:1837.1177-79.675311119112760Clb=3.9m/s t=-62.1C h=-1.0% p=-1.0hPa 404.010 MHz Type=DFM17 ser=22037116 Radiosonde
KD4EG-15D220371162022-12-05 23:45:0637.1193-79.680311218712728Clb=3.8m/s t=-62.4C h=-1.0% p=-1.0hPa 404.010 MHz Type=DFM17 ser=22037116 Radiosonde
W4DEX-14D220371162022-12-05 23:45:0037.1195-79.680811319412722Clb=3.1m/s Type=DFM17 ser=[BC]22037116 Details on http://radiosondy.info
KG4IFE-1D220371162022-12-05 23:44:5337.1205-79.684111019312705Clb=3.5m/s t=-62.7C h=-1.0% p=-1.0hPa 404.010 MHz Type=DFM17 ser=22037116 Radiosonde
W4DEX-14D220371162022-12-05 23:44:3737.1222-79.689211218912671Clb=2.7m/s Type=DFM17 ser=[BC]22037116 Details on http://radiosondy.info
W4KZK-14D220371162022-12-05 23:44:2737.1237-79.693611318912648Clb=3.0m/s t=-63.1C h=-1.0% p=-1.0hPa 404.010 MHz Type=DFM17 ser=22037116 Radiosonde
KD4EG-15D220371162022-12-05 23:44:1937.1247-79.696811318512628Clb=3.4m/s t=-63.4C h=-1.0% p=-1.0hPa 404.010 MHz Type=DFM17 ser=22037116 Radiosonde
W4DEX-14D220371162022-12-05 23:44:1537.1249-79.697411417612621Clb=2.5m/s Type=DFM17 ser=[BC]22037116 Details on http://radiosondy.info
KG4IFE-1D220371162022-12-05 23:44:0737.126-79.70111018112598Clb=4.7m/s t=-63.6C h=-1.0% p=-1.0hPa 404.010 MHz Type=DFM17 ser=22037116 Radiosonde
W4DEX-14D220371162022-12-05 23:43:5637.1273-79.705111217412566Clb=4.0m/s Type=DFM17 ser=[BC]22037116 Details on http://radiosondy.info
W4KZK-14D220371162022-12-05 23:43:4637.1292-79.711110917412524Clb=4.6m/s t=-64.0C h=-1.0% p=-1.0hPa 404.010 MHz Type=DFM17 ser=22037116 Radiosonde
KD4EG-15D220371162022-12-05 23:43:4237.1297-79.712711018012514Clb=4.6m/s t=-64.0C h=-1.0% p=-1.0hPa 404.010 MHz Type=DFM17 ser=22037116 Radiosonde
W4DEX-14D220371162022-12-05 23:43:4137.1297-79.712711117812509Clb=4.8m/s Type=DFM17 ser=[BC]22037116 Details on http://radiosondy.info
KG4IFE-1D220371162022-12-05 23:43:3437.1308-79.716811017812480Clb=4.6m/s t=-64.2C h=-1.0% p=-1.0hPa 404.010 MHz Type=DFM17 ser=22037116 Radiosonde
W4DEX-14D220371162022-12-05 23:43:2637.132-79.720511018912449Clb=4.2m/s Type=DFM17 ser=[BC]22037116 Details on http://radiosondy.info
W4KZK-14D220371162022-12-05 23:43:1337.1342-79.728210718712396Clb=5.2m/s t=-64.9C h=-1.0% p=-1.0hPa 404.010 MHz Type=DFM17 ser=22037116 Radiosonde
W4DEX-14D220371162022-12-05 23:43:1137.1343-79.728810718312388Clb=4.7m/s Type=DFM17 ser=[BC]22037116 Details on http://radiosondy.info
KG4IFE-1D220371162022-12-05 23:43:0337.1356-79.734410418512349Clb=3.3m/s t=-65.2C h=-1.0% p=-1.0hPa 404.010 MHz Type=DFM17 ser=22037116 Radiosonde
W4DEX-14D220371162022-12-05 23:42:5637.1363-79.73710418712323Clb=3.9m/s Type=DFM17 ser=[BC]22037116 Details on http://radiosondy.info
W4DEX-14D220371162022-12-05 23:42:4137.1382-79.745510519612255Clb=3.7m/s Type=DFM17 ser=[BC]22037116 Details on http://radiosondy.info
KD4EG-15D220371162022-12-05 23:42:4037.1385-79.747210519312245Clb=5.1m/s t=-65.1C h=-1.0% p=-1.0hPa 404.010 MHz Type=DFM17 ser=22037116 Radiosonde
KG4IFE-1D220371162022-12-05 23:42:3237.1394-79.751410319412213Clb=5.0m/s t=-65.0C h=-1.0% p=-1.0hPa 404.010 MHz Type=DFM17 ser=22037116 Radiosonde
W4DEX-14D220371162022-12-05 23:42:2937.14-79.754410520412188Clb=3.4m/s Type=DFM17 ser=[BC]22037116 Details on http://radiosondy.info
W4DEX-14D220371162022-12-05 23:42:2837.1419-79.763610320412122Clb=4.1m/s Type=DFM17 ser=[BC]22037116 Details on http://radiosondy.info
KG4IFE-1D220371162022-12-05 23:42:2737.1431-79.770410119812078Clb=5.5m/s t=-64.7C h=-1.0% p=-1.0hPa 404.010 MHz Type=DFM17 ser=22037116 Radiosonde
W4DEX-14D220371162022-12-05 23:42:2237.1451-79.782410220611984Clb=5.2m/s Type=DFM17 ser=[BC]22037116 Details on http://radiosondy.info
KD4EG-15D220371162022-12-05 23:42:2037.1459-79.786810220611956Clb=4.3m/s t=-63.9C h=-1.0% p=-1.0hPa 404.010 MHz Type=DFM17 ser=22037116 Radiosonde
W4KZK-14D220371162022-12-05 23:42:1637.1461-79.7889820911946Clb=4.1m/s t=-63.8C h=-1.0% p=-1.0hPa 404.010 MHz Type=DFM17 ser=22037116 Radiosonde
KG4IFE-1D220371162022-12-05 23:42:1237.1464-79.7910320611932Clb=3.9m/s t=-63.8C h=-1.0% p=-1.0hPa 404.010 MHz Type=DFM17 ser=22037116 Radiosonde
W4DEX-14D220371162022-12-05 23:42:0537.1468-79.791710320011917Clb=2.8m/s Type=DFM17 ser=[BC]22037116 Details on http://radiosondy.info
W4DEX-14D220371162022-12-05 23:41:4337.1481-79.8019620411802Clb=6.4m/s Type=DFM17 ser=[BC]22037116 Details on http://radiosondy.info
KD4EG-15D220371162022-12-05 23:41:3837.1486-79.80429920211774Clb=7.2m/s t=-62.7C h=-1.0% p=-1.0hPa 404.010 MHz Type=DFM17 ser=22037116 Radiosonde
W4KZK-14D220371162022-12-05 23:41:2837.1491-79.809210319111714Clb=7.3m/s t=-62.2C h=-1.0% p=-1.0hPa 404.010 MHz Type=DFM17 ser=22037116 Radiosonde
KG4IFE-1D220371162022-12-05 23:41:2537.1491-79.809210319111714Clb=7.3m/s t=-62.2C h=-1.0% p=-1.0hPa 404.010 MHz Type=DFM17 ser=22037116 Radiosonde
W4DEX-14D220371162022-12-05 23:41:1937.1494-79.810410819111695Clb=5.0m/s Type=DFM17 ser=[BC]22037116 Details on http://radiosondy.info
W4DEX-14D220371162022-12-05 23:40:5837.1505-79.819110118911608Clb=3.7m/s Type=DFM17 ser=[BC]22037116 Details on http://radiosondy.info
KD4EG-15D220371162022-12-05 23:40:5137.151-79.82269818911585Clb=5.8m/s t=-61.1C h=-1.0% p=-1.0hPa 404.010 MHz Type=DFM17 ser=22037116 Radiosonde
KG4IFE-1D220371162022-12-05 23:40:3937.1516-79.82729918511546Clb=6.1m/s t=-60.7C h=-1.0% p=-1.0hPa 404.010 MHz Type=DFM17 ser=22037116 Radiosonde
W4KZK-14D220371162022-12-05 23:40:3837.1517-79.82789718511541Clb=3.8m/s t=-60.7C h=-1.0% p=-1.0hPa 404.010 MHz Type=DFM17 ser=22037116 Radiosonde
W4DEX-14D220371162022-12-05 23:40:3537.1517-79.82789718911536Clb=5.9m/s Type=DFM17 ser=[BC]22037116 Details on http://radiosondy.info
W4DEX-14D220371162022-12-05 23:40:1437.1528-79.83669818911459Clb=6.1m/s Type=DFM17 ser=[BC]22037116 Details on http://radiosondy.info
KD4EG-15D220371162022-12-05 23:40:0737.1532-79.84069818311427Clb=6.3m/s t=-59.7C h=-1.0% p=-1.0hPa 404.010 MHz Type=DFM17 ser=22037116 Radiosonde
KG4IFE-1D220371162022-12-05 23:39:5737.1538-79.84529718011388Clb=5.0m/s t=-59.3C h=-1.0% p=-1.0hPa 404.010 MHz Type=DFM17 ser=22037116 Radiosonde
W4DEX-14D220371162022-12-05 23:39:5637.1538-79.84529818911383Clb=4.8m/s Type=DFM17 ser=[BC]22037116 Details on http://radiosondy.info
W4KZK-14D220371162022-12-05 23:39:5437.154-79.8479919311371Clb=4.7m/s t=-59.1C h=-1.0% p=-1.0hPa 404.010 MHz Type=DFM17 ser=22037116 Radiosonde
W4DEX-14D220371162022-12-05 23:39:4137.1549-79.8549818511305Clb=4.2m/s Type=DFM17 ser=[BC]22037116 Details on http://radiosondy.info
KD4EG-15D220371162022-12-05 23:39:3437.1556-79.859110017411267Clb=5.0m/s t=-58.2C h=-1.0% p=-1.0hPa 404.010 MHz Type=DFM17 ser=22037116 Radiosonde
W4DEX-14D220371162022-12-05 23:39:2637.156-79.862510118511232Clb=5.1m/s Type=DFM17 ser=[BC]22037116 Details on http://radiosondy.info
W4KZK-14D220371162022-12-05 23:39:2137.1565-79.86659917811201Clb=3.7m/s t=-57.6C h=-1.0% p=-1.0hPa 404.010 MHz Type=DFM17 ser=22037116 Radiosonde
W4DEX-14D220371162022-12-05 23:39:1137.1571-79.8719618311158Clb=5.8m/s Type=DFM17 ser=[BC]22037116 Details on http://radiosondy.info
KD4EG-15D220371162022-12-05 23:39:0337.1577-79.876210017811115Clb=5.2m/s t=-56.8C h=-1.0% p=-1.0hPa 404.010 MHz Type=DFM17 ser=22037116 Radiosonde
W4DEX-14D220371162022-12-05 23:38:5637.1581-79.879510318511079Clb=5.3m/s Type=DFM17 ser=[BC]22037116 Details on http://radiosondy.info
KG4IFE-1D220371162022-12-05 23:38:5537.1583-79.880610218011073Clb=6.0m/s t=-56.4C h=-1.0% p=-1.0hPa 404.010 MHz Type=DFM17 ser=22037116 Radiosonde
W4KZK-14D220371162022-12-05 23:38:4837.1587-79.88479919311033Clb=4.6m/s t=-56.1C h=-1.0% p=-1.0hPa 404.010 MHz Type=DFM17 ser=22037116 Radiosonde
W4DEX-14D220371162022-12-05 23:38:4137.1591-79.88829718511000Clb=5.4m/s Type=DFM17 ser=[BC]22037116 Details on http://radiosondy.info
KD4EG-15D220371162022-12-05 23:38:3237.1598-79.89399918710956Clb=4.2m/s t=-55.4C h=-1.0% p=-1.0hPa 404.010 MHz Type=DFM17 ser=22037116 Radiosonde
W4DEX-14D220371162022-12-05 23:38:2637.1601-79.89689818710927Clb=5.3m/s Type=DFM17 ser=[BC]22037116 Details on http://radiosondy.info
KG4IFE-1D220371162022-12-05 23:38:2337.1604-79.89979819110909Clb=3.6m/s t=-55.0C h=-1.0% p=-1.0hPa 404.010 MHz Type=DFM17 ser=22037116 Radiosonde
W4KZK-14D220371162022-12-05 23:38:1637.1608-79.90379818010876Clb=4.3m/s t=-54.7C h=-1.0% p=-1.0hPa 404.010 MHz Type=DFM17 ser=22037116 Radiosonde
W4DEX-14D220371162022-12-05 23:38:1137.161-79.90549918510856Clb=5.9m/s Type=DFM17 ser=[BC]22037116 Details on http://radiosondy.info
KD4EG-15D220371162022-12-05 23:38:0137.1617-79.91189718510809Clb=5.7m/s t=-54.1C h=-1.0% p=-1.0hPa 404.010 MHz Type=DFM17 ser=22037116 Radiosonde
W4DEX-14D220371162022-12-05 23:37:5937.162-79.9149718510787Clb=4.4m/s Type=DFM17 ser=[BC]22037116 Details on http://radiosondy.info
W4KZK-14D220371162022-12-05 23:37:5837.1628-79.92329419810707Clb=4.7m/s t=-53.3C h=-1.0% p=-1.0hPa 404.010 MHz Type=DFM17 ser=22037116 Radiosonde
KG4IFE-1D220371162022-12-05 23:37:5437.1638-79.93459817010604Clb=4.2m/s t=-52.5C h=-1.0% p=-1.0hPa 404.010 MHz Type=DFM17 ser=22037116 Radiosonde
W4DEX-14D220371162022-12-05 23:37:4537.1643-79.93949817610553Clb=3.4m/s Type=DFM17 ser=[BC]22037116 Details on http://radiosondy.info
W4KZK-14D220371162022-12-05 23:37:4237.1644-79.9419317210544Clb=3.6m/s t=-52.0C h=-1.0% p=-1.0hPa 404.010 MHz Type=DFM17 ser=22037116 Radiosonde
KD4EG-15D220371162022-12-05 23:37:2737.1649-79.9479417210498Clb=3.7m/s t=-51.6C h=-1.0% p=-1.0hPa 404.011 MHz Type=DFM17 ser=22037116 Radiosonde
W4DEX-14D220371162022-12-05 23:37:2237.1649-79.94759717410489Clb=3.3m/s Type=DFM17 ser=[BC]22037116 Details on http://radiosondy.info
KG4IFE-1D220371162022-12-05 23:37:1337.1652-79.95139317210463Clb=5.1m/s t=-51.3C h=-1.0% p=-1.0hPa 404.010 MHz Type=DFM17 ser=22037116 Radiosonde
W4DEX-14D220371162022-12-05 23:36:5837.1655-79.95569717210424Clb=4.9m/s Type=DFM17 ser=[BC]22037116 Details on http://radiosondy.info
W4KZK-14D220371162022-12-05 23:36:5137.1657-79.95899416910403Clb=4.8m/s t=-50.8C h=-1.0% p=-1.0hPa 404.010 MHz Type=DFM17 ser=22037116 Radiosonde
KD4EG-15D220371162022-12-05 23:36:3937.1661-79.96379517210365Clb=4.9m/s t=-50.5C h=-1.0% p=-1.0hPa 404.011 MHz Type=DFM17 ser=22037116 Radiosonde
W4DEX-14D220371162022-12-05 23:36:3737.1661-79.96379617210360Clb=4.0m/s Type=DFM17 ser=[BC]22037116 Details on http://radiosondy.info
KG4IFE-1D220371162022-12-05 23:36:2737.1665-79.96799617410331Clb=4.1m/s t=-50.2C h=-1.0% p=-1.0hPa 404.010 MHz Type=DFM17 ser=22037116 Radiosonde
W4DEX-14D220371162022-12-05 23:36:1437.1667-79.97169317210299Clb=4.6m/s Type=DFM17 ser=[BC]22037116 Details on http://radiosondy.info
W4KZK-14D220371162022-12-05 23:36:0437.1671-79.9779317210263Clb=3.6m/s t=-49.6C h=-1.0% p=-1.0hPa 404.010 MHz Type=DFM17 ser=22037116 Radiosonde
KD4EG-15D220371162022-12-05 23:35:5637.1673-79.98029516910239Clb=5.0m/s t=-49.4C h=-1.0% p=-1.0hPa 404.011 MHz Type=DFM17 ser=22037116 Radiosonde
KG4IFE-1D220371162022-12-05 23:35:4837.1676-79.9859417010202Clb=4.9m/s t=-49.1C h=-1.0% p=-1.0hPa 404.010 MHz Type=DFM17 ser=22037116 Radiosonde
W4DEX-14D220371162022-12-05 23:35:4137.1678-79.98779617210178Clb=3.7m/s Type=DFM17 ser=[BC]22037116 Details on http://radiosondy.info
W4KZK-14D220371162022-12-05 23:35:3137.1682-79.99419517010132Clb=3.4m/s t=-48.5C h=-1.0% p=-1.0hPa 404.010 MHz Type=DFM17 ser=22037116 Radiosonde
W4DEX-14D220371162022-12-05 23:35:2637.1683-79.99579517010115Clb=4.2m/s Type=DFM17 ser=[BC]22037116 Details on http://radiosondy.info
KD4EG-15D220371162022-12-05 23:35:2537.1684-79.99689616710111Clb=3.1m/s t=-48.3C h=-1.0% p=-1.0hPa 404.011 MHz Type=DFM17 ser=22037116 Radiosonde
KG4IFE-1D220371162022-12-05 23:35:1737.1687-80.0019517610078Clb=3.4m/s t=-48.1C h=-1.0% p=-1.0hPa 404.010 MHz Type=DFM17 ser=22037116 Radiosonde
W4DEX-14D220371162022-12-05 23:35:1137.1688-80.00379717010054Clb=4.3m/s Type=DFM17 ser=[BC]22037116 Details on http://radiosondy.info
W4DEX-14D220371162022-12-05 23:34:5837.1694-80.0116961699991Clb=4.2m/s Type=DFM17 ser=[BC]22037116 Details on http://radiosondy.info
KD4EG-15D220371162022-12-05 23:34:5437.1696-80.0138971729977Clb=3.9m/s t=-47.2C h=-1.0% p=-1.0hPa 404.011 MHz Type=DFM17 ser=22037116 Radiosonde
KG4IFE-1D220371162022-12-05 23:34:4637.1699-80.0174971729947Clb=3.6m/s t=-47.0C h=-1.0% p=-1.0hPa 404.010 MHz Type=DFM17 ser=22037116 Radiosonde
W4DEX-14D220371162022-12-05 23:34:4137.17-80.0195971699928Clb=3.0m/s Type=DFM17 ser=[BC]22037116 Details on http://radiosondy.info
W4DEX-14D220371162022-12-05 23:34:2637.1707-80.0274961679854Clb=5.6m/s Type=DFM17 ser=[BC]22037116 Details on http://radiosondy.info
W4KZK-14D220371162022-12-05 23:34:2437.1707-80.0295951709840Clb=5.0m/s t=-46.0C h=-1.0% p=-1.0hPa 404.010 MHz Type=DFM17 ser=22037116 Radiosonde
KD4EG-15D220371162022-12-05 23:34:2337.1707-80.0295951709840Clb=5.0m/s t=-46.0C h=-1.0% p=-1.0hPa 404.011 MHz Type=DFM17 ser=22037116 Radiosonde
KG4IFE-1D220371162022-12-05 23:34:1537.171-80.0336951749805Clb=4.4m/s t=-45.7C h=-1.0% p=-1.0hPa 404.010 MHz Type=DFM17 ser=22037116 Radiosonde
W4DEX-14D220371162022-12-05 23:34:1137.1712-80.0352931599787Clb=4.9m/s Type=DFM17 ser=[BC]22037116 Details on http://radiosondy.info
W4DEX-14D220371162022-12-05 23:33:5637.1714-80.0427971579709Clb=3.5m/s Type=DFM17 ser=[BC]22037116 Details on http://radiosondy.info
KD4EG-15D220371162022-12-05 23:33:5337.1716-80.0452941569691Clb=3.5m/s t=-44.8C h=-1.0% p=-1.0hPa 404.011 MHz Type=DFM17 ser=22037116 Radiosonde
W4KZK-14D220371162022-12-05 23:33:5137.1716-80.0457921579687Clb=4.6m/s t=-44.8C h=-1.0% p=-1.0hPa 404.010 MHz Type=DFM17 ser=22037116 Radiosonde
KG4IFE-1D220371162022-12-05 23:33:4437.1718-80.0491951599656Clb=4.9m/s t=-44.5C h=-1.0% p=-1.0hPa 404.010 MHz Type=DFM17 ser=22037116 Radiosonde
W4DEX-14D220371162022-12-05 23:33:4137.1719-80.0501941529641Clb=3.8m/s Type=DFM17 ser=[BC]22037116 Details on http://radiosondy.info
W4DEX-14D220371162022-12-05 23:33:3737.1724-80.0572991489572Clb=4.8m/s Type=DFM17 ser=[BC]22037116 Details on http://radiosondy.info
KG4IFE-1D220371162022-12-05 23:33:3337.1731-80.0636901569495Clb=7.2m/s t=-43.3C h=-1.0% p=-1.0hPa 404.010 MHz Type=DFM17 ser=22037116 Radiosonde
W4DEX-14D220371162022-12-05 23:33:3137.1731-80.0641941489483Clb=4.7m/s Type=DFM17 ser=[BC]22037116 Details on http://radiosondy.info
W4DEX-14D220371162022-12-05 23:33:1537.1738-80.0709911469401Clb=6.2m/s Type=DFM17 ser=[BC]22037116 Details on http://radiosondy.info
KD4EG-15D220371162022-12-05 23:33:0737.1741-80.0741941419361Clb=5.3m/s t=-42.3C h=-1.0% p=-1.0hPa 404.011 MHz Type=DFM17 ser=22037116 Radiosonde
W4KZK-14D220371162022-12-05 23:32:5937.1743-80.07691061449324Clb=7.6m/s t=-41.9C h=-1.0% p=-1.0hPa 404.010 MHz Type=DFM17 ser=22037116 Radiosonde
KG4IFE-1D220371162022-12-05 23:32:5637.1745-80.07771041249310Clb=5.2m/s t=-41.8C h=-1.0% p=-1.0hPa 404.010 MHz Type=DFM17 ser=22037116 Radiosonde
W4DEX-14D220371162022-12-05 23:32:5437.1745-80.07771001439305Clb=6.3m/s Type=DFM17 ser=[BC]22037116 Details on http://radiosondy.info
W4DEX-14D220371162022-12-05 23:32:3337.1754-80.0843961319220Clb=8.5m/s Type=DFM17 ser=[BC]22037116 Details on http://radiosondy.info
KD4EG-15D220371162022-12-05 23:32:2437.1759-80.08791041339169Clb=5.3m/s t=-40.8C h=-1.0% p=-1.0hPa 404.011 MHz Type=DFM17 ser=22037116 Radiosonde
W4KZK-14D220371162022-12-05 23:32:1437.1764-80.09021031289139Clb=5.8m/s t=-40.7C h=-1.0% p=-1.0hPa 404.010 MHz Type=DFM17 ser=22037116 Radiosonde
W4DEX-14D220371162022-12-05 23:32:1237.1764-80.09021031339135Clb=4.6m/s Type=DFM17 ser=[BC]22037116 Details on http://radiosondy.info
W4DEX-14D220371162022-12-05 23:31:5637.1776-80.09631031339067Clb=4.6m/s Type=DFM17 ser=[BC]22037116 Details on http://radiosondy.info
KD4EG-15D220371162022-12-05 23:31:4837.1784-80.09981061289031Clb=5.1m/s t=-40.0C h=-1.0% p=-1.0hPa 404.011 MHz Type=DFM17 ser=22037116 Radiosonde
W4DEX-14D220371162022-12-05 23:31:4137.1789-80.10231071308998Clb=5.9m/s Type=DFM17 ser=[BC]22037116 Details on http://radiosondy.info
KG4IFE-1D220371162022-12-05 23:31:4037.1792-80.10351021228984Clb=6.2m/s t=-39.8C h=-1.0% p=-1.0hPa 404.010 MHz Type=DFM17 ser=22037116 Radiosonde
W4KZK-14D220371162022-12-05 23:31:3937.1794-80.10421071308974Clb=3.2m/s t=-39.7C h=-1.0% p=-1.0hPa 404.010 MHz Type=DFM17 ser=22037116 Radiosonde
W4DEX-14D220371162022-12-05 23:31:2637.1804-80.10811081268927Clb=3.5m/s Type=DFM17 ser=[BC]22037116 Details on http://radiosondy.info
KD4EG-15D220371162022-12-05 23:31:1737.1813-80.11191071208886Clb=4.5m/s t=-38.9C h=-1.0% p=-1.0hPa 404.011 MHz Type=DFM17 ser=22037116 Radiosonde
W4DEX-14D220371162022-12-05 23:31:1137.1818-80.11371071268859Clb=4.5m/s Type=DFM17 ser=[BC]22037116 Details on http://radiosondy.info
KG4IFE-1D220371162022-12-05 23:31:0937.1821-80.11491091228851Clb=4.3m/s t=-38.6C h=-1.0% p=-1.0hPa 404.010 MHz Type=DFM17 ser=22037116 Radiosonde
W4KZK-14D220371162022-12-05 23:31:0637.1824-80.11631091208833Clb=4.2m/s t=-38.5C h=-1.0% p=-1.0hPa 404.010 MHz Type=DFM17 ser=22037116 Radiosonde
W4DEX-14D220371162022-12-05 23:30:5637.1832-80.11931061248794Clb=4.7m/s Type=DFM17 ser=[BC]22037116 Details on http://radiosondy.info
KD4EG-15D220371162022-12-05 23:30:4637.1843-80.12341091178750Clb=3.0m/s t=-37.9C h=-1.0% p=-1.0hPa 404.011 MHz Type=DFM17 ser=22037116 Radiosonde
W4DEX-14D220371162022-12-05 23:30:4137.1847-80.12491121268730Clb=5.1m/s Type=DFM17 ser=[BC]22037116 Details on http://radiosondy.info
KG4IFE-1D220371162022-12-05 23:30:3837.1852-80.12631101228716Clb=3.6m/s t=-37.6C h=-1.0% p=-1.0hPa 404.010 MHz Type=DFM17 ser=22037116 Radiosonde
W4KZK-14D220371162022-12-05 23:30:3237.1858-80.12861101288690Clb=3.9m/s t=-37.5C h=-1.0% p=-1.0hPa 404.010 MHz Type=DFM17 ser=22037116 Radiosonde
W4DEX-14D220371162022-12-05 23:30:2637.1863-80.13041131248665Clb=5.2m/s Type=DFM17 ser=[BC]22037116 Details on http://radiosondy.info
KD4EG-15D220371162022-12-05 23:30:1537.1877-80.13471081198617Clb=4.3m/s t=-37.0C h=-1.0% p=-1.0hPa 404.011 MHz Type=DFM17 ser=22037116 Radiosonde
W4DEX-14D220371162022-12-05 23:30:1137.188-80.13581141228599Clb=4.4m/s Type=DFM17 ser=[BC]22037116 Details on http://radiosondy.info
KG4IFE-1D220371162022-12-05 23:30:0737.1886-80.13761121208581Clb=4.8m/s t=-36.8C h=-1.0% p=-1.0hPa 404.010 MHz Type=DFM17 ser=22037116 Radiosonde
W4KZK-14D220371162022-12-05 23:29:5937.1896-80.14081121178541Clb=4.3m/s t=-36.5C h=-1.0% p=-1.0hPa 404.010 MHz Type=DFM17 ser=22037116 Radiosonde
W4DEX-14D220371162022-12-05 23:29:5637.1897-80.14121111248531Clb=4.0m/s Type=DFM17 ser=[BC]22037116 Details on http://radiosondy.info
KD4EG-15D220371162022-12-05 23:29:4437.1913-80.14631061248477Clb=6.0m/s t=-36.1C h=-1.0% p=-1.0hPa 404.011 MHz Type=DFM17 ser=22037116 Radiosonde
W4DEX-14D220371162022-12-05 23:29:4137.1914-80.14661061198468Clb=5.0m/s Type=DFM17 ser=[BC]22037116 Details on http://radiosondy.info
KG4IFE-1D220371162022-12-05 23:29:3637.192-80.14881071098442Clb=3.4m/s t=-35.9C h=-1.0% p=-1.0hPa 404.010 MHz Type=DFM17 ser=22037116 Radiosonde
W4KZK-14D220371162022-12-05 23:29:2637.193-80.15221061288395Clb=4.2m/s t=-35.5C h=-1.0% p=-1.0hPa 404.010 MHz Type=DFM17 ser=22037116 Radiosonde
KD4EG-15D220371162022-12-05 23:29:1637.1945-80.1571171028319Clb=8.5m/s t=-34.8C h=-1.0% p=-1.0hPa 404.011 MHz Type=DFM17 ser=22037116 Radiosonde
KG4IFE-1D220371162022-12-05 23:29:1437.1953-80.15981011118267Clb=5.9m/s t=-34.3C h=-1.0% p=-1.0hPa 404.010 MHz Type=DFM17 ser=22037116 Radiosonde
W4DEX-14D220371162022-12-05 23:29:0737.196-80.16241181118220Clb=7.8m/s Type=DFM17 ser=[BC]22037116 Details on http://radiosondy.info
W4KZK-14D220371162022-12-05 23:29:0637.1964-80.16351071078201Clb=5.2m/s t=-33.8C h=-1.0% p=-1.0hPa 404.010 MHz Type=DFM17 ser=22037116 Radiosonde
W4DEX-14D220371162022-12-05 23:28:5137.1977-80.16711211178120Clb=4.1m/s Type=DFM17 ser=[BC]22037116 Details on http://radiosondy.info
KG4IFE-1D220371162022-12-05 23:28:4237.1988-80.17011161178075Clb=3.9m/s t=-32.9C h=-1.0% p=-1.0hPa 404.010 MHz Type=DFM17 ser=22037116 Radiosonde
W4DEX-14D220371162022-12-05 23:28:3237.1995-80.17211101048035Clb=5.3m/s Type=DFM17 ser=[BC]22037116 Details on http://radiosondy.info
W4KZK-14D220371162022-12-05 23:28:2537.2001-80.17461041007996Clb=6.1m/s t=-32.6C h=-1.0% p=-1.0hPa 404.010 MHz Type=DFM17 ser=22037116 Radiosonde
W4DEX-14D220371162022-12-05 23:28:1337.2008-80.1766107937952Clb=4.5m/s Type=DFM17 ser=[BC]22037116 Details on http://radiosondy.info
KG4IFE-1D220371162022-12-05 23:28:0337.2016-80.1792108987912Clb=3.9m/s t=-31.9C h=-1.0% p=-1.0hPa 404.010 MHz Type=DFM17 ser=22037116 Radiosonde
W4DEX-14D220371162022-12-05 23:27:5637.2021-80.1806118897887Clb=4.1m/s Type=DFM17 ser=[BC]22037116 Details on http://radiosondy.info
W4KZK-14D220371162022-12-05 23:27:4837.2027-80.1834111877845Clb=6.7m/s t=-31.6C h=-1.0% p=-1.0hPa 404.010 MHz Type=DFM17 ser=22037116 Radiosonde
W4DEX-14D220371162022-12-05 23:27:4137.2031-80.1846105807810Clb=4.7m/s Type=DFM17 ser=[BC]22037116 Details on http://radiosondy.info
KD4EG-15D220371162022-12-05 23:27:3937.2033-80.1856106817797Clb=5.1m/s t=-31.3C h=-1.0% p=-1.0hPa 404.011 MHz Type=DFM17 ser=22037116 Radiosonde
KG4IFE-1D220371162022-12-05 23:27:3237.2037-80.1872106787767Clb=3.6m/s t=-31.1C h=-1.0% p=-1.0hPa 404.010 MHz Type=DFM17 ser=22037116 Radiosonde
W4DEX-14D220371162022-12-05 23:27:2637.204-80.1882105787746Clb=4.5m/s Type=DFM17 ser=[BC]22037116 Details on http://radiosondy.info
W4KZK-14D220371162022-12-05 23:27:1437.2047-80.1912100677688Clb=6.2m/s t=-30.6C h=-1.0% p=-1.0hPa 404.010 MHz Type=DFM17 ser=22037116 Radiosonde
W4DEX-14D220371162022-12-05 23:27:1137.2047-80.1917101817672Clb=4.7m/s Type=DFM17 ser=[BC]22037116 Details on http://radiosondy.info
KD4EG-15D220371162022-12-05 23:27:0837.205-80.1927112747659Clb=4.1m/s t=-30.4C h=-1.0% p=-1.0hPa 404.011 MHz Type=DFM17 ser=22037116 Radiosonde
KG4IFE-1D220371162022-12-05 23:27:0037.2055-80.1949103767620Clb=3.4m/s t=-30.1C h=-1.0% p=-1.0hPa 404.010 MHz Type=DFM17 ser=22037116 Radiosonde
W4DEX-14D220371162022-12-05 23:26:5637.2056-80.1954107837608Clb=4.1m/s Type=DFM17 ser=[BC]22037116 Details on http://radiosondy.info
W4KZK-14D220371162022-12-05 23:26:4137.2065-80.1994103787534Clb=5.4m/s t=-29.4C h=-1.0% p=-1.0hPa 404.010 MHz Type=DFM17 ser=22037116 Radiosonde
KD4EG-15D220371162022-12-05 23:26:3737.2067-80.2004104837517Clb=4.7m/s t=-29.2C h=-1.0% p=-1.0hPa 404.011 MHz Type=DFM17 ser=22037116 Radiosonde
KG4IFE-1D220371162022-12-05 23:26:2937.2071-80.2024104817484Clb=4.6m/s t=-28.9C h=-1.0% p=-1.0hPa 404.010 MHz Type=DFM17 ser=22037116 Radiosonde
W4DEX-14D220371162022-12-05 23:26:2637.2072-80.2029101837473Clb=3.8m/s Type=DFM17 ser=[BC]22037116 Details on http://radiosondy.info
W4DEX-14D220371162022-12-05 23:26:1137.208-80.2067102807413Clb=4.9m/s Type=DFM17 ser=[BC]22037116 Details on http://radiosondy.info
W4KZK-14D220371162022-12-05 23:26:0837.2081-80.2077103747400Clb=3.6m/s t=-28.3C h=-1.0% p=-1.0hPa 404.010 MHz Type=DFM17 ser=22037116 Radiosonde
KD4EG-15D220371162022-12-05 23:26:0737.2082-80.2082103787393Clb=4.3m/s t=-28.2C h=-1.0% p=-1.0hPa 404.011 MHz Type=DFM17 ser=22037116 Radiosonde
KG4IFE-1D220371162022-12-05 23:25:5837.2086-80.2101104767360Clb=4.5m/s t=-27.9C h=-1.0% p=-1.0hPa 404.010 MHz Type=DFM17 ser=22037116 Radiosonde
W4DEX-14D220371162022-12-05 23:25:5637.2087-80.2103107787352Clb=4.0m/s Type=DFM17 ser=[BC]22037116 Details on http://radiosondy.info
W4DEX-14D220371162022-12-05 23:25:4137.2094-80.2139102767291Clb=2.8m/s Type=DFM17 ser=[BC]22037116 Details on http://radiosondy.info
KD4EG-15D220371162022-12-05 23:25:3537.2098-80.2155105707267Clb=3.8m/s t=-27.2C h=-1.0% p=-1.0hPa 404.011 MHz Type=DFM17 ser=22037116 Radiosonde
KG4IFE-1D220371162022-12-05 23:25:2737.2102-80.2173108767234Clb=5.2m/s t=-26.9C h=-1.0% p=-1.0hPa 404.010 MHz Type=DFM17 ser=22037116 Radiosonde
W4DEX-14D220371162022-12-05 23:25:2637.2102-80.2173108747230Clb=3.2m/s Type=DFM17 ser=[BC]22037116 Details on http://radiosondy.info
W4DEX-14D220371162022-12-05 23:25:1137.2109-80.2207103747169Clb=3.9m/s Type=DFM17 ser=[BC]22037116 Details on http://radiosondy.info
KD4EG-15D220371162022-12-05 23:25:0437.2114-80.2227110747137Clb=3.3m/s t=-26.0C h=-1.0% p=-1.0hPa 404.011 MHz Type=DFM17 ser=22037116 Radiosonde
W4KZK-14D220371162022-12-05 23:25:0237.2115-80.2229107747133Clb=3.7m/s t=-26.0C h=-1.0% p=-1.0hPa 404.010 MHz Type=DFM17 ser=22037116 Radiosonde
KG4IFE-1D220371162022-12-05 23:25:0037.2118-80.2243102727110Clb=3.6m/s t=-25.8C h=-1.0% p=-1.0hPa 404.010 MHz Type=DFM17 ser=22037116 Radiosonde
W4DEX-14D220371162022-12-05 23:24:4737.2126-80.2274105787052Clb=3.8m/s Type=DFM17 ser=[BC]22037116 Details on http://radiosondy.info
KD4EG-15D220371162022-12-05 23:24:3937.2131-80.2295109767021Clb=3.9m/s t=-24.9C h=-1.0% p=-1.0hPa 404.011 MHz Type=DFM17 ser=22037116 Radiosonde
W4KZK-14D220371162022-12-05 23:24:3437.2134-80.2304107807005Clb=3.1m/s t=-24.8C h=-1.0% p=-1.0hPa 404.010 MHz Type=DFM17 ser=22037116 Radiosonde
W4DEX-14D220371162022-12-05 23:24:3037.2135-80.2308104786994Clb=3.6m/s Type=DFM17 ser=[BC]22037116 Details on http://radiosondy.info
KG4IFE-1D220371162022-12-05 23:24:2937.2137-80.2315106766985Clb=3.4m/s t=-24.6C h=-1.0% p=-1.0hPa 404.010 MHz Type=DFM17 ser=22037116 Radiosonde
W4DEX-14D220371162022-12-05 23:24:1237.2144-80.2343103786934Clb=4.2m/s Type=DFM17 ser=[BC]22037116 Details on http://radiosondy.info
KD4EG-15D220371162022-12-05 23:24:0337.215-80.2367101766887Clb=4.9m/s t=-23.8C h=-1.0% p=-1.0hPa 404.011 MHz Type=DFM17 ser=22037116 Radiosonde
W4KZK-14D220371162022-12-05 23:23:5637.2154-80.238106786863Clb=3.9m/s t=-23.5C h=-1.0% p=-1.0hPa 404.010 MHz Type=DFM17 ser=22037116 Radiosonde
KG4IFE-1D220371162022-12-05 23:23:5437.2154-80.2384101766853Clb=3.6m/s t=-23.5C h=-1.0% p=-1.0hPa 404.010 MHz Type=DFM17 ser=22037116 Radiosonde
W4DEX-14D220371162022-12-05 23:23:4137.216-80.2413111766806Clb=3.8m/s Type=DFM17 ser=[BC]22037116 Details on http://radiosondy.info
KD4EG-15D220371162022-12-05 23:23:3137.2165-80.2439107816767Clb=3.2m/s t=-22.7C h=-1.0% p=-1.0hPa 404.011 MHz Type=DFM17 ser=22037116 Radiosonde
W4DEX-14D220371162022-12-05 23:23:1137.2176-80.2482109726690Clb=4.7m/s Type=DFM17 ser=[BC]22037116 Details on http://radiosondy.info
KD4EG-15D220371162022-12-05 23:23:0037.2182-80.2509111706646Clb=3.9m/s t=-21.8C h=-1.0% p=-1.0hPa 404.011 MHz Type=DFM17 ser=22037116 Radiosonde
W4DEX-14D220371162022-12-05 23:22:5637.2183-80.2515108706630Clb=4.8m/s Type=DFM17 ser=[BC]22037116 Details on http://radiosondy.info
KG4IFE-1D220371162022-12-05 23:22:5237.2186-80.2526109746612Clb=3.1m/s t=-21.6C h=-1.0% p=-1.0hPa 404.010 MHz Type=DFM17 ser=22037116 Radiosonde
W4KZK-14D220371162022-12-05 23:22:5037.2187-80.253109636604Clb=3.1m/s t=-21.5C h=-1.0% p=-1.0hPa 404.010 MHz Type=DFM17 ser=22037116 Radiosonde
W4DEX-14D220371162022-12-05 23:22:4137.2191-80.2547100706569Clb=3.8m/s Type=DFM17 ser=[BC]22037116 Details on http://radiosondy.info
KD4EG-15D220371162022-12-05 23:22:2937.2197-80.2573109676522Clb=4.3m/s t=-21.0C h=-1.0% p=-1.0hPa 404.011 MHz Type=DFM17 ser=22037116 Radiosonde
W4DEX-14D220371162022-12-05 23:22:2637.2199-80.2578107676511Clb=4.6m/s Type=DFM17 ser=[BC]22037116 Details on http://radiosondy.info
KG4IFE-1D220371162022-12-05 23:22:2137.2201-80.2589109726493Clb=3.5m/s t=-20.8C h=-1.0% p=-1.0hPa 404.010 MHz Type=DFM17 ser=22037116 Radiosonde
W4KZK-14D220371162022-12-05 23:22:1737.2204-80.2597113676479Clb=4.0m/s t=-20.7C h=-1.0% p=-1.0hPa 404.010 MHz Type=DFM17 ser=22037116 Radiosonde
W4DEX-14D220371162022-12-05 23:22:1137.2207-80.2607114676457Clb=3.8m/s Type=DFM17 ser=[BC]22037116 Details on http://radiosondy.info
KD4EG-15D220371162022-12-05 23:21:5837.2215-80.2635109706407Clb=4.2m/s t=-20.3C h=-1.0% p=-1.0hPa 404.011 MHz Type=DFM17 ser=22037116 Radiosonde
W4DEX-14D220371162022-12-05 23:21:5637.2215-80.2637108696400Clb=3.2m/s Type=DFM17 ser=[BC]22037116 Details on http://radiosondy.info
KG4IFE-1D220371162022-12-05 23:21:5037.222-80.2653104726372Clb=4.0m/s t=-20.1C h=-1.0% p=-1.0hPa 404.010 MHz Type=DFM17 ser=22037116 Radiosonde
W4KZK-14D220371162022-12-05 23:21:4437.2223-80.2665103676349Clb=3.5m/s t=-19.9C h=-1.0% p=-1.0hPa 404.010 MHz Type=DFM17 ser=22037116 Radiosonde
W4DEX-14D220371162022-12-05 23:21:4137.2223-80.2667106676342Clb=4.0m/s Type=DFM17 ser=[BC]22037116 Details on http://radiosondy.info
KD4EG-15D220371162022-12-05 23:21:2737.223-80.2698100696291Clb=3.2m/s t=-19.5C h=-1.0% p=-1.0hPa 404.011 MHz Type=DFM17 ser=22037116 Radiosonde
W4DEX-14D220371162022-12-05 23:21:2637.223-80.2698101676287Clb=4.0m/s Type=DFM17 ser=[BC]22037116 Details on http://radiosondy.info
KG4IFE-1D220371162022-12-05 23:21:1937.2233-80.2714101676260Clb=5.1m/s t=-19.2C h=-1.0% p=-1.0hPa 404.010 MHz Type=DFM17 ser=22037116 Radiosonde
W4DEX-14D220371162022-12-05 23:21:1137.2236-80.2728105696230Clb=4.3m/s Type=DFM17 ser=[BC]22037116 Details on http://radiosondy.info
W4DEX-14D220371162022-12-05 23:20:5637.2243-80.2759102706175Clb=3.7m/s Type=DFM17 ser=[BC]22037116 Details on http://radiosondy.info
KG4IFE-1D220371162022-12-05 23:20:4937.2247-80.2778103706146Clb=4.1m/s t=-18.3C h=-1.0% p=-1.0hPa 404.010 MHz Type=DFM17 ser=22037116 Radiosonde
W4DEX-14D220371162022-12-05 23:20:4237.225-80.279104706121Clb=3.2m/s Type=DFM17 ser=[BC]22037116 Details on http://radiosondy.info
W4KZK-14D220371162022-12-05 23:20:3937.2253-80.2801105616106Clb=3.5m/s t=-18.0C h=-1.0% p=-1.0hPa 404.010 MHz Type=DFM17 ser=22037116 Radiosonde
W4DEX-14D220371162022-12-05 23:20:2737.2258-80.2822113676063Clb=2.7m/s Type=DFM17 ser=[BC]22037116 Details on http://radiosondy.info
KD4EG-15D220371162022-12-05 23:20:2537.2261-80.283104616051Clb=5.1m/s t=-17.6C h=-1.0% p=-1.0hPa 404.011 MHz Type=DFM17 ser=22037116 Radiosonde
KG4IFE-1D220371162022-12-05 23:20:1737.2264-80.2841106706024Clb=4.6m/s t=-17.4C h=-1.0% p=-1.0hPa 404.010 MHz Type=DFM17 ser=22037116 Radiosonde
W4DEX-14D220371162022-12-05 23:20:1137.2267-80.2851108706001Clb=4.2m/s Type=DFM17 ser=[BC]22037116 Details on http://radiosondy.info
W4KZK-14D220371162022-12-05 23:20:0537.2271-80.2868113635972Clb=3.2m/s t=-16.9C h=-1.0% p=-1.0hPa 404.010 MHz Type=DFM17 ser=22037116 Radiosonde
W4DEX-14D220371162022-12-05 23:19:5637.2276-80.2882105705943Clb=3.9m/s Type=DFM17 ser=[BC]22037116 Details on http://radiosondy.info
KG4IFE-1D220371162022-12-05 23:19:4637.2282-80.2905107655906Clb=4.4m/s t=-16.5C h=-1.0% p=-1.0hPa 404.010 MHz Type=DFM17 ser=22037116 Radiosonde
W4DEX-14D220371162022-12-05 23:19:4137.2285-80.2912110655888Clb=3.1m/s Type=DFM17 ser=[BC]22037116 Details on http://radiosondy.info
W4KZK-14D220371162022-12-05 23:19:3137.2291-80.2934105675852Clb=3.2m/s t=-16.2C h=-1.0% p=-1.0hPa 404.010 MHz Type=DFM17 ser=22037116 Radiosonde
W4DEX-14D220371162022-12-05 23:19:2637.2293-80.2941120575833Clb=4.3m/s Type=DFM17 ser=[BC]22037116 Details on http://radiosondy.info
KD4EG-15D220371162022-12-05 23:19:2237.2296-80.295109635816Clb=4.5m/s t=-15.9C h=-1.0% p=-1.0hPa 404.011 MHz Type=DFM17 ser=22037116 Radiosonde
KG4IFE-1D220371162022-12-05 23:19:1537.23-80.2963111565783Clb=3.4m/s t=-15.7C h=-1.0% p=-1.0hPa 404.010 MHz Type=DFM17 ser=22037116 Radiosonde
W4DEX-14D220371162022-12-05 23:19:1137.2301-80.2966113575771Clb=4.2m/s Type=DFM17 ser=[BC]22037116 Details on http://radiosondy.info
W4KZK-14D220371162022-12-05 23:18:5837.2309-80.2989118525724Clb=4.5m/s t=-15.3C h=-1.0% p=-1.0hPa 404.010 MHz Type=DFM17 ser=22037116 Radiosonde
W4DEX-14D220371162022-12-05 23:18:5637.231-80.2991124565716Clb=4.4m/s Type=DFM17 ser=[BC]22037116 Details on http://radiosondy.info
KD4EG-15D220371162022-12-05 23:18:5137.2313-80.3118595693Clb=3.8m/s t=-15.2C h=-1.0% p=-1.0hPa 404.011 MHz Type=DFM17 ser=22037116 Radiosonde
KG4IFE-1D220371162022-12-05 23:18:4437.2318-80.3011118565663Clb=4.7m/s t=-15.0C h=-1.0% p=-1.0hPa 404.010 MHz Type=DFM17 ser=22037116 Radiosonde
W4DEX-14D220371162022-12-05 23:18:4137.2319-80.3014117595651Clb=4.1m/s Type=DFM17 ser=[BC]22037116 Details on http://radiosondy.info
W4DEX-14D220371162022-12-05 23:18:2637.2327-80.304113615592Clb=3.3m/s Type=DFM17 ser=[BC]22037116 Details on http://radiosondy.info
W4KZK-14D220371162022-12-05 23:18:2537.2329-80.3044113695588Clb=3.2m/s t=-14.8C h=-1.0% p=-1.0hPa 404.010 MHz Type=DFM17 ser=22037116 Radiosonde
KD4EG-15D220371162022-12-05 23:18:2137.2331-80.3053107615569Clb=3.5m/s t=-14.8C h=-1.0% p=-1.0hPa 404.011 MHz Type=DFM17 ser=22037116 Radiosonde
KG4IFE-1D220371162022-12-05 23:18:1237.2336-80.3067117615537Clb=5.0m/s t=-14.7C h=-1.0% p=-1.0hPa 404.010 MHz Type=DFM17 ser=22037116 Radiosonde
W4DEX-14D220371162022-12-05 23:18:1137.2336-80.3067118655533Clb=3.1m/s Type=DFM17 ser=[BC]22037116 Details on http://radiosondy.info
W4DEX-14D220371162022-12-05 23:17:5637.2344-80.3095112615467Clb=3.2m/s Type=DFM17 ser=[BC]22037116 Details on http://radiosondy.info
W4KZK-14D220371162022-12-05 23:17:5237.2347-80.3103111745446Clb=6.3m/s t=-14.2C h=-1.0% p=-1.0hPa 404.010 MHz Type=DFM17 ser=22037116 Radiosonde
KD4EG-15D220371162022-12-05 23:17:4937.2349-80.311119725426Clb=4.4m/s t=-14.1C h=-1.0% p=-1.0hPa 404.011 MHz Type=DFM17 ser=22037116 Radiosonde
KG4IFE-1D220371162022-12-05 23:17:4137.2354-80.3122110395384Clb=4.5m/s t=-13.8C h=-1.0% p=-1.0hPa 404.010 MHz Type=DFM17 ser=22037116 Radiosonde
W4DEX-14D220371162022-12-05 23:17:2637.2359-80.3146105575310Clb=3.4m/s Type=DFM17 ser=[BC]22037116 Details on http://radiosondy.info
W4KZK-14D220371162022-12-05 23:17:1937.2362-80.31696395273Clb=4.2m/s t=-13.2C h=-1.0% p=-1.0hPa 404.010 MHz Type=DFM17 ser=22037116 Radiosonde
KD4EG-15D220371162022-12-05 23:17:1837.2362-80.3161101395268Clb=4.3m/s t=-13.1C h=-1.0% p=-1.0hPa 404.011 MHz Type=DFM17 ser=22037116 Radiosonde
W4DEX-14D220371162022-12-05 23:17:1137.2365-80.317194525228Clb=4.6m/s Type=DFM17 ser=[BC]22037116 Details on http://radiosondy.info
KG4IFE-1D220371162022-12-05 23:17:1037.2364-80.31882485207Clb=4.1m/s t=-12.6C h=-1.0% p=-1.0hPa 404.010 MHz Type=DFM17 ser=22037116 Radiosonde
W4DEX-14D220371162022-12-05 23:16:5637.2364-80.319591565150Clb=3.7m/s Type=DFM17 ser=[BC]22037116 Details on http://radiosondy.info
KD4EG-15D220371162022-12-05 23:16:4737.2367-80.321191615104Clb=6.4m/s t=-12.3C h=-1.0% p=-1.0hPa 404.011 MHz Type=DFM17 ser=22037116 Radiosonde
W4KZK-14D220371162022-12-05 23:16:4637.2367-80.321393635098Clb=5.2m/s t=-12.2C h=-1.0% p=-1.0hPa 404.010 MHz Type=DFM17 ser=22037116 Radiosonde
W4DEX-14D220371162022-12-05 23:16:4137.2367-80.322194545076Clb=4.6m/s Type=DFM17 ser=[BC]22037116 Details on http://radiosondy.info
KG4IFE-1D220371162022-12-05 23:16:4037.2367-80.322593545067Clb=5.1m/s t=-12.0C h=-1.0% p=-1.0hPa 404.010 MHz Type=DFM17 ser=22037116 Radiosonde
W4DEX-14D220371162022-12-05 23:16:2637.2368-80.324688565015Clb=2.9m/s Type=DFM17 ser=[BC]22037116 Details on http://radiosondy.info
KD4EG-15D220371162022-12-05 23:16:1637.2369-80.326696574965Clb=4.1m/s t=-11.2C h=-1.0% p=-1.0hPa 404.011 MHz Type=DFM17 ser=22037116 Radiosonde
W4KZK-14D220371162022-12-05 23:16:1337.2369-80.32784574957Clb=4.2m/s t=-11.2C h=-1.0% p=-1.0hPa 404.010 MHz Type=DFM17 ser=22037116 Radiosonde
W4DEX-14D220371162022-12-05 23:16:1137.2369-80.327283574949Clb=4.6m/s Type=DFM17 ser=[BC]22037116 Details on http://radiosondy.info
KG4IFE-1D220371162022-12-05 23:16:0837.2368-80.327884564937Clb=4.4m/s t=-11.0C h=-1.0% p=-1.0hPa 404.010 MHz Type=DFM17 ser=22037116 Radiosonde
W4DEX-14D220371162022-12-05 23:15:5637.2368-80.329890574886Clb=4.7m/s Type=DFM17 ser=[BC]22037116 Details on http://radiosondy.info
KD4EG-15D220371162022-12-05 23:15:4537.2369-80.33298564841Clb=3.9m/s t=-10.5C h=-1.0% p=-1.0hPa 404.011 MHz Type=DFM17 ser=22037116 Radiosonde
W4DEX-14D220371162022-12-05 23:15:4137.2369-80.332690614824Clb=3.5m/s Type=DFM17 ser=[BC]22037116 Details on http://radiosondy.info
W4KZK-14D220371162022-12-05 23:15:4037.2369-80.33395634820Clb=4.2m/s t=-10.7C h=-1.0% p=-1.0hPa 404.010 MHz Type=DFM17 ser=22037116 Radiosonde
KG4IFE-1D220371162022-12-05 23:15:3737.237-80.333686594808Clb=4.0m/s t=-10.8C h=-1.0% p=-1.0hPa 404.010 MHz Type=DFM17 ser=22037116 Radiosonde
W4DEX-14D220371162022-12-05 23:15:2637.2372-80.335497564767Clb=2.8m/s Type=DFM17 ser=[BC]22037116 Details on http://radiosondy.info
KD4EG-15D220371162022-12-05 23:15:1437.2375-80.337694524716Clb=5.8m/s t=-10.3C h=-1.0% p=-1.0hPa 404.011 MHz Type=DFM17 ser=22037116 Radiosonde
W4DEX-14D220371162022-12-05 23:15:1137.2375-80.3379103524700Clb=3.6m/s Type=DFM17 ser=[BC]22037116 Details on http://radiosondy.info
W4KZK-14D220371162022-12-05 23:15:0737.2376-80.3388103504684Clb=3.6m/s t=-10.1C h=-1.0% p=-1.0hPa 404.010 MHz Type=DFM17 ser=22037116 Radiosonde
KG4IFE-1D220371162022-12-05 23:15:0637.2376-80.3389104464681Clb=3.3m/s t=-10.0C h=-1.0% p=-1.0hPa 404.010 MHz Type=DFM17 ser=22037116 Radiosonde
W4DEX-14D220371162022-12-05 23:14:5637.2378-80.340399484645Clb=3.2m/s Type=DFM17 ser=[BC]22037116 Details on http://radiosondy.info
KD4EG-15D220371162022-12-05 23:14:4337.2381-80.342496464581Clb=5.1m/s t=-9.5C h=-1.0% p=-1.0hPa 404.011 MHz Type=DFM17 ser=22037116 Radiosonde
W4DEX-14D220371162022-12-05 23:14:4137.2381-80.342597484572Clb=5.0m/s Type=DFM17 ser=[BC]22037116 Details on http://radiosondy.info
KG4IFE-1D220371162022-12-05 23:14:3537.2384-80.3437107394546Clb=3.3m/s t=-9.7C h=-1.0% p=-1.0hPa 404.010 MHz Type=DFM17 ser=22037116 Radiosonde
W4KZK-14D220371162022-12-05 23:14:3437.2384-80.3437107394546Clb=3.3m/s t=-9.7C h=-1.0% p=-1.0hPa 404.010 MHz Type=DFM17 ser=22037116 Radiosonde
W4DEX-14D220371162022-12-05 23:14:2637.2385-80.344791434500Clb=4.4m/s Type=DFM17 ser=[BC]22037116 Details on http://radiosondy.info
KD4EG-15D220371162022-12-05 23:14:1237.2387-80.346782504439Clb=4.2m/s t=-9.5C h=-1.0% p=-1.0hPa 404.011 MHz Type=DFM17 ser=22037116 Radiosonde
W4DEX-14D220371162022-12-05 23:14:1137.2387-80.346783464435Clb=4.6m/s Type=DFM17 ser=[BC]22037116 Details on http://radiosondy.info
KG4IFE-1D220371162022-12-05 23:14:0437.2388-80.3481104374401Clb=4.8m/s t=-9.2C h=-1.0% p=-1.0hPa 404.010 MHz Type=DFM17 ser=22037116 Radiosonde
W4KZK-14D220371162022-12-05 23:14:0137.2388-80.348497314387Clb=4.4m/s t=-9.1C h=-1.0% p=-1.0hPa 404.010 MHz Type=DFM17 ser=22037116 Radiosonde
W4DEX-14D220371162022-12-05 23:13:5637.2389-80.3489102524360Clb=5.7m/s Type=DFM17 ser=[BC]22037116 Details on http://radiosondy.info
KD4EG-15D220371162022-12-05 23:13:4137.239-80.3517107524276Clb=6.4m/s t=-8.1C h=-1.0% p=-1.0hPa 404.011 MHz Type=DFM17 ser=22037116 Radiosonde
KG4IFE-1D220371162022-12-05 23:13:3337.2392-80.352595334242Clb=4.9m/s t=-7.8C h=-1.0% p=-1.0hPa 404.010 MHz Type=DFM17 ser=22037116 Radiosonde
W4KZK-14D220371162022-12-05 23:13:2837.2393-80.353485574209Clb=4.9m/s t=-7.5C h=-1.0% p=-1.0hPa 404.010 MHz Type=DFM17 ser=22037116 Radiosonde
W4DEX-14D220371162022-12-05 23:13:2637.2393-80.353486464205Clb=3.5m/s Type=DFM17 ser=[BC]22037116 Details on http://radiosondy.info
W4DEX-14D220371162022-12-05 23:13:1137.2394-80.355582484130Clb=5.1m/s Type=DFM17 ser=[BC]22037116 Details on http://radiosondy.info
KD4EG-15D220371162022-12-05 23:13:1037.2393-80.355779444124Clb=6.2m/s t=-6.9C h=-1.0% p=-1.0hPa 404.011 MHz Type=DFM17 ser=22037116 Radiosonde
KG4IFE-1D220371162022-12-05 23:13:0237.2394-80.3569100504082Clb=3.4m/s t=-6.5C h=-1.0% p=-1.0hPa 404.010 MHz Type=DFM17 ser=22037116 Radiosonde
W4DEX-14D220371162022-12-05 23:12:5637.2394-80.357873464054Clb=4.2m/s Type=DFM17 ser=[BC]22037116 Details on http://radiosondy.info
W4KZK-14D220371162022-12-05 23:12:5537.2393-80.358174354050Clb=5.4m/s t=-6.4C h=-1.0% p=-1.0hPa 404.010 MHz Type=DFM17 ser=22037116 Radiosonde
W4DEX-14D220371162022-12-05 23:12:4137.2392-80.359990373977Clb=6.6m/s Type=DFM17 ser=[BC]22037116 Details on http://radiosondy.info
KD4EG-15D220371162022-12-05 23:12:3937.2392-80.360399433965Clb=7.5m/s t=-5.8C h=-1.0% p=-1.0hPa 404.011 MHz Type=DFM17 ser=22037116 Radiosonde
KG4IFE-1D220371162022-12-05 23:12:3137.2391-80.361295413920Clb=4.1m/s t=-5.5C h=-1.0% p=-1.0hPa 404.010 MHz Type=DFM17 ser=22037116 Radiosonde
W4DEX-14D220371162022-12-05 23:12:2637.2391-80.361659443900Clb=4.1m/s Type=DFM17 ser=[BC]22037116 Details on http://radiosondy.info
W4KZK-14D220371162022-12-05 23:12:2237.2389-80.362486433875Clb=5.1m/s t=-5.1C h=-1.0% p=-1.0hPa 404.010 MHz Type=DFM17 ser=22037116 Radiosonde
W4DEX-14D220371162022-12-05 23:12:1137.2388-80.363792333826Clb=5.4m/s Type=DFM17 ser=[BC]22037116 Details on http://radiosondy.info
KD4EG-15D220371162022-12-05 23:12:0837.2388-80.36472263811Clb=4.6m/s t=-4.7C h=-1.0% p=-1.0hPa 404.011 MHz Type=DFM17 ser=22037116 Radiosonde
KG4IFE-1D220371162022-12-05 23:12:0037.2387-80.364989413766Clb=4.8m/s t=-4.5C h=-1.0% p=-1.0hPa 404.010 MHz Type=DFM17 ser=22037116 Radiosonde
W4DEX-14D220371162022-12-05 23:11:5637.2387-80.365287413754Clb=4.1m/s Type=DFM17 ser=[BC]22037116 Details on http://radiosondy.info
W4KZK-14D220371162022-12-05 23:11:4937.2386-80.366286433716Clb=3.2m/s t=-4.2C h=-1.0% p=-1.0hPa 404.010 MHz Type=DFM17 ser=22037116 Radiosonde
W4DEX-14D220371162022-12-05 23:11:4137.2384-80.367151393679Clb=5.3m/s Type=DFM17 ser=[BC]22037116 Details on http://radiosondy.info
KD4EG-15D220371162022-12-05 23:11:3737.2382-80.367564263663Clb=4.1m/s t=-3.7C h=-1.0% p=-1.0hPa 404.011 MHz Type=DFM17 ser=22037116 Radiosonde
KG4IFE-1D220371162022-12-05 23:11:2937.2379-80.368458443616Clb=7.2m/s t=-3.4C h=-1.0% p=-1.0hPa 404.010 MHz Type=DFM17 ser=22037116 Radiosonde
W4DEX-14D220371162022-12-05 23:11:2637.2378-80.368779413597Clb=4.8m/s Type=DFM17 ser=[BC]22037116 Details on http://radiosondy.info
W4KZK-14D220371162022-12-05 23:11:1537.2376-80.370276483550Clb=4.4m/s t=-3.1C h=-1.0% p=-1.0hPa 404.010 MHz Type=DFM17 ser=22037116 Radiosonde
W4DEX-14D220371162022-12-05 23:11:1137.2375-80.370586353529Clb=5.1m/s Type=DFM17 ser=[BC]22037116 Details on http://radiosondy.info
KD4EG-15D220371162022-12-05 23:11:0637.2373-80.371345353496Clb=6.7m/s t=-2.9C h=-1.0% p=-1.0hPa 404.011 MHz Type=DFM17 ser=22037116 Radiosonde
KG4IFE-1D220371162022-12-05 23:10:5837.2371-80.371958413459Clb=5.0m/s t=-2.7C h=-1.0% p=-1.0hPa 404.010 MHz Type=DFM17 ser=22037116 Radiosonde
W4DEX-14D220371162022-12-05 23:10:5637.237-80.37257373451Clb=3.6m/s Type=DFM17 ser=[BC]22037116 Details on http://radiosondy.info
W4KZK-14D220371162022-12-05 23:10:4237.2363-80.373580333389Clb=4.5m/s t=-2.4C h=-1.0% p=-1.0hPa 404.010 MHz Type=DFM17 ser=22037116 Radiosonde
W4DEX-14D220371162022-12-05 23:10:4137.2363-80.373580303384Clb=5.9m/s Type=DFM17 ser=[BC]22037116 Details on http://radiosondy.info
KD4EG-15D220371162022-12-05 23:10:3437.2361-80.374140243338Clb=3.7m/s t=-2.4C h=-1.0% p=-1.0hPa 404.011 MHz Type=DFM17 ser=22037116 Radiosonde
W4DEX-14D220371162022-12-05 23:10:2637.2358-80.374782413297Clb=3.3m/s Type=DFM17 ser=[BC]22037116 Details on http://radiosondy.info
W4DEX-14D220371162022-12-05 23:10:1137.2349-80.376348413232Clb=4.3m/s Type=DFM17 ser=[BC]22037116 Details on http://radiosondy.info
W4KZK-14D220371162022-12-05 23:10:0937.2348-80.376561303223Clb=4.1m/s t=-2.0C h=-1.0% p=-1.0hPa 404.010 MHz Type=DFM17 ser=22037116 Radiosonde
KD4EG-15D220371162022-12-05 23:10:0337.2346-80.377360543197Clb=5.2m/s t=-1.9C h=-1.0% p=-1.0hPa 404.011 MHz Type=DFM17 ser=22037116 Radiosonde
W4DEX-14D220371162022-12-05 23:09:5637.2343-80.377985483160Clb=5.1m/s Type=DFM17 ser=[BC]22037116 Details on http://radiosondy.info
KG4IFE-1D220371162022-12-05 23:09:5537.2342-80.378460543150Clb=4.8m/s t=-1.5C h=-1.0% p=-1.0hPa 404.010 MHz Type=DFM17 ser=22037116 Radiosonde
W4DEX-14D220371162022-12-05 23:09:4137.2337-80.3853443089Clb=3.8m/s Type=DFM17 ser=[BC]22037116 Details on http://radiosondy.info
W4KZK-14D220371162022-12-05 23:09:3637.2334-80.380782503067Clb=4.1m/s t=-1.1C h=-1.0% p=-1.0hPa 404.010 MHz Type=DFM17 ser=22037116 Radiosonde
KD4EG-15D220371162022-12-05 23:09:3237.2333-80.381363443043Clb=6.3m/s t=-0.9C h=-1.0% p=-1.0hPa 404.011 MHz Type=DFM17 ser=22037116 Radiosonde
W4DEX-14D220371162022-12-05 23:09:2637.2331-80.381959503003Clb=4.5m/s Type=DFM17 ser=[BC]22037116 Details on http://radiosondy.info
KG4IFE-1D220371162022-12-05 23:09:2437.2329-80.382375392991Clb=6.5m/s t=-0.7C h=-1.0% p=-1.0hPa 404.010 MHz Type=DFM17 ser=22037116 Radiosonde
W4DEX-14D220371162022-12-05 23:09:1137.2325-80.3842961652915Clb=4.3m/s Type=DFM17 ser=[BC]22037116 Details on http://radiosondy.info
W4KZK-14D220371162022-12-05 23:09:0337.2326-80.385875542892Clb=4.8m/s t=-0.6C h=-1.0% p=-1.0hPa 404.010 MHz Type=DFM17 ser=22037116 Radiosonde
KD4EG-15D220371162022-12-05 23:09:0137.2325-80.386284352876Clb=4.9m/s t=-0.9C h=-1.0% p=-1.0hPa 404.011 MHz Type=DFM17 ser=22037116 Radiosonde
W4DEX-14D220371162022-12-05 23:08:5537.2326-80.386881482852Clb=4.6m/s Type=DFM17 ser=[BC]22037116 Details on http://radiosondy.info
KG4IFE-1D220371162022-12-05 23:08:5337.2325-80.387370442843Clb=5.0m/s t=-0.8C h=-1.0% p=-1.0hPa 404.010 MHz Type=DFM17 ser=22037116 Radiosonde
W4DEX-14D220371162022-12-05 23:08:4037.2322-80.388982442778Clb=3.7m/s Type=DFM Details on http://radiosondy.info
KD4EG-15D220371162022-12-05 23:08:3037.232-80.390372502730Clb=5.6m/s t=-0.3C h=-1.0% p=-1.0hPa 404.011 MHz Type=DFM17 ser=22037116 Radiosonde
W4DEX-14D220371162022-12-05 23:08:2537.2319-80.390994392702Clb=4.2m/s Type=DFM Details on http://radiosondy.info
KG4IFE-1D220371162022-12-05 23:08:2337.2319-80.391358432687Clb=4.5m/s t=-0.1C h=-1.0% p=-1.0hPa 404.010 MHz Type=DFM17 ser=22037116 Radiosonde
W4DEX-14D220371162022-12-05 23:08:1037.2315-80.392790432610Clb=4.8m/s Type=DFM Details on http://radiosondy.info
KD4EG-15D220371162022-12-05 23:07:5937.2312-80.394288312558Clb=5.2m/s t=1.0C h=-1.0% p=-1.0hPa 404.011 MHz Type=DFM17 ser=22037116 Radiosonde
W4KZK-14D220371162022-12-05 23:07:5737.2312-80.394479462548Clb=4.4m/s t=1.1C h=-1.0% p=-1.0hPa 404.010 MHz Type=DFM17 ser=22037116 Radiosonde
KG4IFE-1D220371162022-12-05 23:07:5137.2309-80.395155282520Clb=5.7m/s t=1.3C h=-1.0% p=-1.0hPa 404.010 MHz Type=DFM17 ser=22037116 Radiosonde
KD4EG-15D220371162022-12-05 23:07:2837.2301-80.397862242395Clb=5.1m/s t=2.2C h=-1.0% p=-1.0hPa 404.011 MHz Type=DFM17 ser=22037116 Radiosonde
KG4IFE-1D220371162022-12-05 23:07:2037.2296-80.398558432355Clb=5.0m/s t=2.5C h=-1.0% p=-1.0hPa 404.010 MHz Type=DFM17 ser=22037116 Radiosonde
KD4EG-15D220371162022-12-05 23:06:5737.2288-80.400739302245Clb=5.5m/s t=3.4C h=-1.0% p=-1.0hPa 404.011 MHz Type=DFM17 ser=22037116 Radiosonde
KG4IFE-1D220371162022-12-05 23:06:4937.2282-80.401544392206Clb=6.4m/s t=3.7C h=-1.0% p=-1.0hPa 404.010 MHz Type=DFM17 ser=22037116 Radiosonde
KD4EG-15D220371162022-12-05 23:06:2637.2267-80.403262302084Clb=6.2m/s t=3.0C h=-1.0% p=-1.0hPa 404.011 MHz Type=DFM17 ser=22037116 Radiosonde
KD4EG-15D220371162022-12-05 23:05:5537.2248-80.405638461925Clb=5.4m/s t=3.9C h=-1.0% p=-1.0hPa 404.011 MHz Type=DFM17 ser=22037116 Radiosonde